<?xml version="1.0" encoding="UTF-8"?>
<gpx version="1.0" creator="Trackator" xmlns:xsi="http://www.w3.org/2001/XMLSchema-instance" xmlns="http://www.topografix.com/GPX/1/0" xmlns:topografix="http://www.topografix.com/GPX/Private/TopoGrafix/0/1" xsi:schemaLocation="http://www.topografix.com/GPX/1/0 http://www.topografix.com/GPX/1/0/gpx.xsd http://www.topografix.com/GPX/Private/TopoGrafix/0/1 http://www.topografix.com/GPX/Private/TopoGrafix/0/1/topografix.xsd">
<metadata>
<link href="http://www.trackator.com">
<text>Trackator</text>
</link>
</metadata>
<time>2014-11-03T:39:38Z</time>
<trk>
<name>Track: </name>
<desc>Hiking</desc>
<trkseg>
<trkpt lat="38.08408525" lon="-1.27099411">
<ele>160</ele>
<time>2014-11-03T:39:38Z</time>
</trkpt>
<trkpt lat="38.08405305" lon="-1.27091013">
<ele>114</ele>
<time>2014-11-03T17:39:40Z</time>
</trkpt>
<trkpt lat="38.0840859" lon="-1.27083027">
<ele>135</ele>
<time>2014-11-03T17:39:43Z</time>
</trkpt>
<trkpt lat="38.08407846" lon="-1.27082968">
<ele>134</ele>
<time>2014-11-03T17:39:44Z</time>
</trkpt>
<trkpt lat="38.08408176" lon="-1.27084691">
<ele>134</ele>
<time>2014-11-03T17:39:46Z</time>
</trkpt>
<trkpt lat="38.08407994" lon="-1.27085313">
<ele>134</ele>
<time>2014-11-03T17:39:48Z</time>
</trkpt>
<trkpt lat="38.08409522" lon="-1.27085936">
<ele>134</ele>
<time>2014-11-03T17:39:50Z</time>
</trkpt>
<trkpt lat="38.08411569" lon="-1.27086289">
<ele>134</ele>
<time>2014-11-03T17:39:52Z</time>
</trkpt>
<trkpt lat="38.08413655" lon="-1.27086795">
<ele>134</ele>
<time>2014-11-03T17:39:54Z</time>
</trkpt>
<trkpt lat="38.08415752" lon="-1.27086914">
<ele>135</ele>
<time>2014-11-03T17:39:56Z</time>
</trkpt>
<trkpt lat="38.08418146" lon="-1.27087018">
<ele>136</ele>
<time>2014-11-03T17:39:58Z</time>
</trkpt>
<trkpt lat="38.0842038" lon="-1.2708733">
<ele>136</ele>
<time>2014-11-03T17:40:00Z</time>
</trkpt>
<trkpt lat="38.0842295" lon="-1.27087451">
<ele>136</ele>
<time>2014-11-03T17:40:02Z</time>
</trkpt>
<trkpt lat="38.0842487" lon="-1.27087735">
<ele>138</ele>
<time>2014-11-03T17:40:04Z</time>
</trkpt>
<trkpt lat="38.08426075" lon="-1.27088135">
<ele>138</ele>
<time>2014-11-03T17:40:06Z</time>
</trkpt>
<trkpt lat="38.08427479" lon="-1.27088316">
<ele>139</ele>
<time>2014-11-03T17:40:08Z</time>
</trkpt>
<trkpt lat="38.0842903" lon="-1.27088524">
<ele>140</ele>
<time>2014-11-03T17:40:10Z</time>
</trkpt>
<trkpt lat="38.08430533" lon="-1.27088627">
<ele>141</ele>
<time>2014-11-03T17:40:12Z</time>
</trkpt>
<trkpt lat="38.08432077" lon="-1.27088697">
<ele>142</ele>
<time>2014-11-03T17:40:14Z</time>
</trkpt>
<trkpt lat="38.08433153" lon="-1.27088809">
<ele>144</ele>
<time>2014-11-03T17:40:16Z</time>
</trkpt>
<trkpt lat="38.08434483" lon="-1.27089267">
<ele>145</ele>
<time>2014-11-03T17:40:18Z</time>
</trkpt>
<trkpt lat="38.08435912" lon="-1.27089495">
<ele>147</ele>
<time>2014-11-03T17:40:20Z</time>
</trkpt>
<trkpt lat="38.08437195" lon="-1.27089003">
<ele>148</ele>
<time>2014-11-03T17:40:22Z</time>
</trkpt>
<trkpt lat="38.08438838" lon="-1.27088403">
<ele>149</ele>
<time>2014-11-03T17:40:24Z</time>
</trkpt>
<trkpt lat="38.08440565" lon="-1.27088221">
<ele>149</ele>
<time>2014-11-03T17:40:26Z</time>
</trkpt>
<trkpt lat="38.0844289" lon="-1.27088114">
<ele>149</ele>
<time>2014-11-03T17:40:28Z</time>
</trkpt>
<trkpt lat="38.084456" lon="-1.27087854">
<ele>150</ele>
<time>2014-11-03T17:40:30Z</time>
</trkpt>
<trkpt lat="38.08447645" lon="-1.27087845">
<ele>151</ele>
<time>2014-11-03T17:40:32Z</time>
</trkpt>
<trkpt lat="38.08449842" lon="-1.27088154">
<ele>151</ele>
<time>2014-11-03T17:40:34Z</time>
</trkpt>
<trkpt lat="38.08452305" lon="-1.27088422">
<ele>152</ele>
<time>2014-11-03T17:40:36Z</time>
</trkpt>
<trkpt lat="38.08454648" lon="-1.27088592">
<ele>152</ele>
<time>2014-11-03T17:40:38Z</time>
</trkpt>
<trkpt lat="38.0845668" lon="-1.27088775">
<ele>152</ele>
<time>2014-11-03T17:40:40Z</time>
</trkpt>
<trkpt lat="38.08458313" lon="-1.27088551">
<ele>154</ele>
<time>2014-11-03T17:40:42Z</time>
</trkpt>
<trkpt lat="38.08459603" lon="-1.27088395">
<ele>156</ele>
<time>2014-11-03T17:40:44Z</time>
</trkpt>
<trkpt lat="38.08460799" lon="-1.27087819">
<ele>156</ele>
<time>2014-11-03T17:40:46Z</time>
</trkpt>
<trkpt lat="38.08462216" lon="-1.27087829">
<ele>156</ele>
<time>2014-11-03T17:40:48Z</time>
</trkpt>
<trkpt lat="38.084648" lon="-1.27088826">
<ele>154</ele>
<time>2014-11-03T17:40:50Z</time>
</trkpt>
<trkpt lat="38.08468215" lon="-1.27089741">
<ele>152</ele>
<time>2014-11-03T17:40:52Z</time>
</trkpt>
<trkpt lat="38.08471134" lon="-1.27089904">
<ele>155</ele>
<time>2014-11-03T17:40:54Z</time>
</trkpt>
<trkpt lat="38.08473273" lon="-1.2708979">
<ele>156</ele>
<time>2014-11-03T17:40:56Z</time>
</trkpt>
<trkpt lat="38.08474907" lon="-1.2709032">
<ele>156</ele>
<time>2014-11-03T17:40:58Z</time>
</trkpt>
<trkpt lat="38.08476515" lon="-1.27091087">
<ele>155</ele>
<time>2014-11-03T17:41:00Z</time>
</trkpt>
<trkpt lat="38.08478452" lon="-1.27091684">
<ele>156</ele>
<time>2014-11-03T17:41:02Z</time>
</trkpt>
<trkpt lat="38.08480249" lon="-1.27092085">
<ele>156</ele>
<time>2014-11-03T17:41:04Z</time>
</trkpt>
<trkpt lat="38.08481767" lon="-1.27092976">
<ele>158</ele>
<time>2014-11-03T17:41:06Z</time>
</trkpt>
<trkpt lat="38.08483815" lon="-1.27092841">
<ele>154</ele>
<time>2014-11-03T17:41:08Z</time>
</trkpt>
<trkpt lat="38.08485819" lon="-1.2709219">
<ele>155</ele>
<time>2014-11-03T17:41:10Z</time>
</trkpt>
<trkpt lat="38.08487846" lon="-1.27092865">
<ele>156</ele>
<time>2014-11-03T17:41:12Z</time>
</trkpt>
<trkpt lat="38.08490086" lon="-1.27093126">
<ele>158</ele>
<time>2014-11-03T17:41:14Z</time>
</trkpt>
<trkpt lat="38.08491919" lon="-1.27092988">
<ele>160</ele>
<time>2014-11-03T17:41:16Z</time>
</trkpt>
<trkpt lat="38.08493221" lon="-1.27093049">
<ele>161</ele>
<time>2014-11-03T17:41:18Z</time>
</trkpt>
<trkpt lat="38.08494752" lon="-1.27093162">
<ele>163</ele>
<time>2014-11-03T17:41:20Z</time>
</trkpt>
<trkpt lat="38.0849665" lon="-1.27093041">
<ele>165</ele>
<time>2014-11-03T17:41:22Z</time>
</trkpt>
<trkpt lat="38.08498618" lon="-1.27093231">
<ele>165</ele>
<time>2014-11-03T17:41:24Z</time>
</trkpt>
<trkpt lat="38.08501194" lon="-1.27093534">
<ele>166</ele>
<time>2014-11-03T17:41:26Z</time>
</trkpt>
<trkpt lat="38.08504241" lon="-1.27094092">
<ele>166</ele>
<time>2014-11-03T17:41:28Z</time>
</trkpt>
<trkpt lat="38.08507546" lon="-1.27094459">
<ele>163</ele>
<time>2014-11-03T17:41:30Z</time>
</trkpt>
<trkpt lat="38.08510755" lon="-1.27094686">
<ele>164</ele>
<time>2014-11-03T17:41:32Z</time>
</trkpt>
<trkpt lat="38.08513169" lon="-1.27094834">
<ele>164</ele>
<time>2014-11-03T17:41:34Z</time>
</trkpt>
<trkpt lat="38.08515733" lon="-1.27095098">
<ele>163</ele>
<time>2014-11-03T17:41:36Z</time>
</trkpt>
<trkpt lat="38.08518194" lon="-1.27095204">
<ele>163</ele>
<time>2014-11-03T17:41:38Z</time>
</trkpt>
<trkpt lat="38.08520455" lon="-1.27095332">
<ele>163</ele>
<time>2014-11-03T17:41:40Z</time>
</trkpt>
<trkpt lat="38.08523104" lon="-1.27095428">
<ele>163</ele>
<time>2014-11-03T17:41:42Z</time>
</trkpt>
<trkpt lat="38.08525904" lon="-1.27095488">
<ele>162</ele>
<time>2014-11-03T17:41:44Z</time>
</trkpt>
<trkpt lat="38.0852841" lon="-1.27095804">
<ele>161</ele>
<time>2014-11-03T17:41:46Z</time>
</trkpt>
<trkpt lat="38.08530758" lon="-1.27096611">
<ele>162</ele>
<time>2014-11-03T17:41:48Z</time>
</trkpt>
<trkpt lat="38.08532835" lon="-1.27097006">
<ele>163</ele>
<time>2014-11-03T17:41:50Z</time>
</trkpt>
<trkpt lat="38.08534763" lon="-1.27096916">
<ele>163</ele>
<time>2014-11-03T17:41:52Z</time>
</trkpt>
<trkpt lat="38.08536983" lon="-1.27096521">
<ele>163</ele>
<time>2014-11-03T17:41:54Z</time>
</trkpt>
<trkpt lat="38.08539427" lon="-1.27095893">
<ele>163</ele>
<time>2014-11-03T17:41:56Z</time>
</trkpt>
<trkpt lat="38.0854159" lon="-1.27095115">
<ele>163</ele>
<time>2014-11-03T17:41:58Z</time>
</trkpt>
<trkpt lat="38.08543494" lon="-1.27094877">
<ele>164</ele>
<time>2014-11-03T17:42:00Z</time>
</trkpt>
<trkpt lat="38.08545582" lon="-1.27094997">
<ele>163</ele>
<time>2014-11-03T17:42:02Z</time>
</trkpt>
<trkpt lat="38.08547871" lon="-1.27094802">
<ele>162</ele>
<time>2014-11-03T17:42:04Z</time>
</trkpt>
<trkpt lat="38.08550112" lon="-1.27094659">
<ele>161</ele>
<time>2014-11-03T17:42:06Z</time>
</trkpt>
<trkpt lat="38.08552374" lon="-1.27094621">
<ele>161</ele>
<time>2014-11-03T17:42:08Z</time>
</trkpt>
<trkpt lat="38.08554418" lon="-1.27094431">
<ele>163</ele>
<time>2014-11-03T17:42:10Z</time>
</trkpt>
<trkpt lat="38.08556298" lon="-1.27094219">
<ele>163</ele>
<time>2014-11-03T17:42:12Z</time>
</trkpt>
<trkpt lat="38.08557993" lon="-1.27093801">
<ele>164</ele>
<time>2014-11-03T17:42:14Z</time>
</trkpt>
<trkpt lat="38.08560129" lon="-1.27092995">
<ele>164</ele>
<time>2014-11-03T17:42:16Z</time>
</trkpt>
<trkpt lat="38.08562425" lon="-1.27092347">
<ele>164</ele>
<time>2014-11-03T17:42:18Z</time>
</trkpt>
<trkpt lat="38.08564663" lon="-1.27091877">
<ele>165</ele>
<time>2014-11-03T17:42:20Z</time>
</trkpt>
<trkpt lat="38.08567044" lon="-1.2709131">
<ele>164</ele>
<time>2014-11-03T17:42:22Z</time>
</trkpt>
<trkpt lat="38.08569238" lon="-1.27090621">
<ele>164</ele>
<time>2014-11-03T17:42:24Z</time>
</trkpt>
<trkpt lat="38.08571075" lon="-1.27089771">
<ele>166</ele>
<time>2014-11-03T17:42:26Z</time>
</trkpt>
<trkpt lat="38.08573027" lon="-1.2708907">
<ele>166</ele>
<time>2014-11-03T17:42:28Z</time>
</trkpt>
<trkpt lat="38.08575296" lon="-1.27088775">
<ele>165</ele>
<time>2014-11-03T17:42:30Z</time>
</trkpt>
<trkpt lat="38.08578071" lon="-1.27088533">
<ele>165</ele>
<time>2014-11-03T17:42:32Z</time>
</trkpt>
<trkpt lat="38.08580815" lon="-1.27088044">
<ele>164</ele>
<time>2014-11-03T17:42:34Z</time>
</trkpt>
<trkpt lat="38.08583736" lon="-1.27087886">
<ele>163</ele>
<time>2014-11-03T17:42:36Z</time>
</trkpt>
<trkpt lat="38.08585934" lon="-1.2708744">
<ele>163</ele>
<time>2014-11-03T17:42:38Z</time>
</trkpt>
<trkpt lat="38.08587903" lon="-1.27086778">
<ele>165</ele>
<time>2014-11-03T17:42:40Z</time>
</trkpt>
<trkpt lat="38.08589871" lon="-1.27085887">
<ele>166</ele>
<time>2014-11-03T17:42:42Z</time>
</trkpt>
<trkpt lat="38.08592287" lon="-1.27085525">
<ele>166</ele>
<time>2014-11-03T17:42:44Z</time>
</trkpt>
<trkpt lat="38.08595004" lon="-1.27085097">
<ele>166</ele>
<time>2014-11-03T17:42:46Z</time>
</trkpt>
<trkpt lat="38.085978" lon="-1.27083822">
<ele>165</ele>
<time>2014-11-03T17:42:48Z</time>
</trkpt>
<trkpt lat="38.08600151" lon="-1.27082478">
<ele>164</ele>
<time>2014-11-03T17:42:50Z</time>
</trkpt>
<trkpt lat="38.08602316" lon="-1.27081552">
<ele>163</ele>
<time>2014-11-03T17:42:52Z</time>
</trkpt>
<trkpt lat="38.08604378" lon="-1.27080822">
<ele>163</ele>
<time>2014-11-03T17:42:54Z</time>
</trkpt>
<trkpt lat="38.08606666" lon="-1.27079727">
<ele>163</ele>
<time>2014-11-03T17:42:56Z</time>
</trkpt>
<trkpt lat="38.08608505" lon="-1.27078032">
<ele>164</ele>
<time>2014-11-03T17:42:58Z</time>
</trkpt>
<trkpt lat="38.0861173" lon="-1.27078494">
<ele>158</ele>
<time>2014-11-03T17:43:00Z</time>
</trkpt>
<trkpt lat="38.08614245" lon="-1.27078996">
<ele>158</ele>
<time>2014-11-03T17:43:02Z</time>
</trkpt>
<trkpt lat="38.08616081" lon="-1.27079072">
<ele>158</ele>
<time>2014-11-03T17:43:04Z</time>
</trkpt>
<trkpt lat="38.08617441" lon="-1.27078747">
<ele>159</ele>
<time>2014-11-03T17:43:06Z</time>
</trkpt>
<trkpt lat="38.08618377" lon="-1.27078353">
<ele>158</ele>
<time>2014-11-03T17:43:08Z</time>
</trkpt>
<trkpt lat="38.08619613" lon="-1.2707848">
<ele>158</ele>
<time>2014-11-03T17:43:10Z</time>
</trkpt>
<trkpt lat="38.08620392" lon="-1.27078603">
<ele>158</ele>
<time>2014-11-03T17:43:12Z</time>
</trkpt>
<trkpt lat="38.08620441" lon="-1.27079497">
<ele>157</ele>
<time>2014-11-03T17:43:14Z</time>
</trkpt>
<trkpt lat="38.08620552" lon="-1.27079934">
<ele>157</ele>
<time>2014-11-03T17:43:16Z</time>
</trkpt>
<trkpt lat="38.08623658" lon="-1.27080653">
<ele>152</ele>
<time>2014-11-03T17:43:18Z</time>
</trkpt>
<trkpt lat="38.08624609" lon="-1.27081035">
<ele>151</ele>
<time>2014-11-03T17:43:20Z</time>
</trkpt>
<trkpt lat="38.08625442" lon="-1.27081369">
<ele>151</ele>
<time>2014-11-03T17:43:22Z</time>
</trkpt>
<trkpt lat="38.08625564" lon="-1.27081469">
<ele>151</ele>
<time>2014-11-03T17:43:24Z</time>
</trkpt>
<trkpt lat="38.08626495" lon="-1.27080772">
<ele>151</ele>
<time>2014-11-03T17:43:26Z</time>
</trkpt>
<trkpt lat="38.0862798" lon="-1.27080137">
<ele>151</ele>
<time>2014-11-03T17:43:28Z</time>
</trkpt>
<trkpt lat="38.08629378" lon="-1.27079207">
<ele>151</ele>
<time>2014-11-03T17:43:30Z</time>
</trkpt>
<trkpt lat="38.08630629" lon="-1.27077888">
<ele>153</ele>
<time>2014-11-03T17:43:32Z</time>
</trkpt>
<trkpt lat="38.08631918" lon="-1.27077418">
<ele>152</ele>
<time>2014-11-03T17:43:34Z</time>
</trkpt>
<trkpt lat="38.08633725" lon="-1.27077335">
<ele>152</ele>
<time>2014-11-03T17:43:36Z</time>
</trkpt>
<trkpt lat="38.08635712" lon="-1.27076596">
<ele>152</ele>
<time>2014-11-03T17:43:38Z</time>
</trkpt>
<trkpt lat="38.08637305" lon="-1.27075712">
<ele>153</ele>
<time>2014-11-03T17:43:40Z</time>
</trkpt>
<trkpt lat="38.08638698" lon="-1.27074793">
<ele>154</ele>
<time>2014-11-03T17:43:42Z</time>
</trkpt>
<trkpt lat="38.0864011" lon="-1.27073815">
<ele>155</ele>
<time>2014-11-03T17:43:44Z</time>
</trkpt>
<trkpt lat="38.08641632" lon="-1.27072846">
<ele>156</ele>
<time>2014-11-03T17:43:46Z</time>
</trkpt>
<trkpt lat="38.08642967" lon="-1.27071918">
<ele>158</ele>
<time>2014-11-03T17:43:48Z</time>
</trkpt>
<trkpt lat="38.08644265" lon="-1.27071001">
<ele>158</ele>
<time>2014-11-03T17:43:50Z</time>
</trkpt>
<trkpt lat="38.08645887" lon="-1.27069967">
<ele>159</ele>
<time>2014-11-03T17:43:52Z</time>
</trkpt>
<trkpt lat="38.08647522" lon="-1.27069253">
<ele>161</ele>
<time>2014-11-03T17:43:54Z</time>
</trkpt>
<trkpt lat="38.08649218" lon="-1.27068379">
<ele>162</ele>
<time>2014-11-03T17:43:56Z</time>
</trkpt>
<trkpt lat="38.08651166" lon="-1.27067192">
<ele>162</ele>
<time>2014-11-03T17:43:58Z</time>
</trkpt>
<trkpt lat="38.08653095" lon="-1.27065222">
<ele>163</ele>
<time>2014-11-03T17:44:00Z</time>
</trkpt>
<trkpt lat="38.08654894" lon="-1.27063774">
<ele>164</ele>
<time>2014-11-03T17:44:02Z</time>
</trkpt>
<trkpt lat="38.08656969" lon="-1.27062866">
<ele>164</ele>
<time>2014-11-03T17:44:04Z</time>
</trkpt>
<trkpt lat="38.08658643" lon="-1.27061922">
<ele>165</ele>
<time>2014-11-03T17:44:06Z</time>
</trkpt>
<trkpt lat="38.08660258" lon="-1.27060759">
<ele>166</ele>
<time>2014-11-03T17:44:08Z</time>
</trkpt>
<trkpt lat="38.08662164" lon="-1.2705942">
<ele>167</ele>
<time>2014-11-03T17:44:10Z</time>
</trkpt>
<trkpt lat="38.08664823" lon="-1.27058182">
<ele>165</ele>
<time>2014-11-03T17:44:12Z</time>
</trkpt>
<trkpt lat="38.08667582" lon="-1.27057405">
<ele>165</ele>
<time>2014-11-03T17:44:14Z</time>
</trkpt>
<trkpt lat="38.08669657" lon="-1.27057025">
<ele>166</ele>
<time>2014-11-03T17:44:16Z</time>
</trkpt>
<trkpt lat="38.08671925" lon="-1.27056648">
<ele>166</ele>
<time>2014-11-03T17:44:18Z</time>
</trkpt>
<trkpt lat="38.08674835" lon="-1.27056913">
<ele>164</ele>
<time>2014-11-03T17:44:20Z</time>
</trkpt>
<trkpt lat="38.08677904" lon="-1.27057224">
<ele>163</ele>
<time>2014-11-03T17:44:22Z</time>
</trkpt>
<trkpt lat="38.08681094" lon="-1.27057175">
<ele>163</ele>
<time>2014-11-03T17:44:24Z</time>
</trkpt>
<trkpt lat="38.0868366" lon="-1.27057324">
<ele>164</ele>
<time>2014-11-03T17:44:26Z</time>
</trkpt>
<trkpt lat="38.08685885" lon="-1.27057612">
<ele>164</ele>
<time>2014-11-03T17:44:28Z</time>
</trkpt>
<trkpt lat="38.08688362" lon="-1.27057976">
<ele>164</ele>
<time>2014-11-03T17:44:30Z</time>
</trkpt>
<trkpt lat="38.08690823" lon="-1.27058772">
<ele>165</ele>
<time>2014-11-03T17:44:32Z</time>
</trkpt>
<trkpt lat="38.08692698" lon="-1.27059738">
<ele>165</ele>
<time>2014-11-03T17:44:34Z</time>
</trkpt>
<trkpt lat="38.08694439" lon="-1.27060799">
<ele>162</ele>
<time>2014-11-03T17:44:36Z</time>
</trkpt>
<trkpt lat="38.08696164" lon="-1.27062557">
<ele>162</ele>
<time>2014-11-03T17:44:38Z</time>
</trkpt>
<trkpt lat="38.08697763" lon="-1.27064467">
<ele>161</ele>
<time>2014-11-03T17:44:40Z</time>
</trkpt>
<trkpt lat="38.08699469" lon="-1.27066521">
<ele>160</ele>
<time>2014-11-03T17:44:42Z</time>
</trkpt>
<trkpt lat="38.0870098" lon="-1.2706871">
<ele>159</ele>
<time>2014-11-03T17:44:44Z</time>
</trkpt>
<trkpt lat="38.08702108" lon="-1.2707101">
<ele>157</ele>
<time>2014-11-03T17:44:46Z</time>
</trkpt>
<trkpt lat="38.08703124" lon="-1.2707351">
<ele>156</ele>
<time>2014-11-03T17:44:48Z</time>
</trkpt>
<trkpt lat="38.08704173" lon="-1.27075804">
<ele>156</ele>
<time>2014-11-03T17:44:50Z</time>
</trkpt>
<trkpt lat="38.08705372" lon="-1.27078317">
<ele>155</ele>
<time>2014-11-03T17:44:52Z</time>
</trkpt>
<trkpt lat="38.08706712" lon="-1.27080829">
<ele>155</ele>
<time>2014-11-03T17:44:54Z</time>
</trkpt>
<trkpt lat="38.08708001" lon="-1.27083485">
<ele>154</ele>
<time>2014-11-03T17:44:56Z</time>
</trkpt>
<trkpt lat="38.08709098" lon="-1.2708605">
<ele>154</ele>
<time>2014-11-03T17:44:58Z</time>
</trkpt>
<trkpt lat="38.08710695" lon="-1.27087834">
<ele>153</ele>
<time>2014-11-03T17:45:00Z</time>
</trkpt>
<trkpt lat="38.08711801" lon="-1.27088704">
<ele>154</ele>
<time>2014-11-03T17:45:02Z</time>
</trkpt>
<trkpt lat="38.08712124" lon="-1.27089897">
<ele>153</ele>
<time>2014-11-03T17:45:04Z</time>
</trkpt>
<trkpt lat="38.08712414" lon="-1.27090592">
<ele>153</ele>
<time>2014-11-03T17:45:06Z</time>
</trkpt>
<trkpt lat="38.08712705" lon="-1.27090983">
<ele>153</ele>
<time>2014-11-03T17:45:08Z</time>
</trkpt>
<trkpt lat="38.0871288" lon="-1.27091211">
<ele>153</ele>
<time>2014-11-03T17:45:10Z</time>
</trkpt>
<trkpt lat="38.08713025" lon="-1.27091401">
<ele>152</ele>
<time>2014-11-03T17:45:12Z</time>
</trkpt>
<trkpt lat="38.08713068" lon="-1.27091439">
<ele>152</ele>
<time>2014-11-03T17:45:14Z</time>
</trkpt>
<trkpt lat="38.08713081" lon="-1.27091449">
<ele>152</ele>
<time>2014-11-03T17:45:16Z</time>
</trkpt>
<trkpt lat="38.08713084" lon="-1.27091451">
<ele>152</ele>
<time>2014-11-03T17:45:18Z</time>
</trkpt>
<trkpt lat="38.0871322" lon="-1.27092678">
<ele>151</ele>
<time>2014-11-03T17:45:20Z</time>
</trkpt>
<trkpt lat="38.08713607" lon="-1.27093095">
<ele>150</ele>
<time>2014-11-03T17:45:22Z</time>
</trkpt>
<trkpt lat="38.08713621" lon="-1.270951">
<ele>150</ele>
<time>2014-11-03T17:45:24Z</time>
</trkpt>
<trkpt lat="38.08714031" lon="-1.27096736">
<ele>150</ele>
<time>2014-11-03T17:45:26Z</time>
</trkpt>
<trkpt lat="38.08714735" lon="-1.27098493">
<ele>149</ele>
<time>2014-11-03T17:45:28Z</time>
</trkpt>
<trkpt lat="38.0871558" lon="-1.2710046">
<ele>149</ele>
<time>2014-11-03T17:45:30Z</time>
</trkpt>
<trkpt lat="38.08716563" lon="-1.27102812">
<ele>148</ele>
<time>2014-11-03T17:45:32Z</time>
</trkpt>
<trkpt lat="38.08717688" lon="-1.27105275">
<ele>148</ele>
<time>2014-11-03T17:45:34Z</time>
</trkpt>
<trkpt lat="38.08718546" lon="-1.27107783">
<ele>148</ele>
<time>2014-11-03T17:45:36Z</time>
</trkpt>
<trkpt lat="38.08719114" lon="-1.27110388">
<ele>148</ele>
<time>2014-11-03T17:45:38Z</time>
</trkpt>
<trkpt lat="38.08719808" lon="-1.27112886">
<ele>148</ele>
<time>2014-11-03T17:45:40Z</time>
</trkpt>
<trkpt lat="38.08720634" lon="-1.27115474">
<ele>148</ele>
<time>2014-11-03T17:45:42Z</time>
</trkpt>
<trkpt lat="38.08721421" lon="-1.27117993">
<ele>148</ele>
<time>2014-11-03T17:45:44Z</time>
</trkpt>
<trkpt lat="38.08722269" lon="-1.27120305">
<ele>149</ele>
<time>2014-11-03T17:45:46Z</time>
</trkpt>
<trkpt lat="38.08723324" lon="-1.27122539">
<ele>149</ele>
<time>2014-11-03T17:45:48Z</time>
</trkpt>
<trkpt lat="38.08724102" lon="-1.27124998">
<ele>149</ele>
<time>2014-11-03T17:45:50Z</time>
</trkpt>
<trkpt lat="38.08724586" lon="-1.27127752">
<ele>149</ele>
<time>2014-11-03T17:45:52Z</time>
</trkpt>
<trkpt lat="38.0872509" lon="-1.27130546">
<ele>149</ele>
<time>2014-11-03T17:45:54Z</time>
</trkpt>
<trkpt lat="38.08725828" lon="-1.27133134">
<ele>149</ele>
<time>2014-11-03T17:45:56Z</time>
</trkpt>
<trkpt lat="38.08726837" lon="-1.2713592">
<ele>147</ele>
<time>2014-11-03T17:45:58Z</time>
</trkpt>
<trkpt lat="38.08727791" lon="-1.2714008">
<ele>148</ele>
<time>2014-11-03T17:46:01Z</time>
</trkpt>
<trkpt lat="38.08728345" lon="-1.27142952">
<ele>147</ele>
<time>2014-11-03T17:46:03Z</time>
</trkpt>
<trkpt lat="38.08729057" lon="-1.27145648">
<ele>148</ele>
<time>2014-11-03T17:46:05Z</time>
</trkpt>
<trkpt lat="38.08729463" lon="-1.27148203">
<ele>148</ele>
<time>2014-11-03T17:46:07Z</time>
</trkpt>
<trkpt lat="38.08729741" lon="-1.27150602">
<ele>148</ele>
<time>2014-11-03T17:46:09Z</time>
</trkpt>
<trkpt lat="38.08730335" lon="-1.27153138">
<ele>148</ele>
<time>2014-11-03T17:46:11Z</time>
</trkpt>
<trkpt lat="38.08730982" lon="-1.27155745">
<ele>147</ele>
<time>2014-11-03T17:46:13Z</time>
</trkpt>
<trkpt lat="38.08731521" lon="-1.27158538">
<ele>147</ele>
<time>2014-11-03T17:46:15Z</time>
</trkpt>
<trkpt lat="38.08731867" lon="-1.27161654">
<ele>147</ele>
<time>2014-11-03T17:46:17Z</time>
</trkpt>
<trkpt lat="38.0873237" lon="-1.27164696">
<ele>147</ele>
<time>2014-11-03T17:46:19Z</time>
</trkpt>
<trkpt lat="38.08733163" lon="-1.2716744">
<ele>147</ele>
<time>2014-11-03T17:46:21Z</time>
</trkpt>
<trkpt lat="38.08733962" lon="-1.27168757">
<ele>145</ele>
<time>2014-11-03T17:46:23Z</time>
</trkpt>
<trkpt lat="38.08734589" lon="-1.2717039">
<ele>145</ele>
<time>2014-11-03T17:46:25Z</time>
</trkpt>
<trkpt lat="38.08735318" lon="-1.27172481">
<ele>145</ele>
<time>2014-11-03T17:46:27Z</time>
</trkpt>
<trkpt lat="38.08736122" lon="-1.27175518">
<ele>144</ele>
<time>2014-11-03T17:46:29Z</time>
</trkpt>
<trkpt lat="38.08736872" lon="-1.27178376">
<ele>144</ele>
<time>2014-11-03T17:46:31Z</time>
</trkpt>
<trkpt lat="38.08737607" lon="-1.2718098">
<ele>144</ele>
<time>2014-11-03T17:46:33Z</time>
</trkpt>
<trkpt lat="38.0873847" lon="-1.27183765">
<ele>143</ele>
<time>2014-11-03T17:46:35Z</time>
</trkpt>
<trkpt lat="38.08739103" lon="-1.27186577">
<ele>143</ele>
<time>2014-11-03T17:46:37Z</time>
</trkpt>
<trkpt lat="38.0873959" lon="-1.27189625">
<ele>143</ele>
<time>2014-11-03T17:46:39Z</time>
</trkpt>
<trkpt lat="38.08740113" lon="-1.27192825">
<ele>143</ele>
<time>2014-11-03T17:46:41Z</time>
</trkpt>
<trkpt lat="38.08740519" lon="-1.27195684">
<ele>144</ele>
<time>2014-11-03T17:46:43Z</time>
</trkpt>
<trkpt lat="38.08740913" lon="-1.27198352">
<ele>143</ele>
<time>2014-11-03T17:46:45Z</time>
</trkpt>
<trkpt lat="38.08741584" lon="-1.27201002">
<ele>142</ele>
<time>2014-11-03T17:46:47Z</time>
</trkpt>
<trkpt lat="38.08742362" lon="-1.27203864">
<ele>142</ele>
<time>2014-11-03T17:46:49Z</time>
</trkpt>
<trkpt lat="38.08743081" lon="-1.27206672">
<ele>142</ele>
<time>2014-11-03T17:46:51Z</time>
</trkpt>
<trkpt lat="38.08743927" lon="-1.27209555">
<ele>143</ele>
<time>2014-11-03T17:46:53Z</time>
</trkpt>
<trkpt lat="38.08745012" lon="-1.27212235">
<ele>143</ele>
<time>2014-11-03T17:46:55Z</time>
</trkpt>
<trkpt lat="38.0874603" lon="-1.27214788">
<ele>143</ele>
<time>2014-11-03T17:46:57Z</time>
</trkpt>
<trkpt lat="38.08746719" lon="-1.27217136">
<ele>143</ele>
<time>2014-11-03T17:46:59Z</time>
</trkpt>
<trkpt lat="38.08747054" lon="-1.27219358">
<ele>143</ele>
<time>2014-11-03T17:47:01Z</time>
</trkpt>
<trkpt lat="38.08747764" lon="-1.27222944">
<ele>144</ele>
<time>2014-11-03T17:47:04Z</time>
</trkpt>
<trkpt lat="38.08748105" lon="-1.27224296">
<ele>144</ele>
<time>2014-11-03T17:47:05Z</time>
</trkpt>
<trkpt lat="38.08748745" lon="-1.27227089">
<ele>143</ele>
<time>2014-11-03T17:47:07Z</time>
</trkpt>
<trkpt lat="38.08749283" lon="-1.27229678">
<ele>142</ele>
<time>2014-11-03T17:47:09Z</time>
</trkpt>
<trkpt lat="38.08749791" lon="-1.27232618">
<ele>142</ele>
<time>2014-11-03T17:47:11Z</time>
</trkpt>
<trkpt lat="38.08750312" lon="-1.27235319">
<ele>143</ele>
<time>2014-11-03T17:47:13Z</time>
</trkpt>
<trkpt lat="38.08750942" lon="-1.27237504">
<ele>143</ele>
<time>2014-11-03T17:47:15Z</time>
</trkpt>
<trkpt lat="38.08751663" lon="-1.2723981">
<ele>143</ele>
<time>2014-11-03T17:47:17Z</time>
</trkpt>
<trkpt lat="38.08752195" lon="-1.27242508">
<ele>143</ele>
<time>2014-11-03T17:47:19Z</time>
</trkpt>
<trkpt lat="38.08752791" lon="-1.27245441">
<ele>142</ele>
<time>2014-11-03T17:47:21Z</time>
</trkpt>
<trkpt lat="38.08753361" lon="-1.27248511">
<ele>143</ele>
<time>2014-11-03T17:47:23Z</time>
</trkpt>
<trkpt lat="38.08753795" lon="-1.27251573">
<ele>144</ele>
<time>2014-11-03T17:47:25Z</time>
</trkpt>
<trkpt lat="38.08754276" lon="-1.27254491">
<ele>145</ele>
<time>2014-11-03T17:47:27Z</time>
</trkpt>
<trkpt lat="38.08754988" lon="-1.27256989">
<ele>145</ele>
<time>2014-11-03T17:47:29Z</time>
</trkpt>
<trkpt lat="38.08755479" lon="-1.27259433">
<ele>145</ele>
<time>2014-11-03T17:47:31Z</time>
</trkpt>
<trkpt lat="38.08756044" lon="-1.2726156">
<ele>145</ele>
<time>2014-11-03T17:47:33Z</time>
</trkpt>
<trkpt lat="38.08756702" lon="-1.27264243">
<ele>144</ele>
<time>2014-11-03T17:47:35Z</time>
</trkpt>
<trkpt lat="38.08757258" lon="-1.27267465">
<ele>144</ele>
<time>2014-11-03T17:47:37Z</time>
</trkpt>
<trkpt lat="38.08757714" lon="-1.27270618">
<ele>144</ele>
<time>2014-11-03T17:47:39Z</time>
</trkpt>
<trkpt lat="38.08758115" lon="-1.27273722">
<ele>144</ele>
<time>2014-11-03T17:47:41Z</time>
</trkpt>
<trkpt lat="38.08758653" lon="-1.27276747">
<ele>144</ele>
<time>2014-11-03T17:47:43Z</time>
</trkpt>
<trkpt lat="38.08759324" lon="-1.27279279">
<ele>143</ele>
<time>2014-11-03T17:47:45Z</time>
</trkpt>
<trkpt lat="38.08759934" lon="-1.27281795">
<ele>143</ele>
<time>2014-11-03T17:47:47Z</time>
</trkpt>
<trkpt lat="38.08760608" lon="-1.27284492">
<ele>143</ele>
<time>2014-11-03T17:47:49Z</time>
</trkpt>
<trkpt lat="38.08761347" lon="-1.27287174">
<ele>144</ele>
<time>2014-11-03T17:47:51Z</time>
</trkpt>
<trkpt lat="38.08761757" lon="-1.27289762">
<ele>144</ele>
<time>2014-11-03T17:47:53Z</time>
</trkpt>
<trkpt lat="38.0876218" lon="-1.2729229">
<ele>144</ele>
<time>2014-11-03T17:47:55Z</time>
</trkpt>
<trkpt lat="38.08762708" lon="-1.27294915">
<ele>144</ele>
<time>2014-11-03T17:47:57Z</time>
</trkpt>
<trkpt lat="38.08763276" lon="-1.27297516">
<ele>143</ele>
<time>2014-11-03T17:47:59Z</time>
</trkpt>
<trkpt lat="38.0876403" lon="-1.27300061">
<ele>143</ele>
<time>2014-11-03T17:48:01Z</time>
</trkpt>
<trkpt lat="38.08764562" lon="-1.2730298">
<ele>143</ele>
<time>2014-11-03T17:48:03Z</time>
</trkpt>
<trkpt lat="38.08765055" lon="-1.27305719">
<ele>142</ele>
<time>2014-11-03T17:48:05Z</time>
</trkpt>
<trkpt lat="38.08765455" lon="-1.27308485">
<ele>143</ele>
<time>2014-11-03T17:48:07Z</time>
</trkpt>
<trkpt lat="38.08765805" lon="-1.27311315">
<ele>144</ele>
<time>2014-11-03T17:48:09Z</time>
</trkpt>
<trkpt lat="38.0876634" lon="-1.27314212">
<ele>143</ele>
<time>2014-11-03T17:48:11Z</time>
</trkpt>
<trkpt lat="38.08767" lon="-1.27316898">
<ele>143</ele>
<time>2014-11-03T17:48:13Z</time>
</trkpt>
<trkpt lat="38.08767569" lon="-1.27319689">
<ele>143</ele>
<time>2014-11-03T17:48:15Z</time>
</trkpt>
<trkpt lat="38.08768005" lon="-1.27322531">
<ele>143</ele>
<time>2014-11-03T17:48:17Z</time>
</trkpt>
<trkpt lat="38.08768565" lon="-1.2732507">
<ele>143</ele>
<time>2014-11-03T17:48:19Z</time>
</trkpt>
<trkpt lat="38.08769117" lon="-1.2732745">
<ele>143</ele>
<time>2014-11-03T17:48:21Z</time>
</trkpt>
<trkpt lat="38.08769847" lon="-1.27329929">
<ele>143</ele>
<time>2014-11-03T17:48:23Z</time>
</trkpt>
<trkpt lat="38.08770665" lon="-1.27332078">
<ele>143</ele>
<time>2014-11-03T17:48:25Z</time>
</trkpt>
<trkpt lat="38.087715" lon="-1.27334542">
<ele>143</ele>
<time>2014-11-03T17:48:27Z</time>
</trkpt>
<trkpt lat="38.08772234" lon="-1.27337042">
<ele>142</ele>
<time>2014-11-03T17:48:29Z</time>
</trkpt>
<trkpt lat="38.08772886" lon="-1.27339528">
<ele>141</ele>
<time>2014-11-03T17:48:31Z</time>
</trkpt>
<trkpt lat="38.08773743" lon="-1.27341806">
<ele>142</ele>
<time>2014-11-03T17:48:33Z</time>
</trkpt>
<trkpt lat="38.08774876" lon="-1.27343694">
<ele>141</ele>
<time>2014-11-03T17:48:35Z</time>
</trkpt>
<trkpt lat="38.08776031" lon="-1.27345515">
<ele>141</ele>
<time>2014-11-03T17:48:37Z</time>
</trkpt>
<trkpt lat="38.08777264" lon="-1.27347646">
<ele>141</ele>
<time>2014-11-03T17:48:39Z</time>
</trkpt>
<trkpt lat="38.08778307" lon="-1.27350158">
<ele>142</ele>
<time>2014-11-03T17:48:41Z</time>
</trkpt>
<trkpt lat="38.08779254" lon="-1.2735302">
<ele>142</ele>
<time>2014-11-03T17:48:43Z</time>
</trkpt>
<trkpt lat="38.08780118" lon="-1.2735569">
<ele>142</ele>
<time>2014-11-03T17:48:45Z</time>
</trkpt>
<trkpt lat="38.08780833" lon="-1.27357996">
<ele>143</ele>
<time>2014-11-03T17:48:47Z</time>
</trkpt>
<trkpt lat="38.0878086" lon="-1.27359584">
<ele>143</ele>
<time>2014-11-03T17:48:49Z</time>
</trkpt>
<trkpt lat="38.0877984" lon="-1.27360707">
<ele>143</ele>
<time>2014-11-03T17:48:51Z</time>
</trkpt>
<trkpt lat="38.08777941" lon="-1.27360992">
<ele>144</ele>
<time>2014-11-03T17:48:53Z</time>
</trkpt>
<trkpt lat="38.08776052" lon="-1.27360286">
<ele>144</ele>
<time>2014-11-03T17:48:55Z</time>
</trkpt>
<trkpt lat="38.08775349" lon="-1.2735994">
<ele>144</ele>
<time>2014-11-03T17:48:57Z</time>
</trkpt>
<trkpt lat="38.08775185" lon="-1.27359894">
<ele>144</ele>
<time>2014-11-03T17:48:59Z</time>
</trkpt>
<trkpt lat="38.08775138" lon="-1.27359912">
<ele>143</ele>
<time>2014-11-03T17:49:01Z</time>
</trkpt>
<trkpt lat="38.0877509" lon="-1.27359876">
<ele>143</ele>
<time>2014-11-03T17:49:03Z</time>
</trkpt>
<trkpt lat="38.08775071" lon="-1.27359835">
<ele>143</ele>
<time>2014-11-03T17:49:05Z</time>
</trkpt>
<trkpt lat="38.08775058" lon="-1.27359834">
<ele>143</ele>
<time>2014-11-03T17:49:07Z</time>
</trkpt>
<trkpt lat="38.08775056" lon="-1.27359838">
<ele>143</ele>
<time>2014-11-03T17:49:09Z</time>
</trkpt>
<trkpt lat="38.08775055" lon="-1.27359853">
<ele>143</ele>
<time>2014-11-03T17:49:11Z</time>
</trkpt>
<trkpt lat="38.08775061" lon="-1.27359849">
<ele>143</ele>
<time>2014-11-03T17:49:13Z</time>
</trkpt>
<trkpt lat="38.08775067" lon="-1.27359851">
<ele>143</ele>
<time>2014-11-03T17:49:15Z</time>
</trkpt>
<trkpt lat="38.0877507" lon="-1.27359857">
<ele>143</ele>
<time>2014-11-03T17:49:17Z</time>
</trkpt>
<trkpt lat="38.0877507" lon="-1.27359859">
<ele>143</ele>
<time>2014-11-03T17:49:19Z</time>
</trkpt>
<trkpt lat="38.08775073" lon="-1.27359863">
<ele>143</ele>
<time>2014-11-03T17:49:21Z</time>
</trkpt>
<trkpt lat="38.08775075" lon="-1.27359864">
<ele>143</ele>
<time>2014-11-03T17:49:23Z</time>
</trkpt>
<trkpt lat="38.08775075" lon="-1.27359864">
<ele>143</ele>
<time>2014-11-03T17:49:25Z</time>
</trkpt>
<trkpt lat="38.08775075" lon="-1.27359863">
<ele>143</ele>
<time>2014-11-03T17:49:27Z</time>
</trkpt>
<trkpt lat="38.08775074" lon="-1.27359863">
<ele>143</ele>
<time>2014-11-03T17:49:29Z</time>
</trkpt>
<trkpt lat="38.08775074" lon="-1.27359864">
<ele>143</ele>
<time>2014-11-03T17:49:31Z</time>
</trkpt>
<trkpt lat="38.08775077" lon="-1.27359866">
<ele>143</ele>
<time>2014-11-03T17:49:33Z</time>
</trkpt>
<trkpt lat="38.08775079" lon="-1.27359868">
<ele>143</ele>
<time>2014-11-03T17:49:35Z</time>
</trkpt>
<trkpt lat="38.08775079" lon="-1.27359869">
<ele>143</ele>
<time>2014-11-03T17:49:37Z</time>
</trkpt>
<trkpt lat="38.0877508" lon="-1.27359869">
<ele>143</ele>
<time>2014-11-03T17:49:39Z</time>
</trkpt>
<trkpt lat="38.08775219" lon="-1.27359935">
<ele>143</ele>
<time>2014-11-03T17:49:41Z</time>
</trkpt>
<trkpt lat="38.08776031" lon="-1.27360401">
<ele>143</ele>
<time>2014-11-03T17:49:43Z</time>
</trkpt>
<trkpt lat="38.08777577" lon="-1.27361021">
<ele>143</ele>
<time>2014-11-03T17:49:45Z</time>
</trkpt>
<trkpt lat="38.08779169" lon="-1.27362091">
<ele>143</ele>
<time>2014-11-03T17:49:47Z</time>
</trkpt>
<trkpt lat="38.08780367" lon="-1.27363549">
<ele>144</ele>
<time>2014-11-03T17:49:49Z</time>
</trkpt>
<trkpt lat="38.08781174" lon="-1.27365298">
<ele>143</ele>
<time>2014-11-03T17:49:51Z</time>
</trkpt>
<trkpt lat="38.08781756" lon="-1.27367022">
<ele>142</ele>
<time>2014-11-03T17:49:53Z</time>
</trkpt>
<trkpt lat="38.08782323" lon="-1.2736828">
<ele>142</ele>
<time>2014-11-03T17:49:55Z</time>
</trkpt>
<trkpt lat="38.08783127" lon="-1.2736957">
<ele>142</ele>
<time>2014-11-03T17:49:57Z</time>
</trkpt>
<trkpt lat="38.08784278" lon="-1.27371394">
<ele>141</ele>
<time>2014-11-03T17:49:59Z</time>
</trkpt>
<trkpt lat="38.08785523" lon="-1.27373876">
<ele>141</ele>
<time>2014-11-03T17:50:01Z</time>
</trkpt>
<trkpt lat="38.08786842" lon="-1.27376552">
<ele>141</ele>
<time>2014-11-03T17:50:03Z</time>
</trkpt>
<trkpt lat="38.08787906" lon="-1.27378797">
<ele>141</ele>
<time>2014-11-03T17:50:05Z</time>
</trkpt>
<trkpt lat="38.08789338" lon="-1.27381307">
<ele>142</ele>
<time>2014-11-03T17:50:08Z</time>
</trkpt>
<trkpt lat="38.08790268" lon="-1.27382788">
<ele>142</ele>
<time>2014-11-03T17:50:10Z</time>
</trkpt>
<trkpt lat="38.08789928" lon="-1.2738366">
<ele>142</ele>
<time>2014-11-03T17:50:12Z</time>
</trkpt>
<trkpt lat="38.08789631" lon="-1.27384329">
<ele>141</ele>
<time>2014-11-03T17:50:14Z</time>
</trkpt>
<trkpt lat="38.08789335" lon="-1.27384747">
<ele>141</ele>
<time>2014-11-03T17:50:16Z</time>
</trkpt>
<trkpt lat="38.08789046" lon="-1.27384911">
<ele>141</ele>
<time>2014-11-03T17:50:18Z</time>
</trkpt>
<trkpt lat="38.08788808" lon="-1.27384923">
<ele>141</ele>
<time>2014-11-03T17:50:20Z</time>
</trkpt>
<trkpt lat="38.08788712" lon="-1.27384946">
<ele>141</ele>
<time>2014-11-03T17:50:22Z</time>
</trkpt>
<trkpt lat="38.08788668" lon="-1.27384954">
<ele>141</ele>
<time>2014-11-03T17:50:24Z</time>
</trkpt>
<trkpt lat="38.08788654" lon="-1.27384961">
<ele>141</ele>
<time>2014-11-03T17:50:26Z</time>
</trkpt>
<trkpt lat="38.08788962" lon="-1.27384947">
<ele>141</ele>
<time>2014-11-03T17:50:28Z</time>
</trkpt>
<trkpt lat="38.08789953" lon="-1.27384865">
<ele>140</ele>
<time>2014-11-03T17:50:30Z</time>
</trkpt>
<trkpt lat="38.08793499" lon="-1.27385395">
<ele>141</ele>
<time>2014-11-03T17:50:32Z</time>
</trkpt>
<trkpt lat="38.0879984" lon="-1.27387248">
<ele>140</ele>
<time>2014-11-03T17:50:34Z</time>
</trkpt>
<trkpt lat="38.08802751" lon="-1.2738963">
<ele>139</ele>
<time>2014-11-03T17:50:36Z</time>
</trkpt>
<trkpt lat="38.08803864" lon="-1.27392657">
<ele>139</ele>
<time>2014-11-03T17:50:38Z</time>
</trkpt>
<trkpt lat="38.08804993" lon="-1.27395886">
<ele>138</ele>
<time>2014-11-03T17:50:40Z</time>
</trkpt>
<trkpt lat="38.08806118" lon="-1.27398895">
<ele>138</ele>
<time>2014-11-03T17:50:42Z</time>
</trkpt>
<trkpt lat="38.08807341" lon="-1.27401501">
<ele>138</ele>
<time>2014-11-03T17:50:44Z</time>
</trkpt>
<trkpt lat="38.08808775" lon="-1.27403793">
<ele>138</ele>
<time>2014-11-03T17:50:46Z</time>
</trkpt>
<trkpt lat="38.08810173" lon="-1.27406115">
<ele>138</ele>
<time>2014-11-03T17:50:48Z</time>
</trkpt>
<trkpt lat="38.08811358" lon="-1.27408432">
<ele>139</ele>
<time>2014-11-03T17:50:50Z</time>
</trkpt>
<trkpt lat="38.08812299" lon="-1.27410558">
<ele>140</ele>
<time>2014-11-03T17:50:52Z</time>
</trkpt>
<trkpt lat="38.08813339" lon="-1.27412607">
<ele>140</ele>
<time>2014-11-03T17:50:54Z</time>
</trkpt>
<trkpt lat="38.0881447" lon="-1.27414883">
<ele>140</ele>
<time>2014-11-03T17:50:56Z</time>
</trkpt>
<trkpt lat="38.08815616" lon="-1.27417033">
<ele>141</ele>
<time>2014-11-03T17:50:58Z</time>
</trkpt>
<trkpt lat="38.08816762" lon="-1.27419009">
<ele>141</ele>
<time>2014-11-03T17:51:00Z</time>
</trkpt>
<trkpt lat="38.08818059" lon="-1.27420821">
<ele>142</ele>
<time>2014-11-03T17:51:02Z</time>
</trkpt>
<trkpt lat="38.08819907" lon="-1.27422216">
<ele>142</ele>
<time>2014-11-03T17:51:04Z</time>
</trkpt>
<trkpt lat="38.08821977" lon="-1.27423612">
<ele>142</ele>
<time>2014-11-03T17:51:06Z</time>
</trkpt>
<trkpt lat="38.0882362" lon="-1.27425589">
<ele>143</ele>
<time>2014-11-03T17:51:08Z</time>
</trkpt>
<trkpt lat="38.0882493" lon="-1.27427919">
<ele>143</ele>
<time>2014-11-03T17:51:10Z</time>
</trkpt>
<trkpt lat="38.08827943" lon="-1.27432247">
<ele>143</ele>
<time>2014-11-03T17:51:14Z</time>
</trkpt>
<trkpt lat="38.08829445" lon="-1.27434105">
<ele>143</ele>
<time>2014-11-03T17:51:16Z</time>
</trkpt>
<trkpt lat="38.08831046" lon="-1.27435985">
<ele>143</ele>
<time>2014-11-03T17:51:18Z</time>
</trkpt>
<trkpt lat="38.08832713" lon="-1.27437862">
<ele>143</ele>
<time>2014-11-03T17:51:20Z</time>
</trkpt>
<trkpt lat="38.08834233" lon="-1.2743948">
<ele>143</ele>
<time>2014-11-03T17:51:22Z</time>
</trkpt>
<trkpt lat="38.08835536" lon="-1.27440916">
<ele>143</ele>
<time>2014-11-03T17:51:24Z</time>
</trkpt>
<trkpt lat="38.0883683" lon="-1.27442173">
<ele>143</ele>
<time>2014-11-03T17:51:26Z</time>
</trkpt>
<trkpt lat="38.08838249" lon="-1.27443534">
<ele>142</ele>
<time>2014-11-03T17:51:28Z</time>
</trkpt>
<trkpt lat="38.08839766" lon="-1.27444606">
<ele>143</ele>
<time>2014-11-03T17:51:30Z</time>
</trkpt>
<trkpt lat="38.08841384" lon="-1.27445531">
<ele>143</ele>
<time>2014-11-03T17:51:32Z</time>
</trkpt>
<trkpt lat="38.0884293" lon="-1.27446277">
<ele>143</ele>
<time>2014-11-03T17:51:34Z</time>
</trkpt>
<trkpt lat="38.08844588" lon="-1.27447198">
<ele>144</ele>
<time>2014-11-03T17:51:36Z</time>
</trkpt>
<trkpt lat="38.08846431" lon="-1.27448712">
<ele>144</ele>
<time>2014-11-03T17:51:38Z</time>
</trkpt>
<trkpt lat="38.08848395" lon="-1.27450399">
<ele>144</ele>
<time>2014-11-03T17:51:40Z</time>
</trkpt>
<trkpt lat="38.08850355" lon="-1.27451943">
<ele>144</ele>
<time>2014-11-03T17:51:42Z</time>
</trkpt>
<trkpt lat="38.0885215" lon="-1.27453484">
<ele>144</ele>
<time>2014-11-03T17:51:44Z</time>
</trkpt>
<trkpt lat="38.08853711" lon="-1.27455222">
<ele>143</ele>
<time>2014-11-03T17:51:46Z</time>
</trkpt>
<trkpt lat="38.08853866" lon="-1.27455566">
<ele>143</ele>
<time>2014-11-03T17:51:48Z</time>
</trkpt>
<trkpt lat="38.08853664" lon="-1.27455278">
<ele>143</ele>
<time>2014-11-03T17:51:50Z</time>
</trkpt>
<trkpt lat="38.08853719" lon="-1.27455206">
<ele>142</ele>
<time>2014-11-03T17:51:52Z</time>
</trkpt>
<trkpt lat="38.08853681" lon="-1.27454716">
<ele>142</ele>
<time>2014-11-03T17:51:54Z</time>
</trkpt>
<trkpt lat="38.08853516" lon="-1.27454907">
<ele>142</ele>
<time>2014-11-03T17:51:56Z</time>
</trkpt>
<trkpt lat="38.0885339" lon="-1.27455528">
<ele>142</ele>
<time>2014-11-03T17:51:58Z</time>
</trkpt>
<trkpt lat="38.08854598" lon="-1.27457244">
<ele>142</ele>
<time>2014-11-03T17:52:00Z</time>
</trkpt>
<trkpt lat="38.08856106" lon="-1.27459151">
<ele>143</ele>
<time>2014-11-03T17:52:02Z</time>
</trkpt>
<trkpt lat="38.08857988" lon="-1.27460743">
<ele>143</ele>
<time>2014-11-03T17:52:04Z</time>
</trkpt>
<trkpt lat="38.08860083" lon="-1.27462434">
<ele>142</ele>
<time>2014-11-03T17:52:06Z</time>
</trkpt>
<trkpt lat="38.08862106" lon="-1.27463979">
<ele>142</ele>
<time>2014-11-03T17:52:08Z</time>
</trkpt>
<trkpt lat="38.08864036" lon="-1.27465321">
<ele>142</ele>
<time>2014-11-03T17:52:10Z</time>
</trkpt>
<trkpt lat="38.0886597" lon="-1.2746671">
<ele>142</ele>
<time>2014-11-03T17:52:12Z</time>
</trkpt>
<trkpt lat="38.08867845" lon="-1.27468334">
<ele>142</ele>
<time>2014-11-03T17:52:14Z</time>
</trkpt>
<trkpt lat="38.0886961" lon="-1.27470098">
<ele>142</ele>
<time>2014-11-03T17:52:16Z</time>
</trkpt>
<trkpt lat="38.08871361" lon="-1.27471567">
<ele>142</ele>
<time>2014-11-03T17:52:18Z</time>
</trkpt>
<trkpt lat="38.08873251" lon="-1.27472923">
<ele>142</ele>
<time>2014-11-03T17:52:20Z</time>
</trkpt>
<trkpt lat="38.08875173" lon="-1.2747451">
<ele>142</ele>
<time>2014-11-03T17:52:22Z</time>
</trkpt>
<trkpt lat="38.0887699" lon="-1.27476019">
<ele>142</ele>
<time>2014-11-03T17:52:24Z</time>
</trkpt>
<trkpt lat="38.08878868" lon="-1.27477649">
<ele>142</ele>
<time>2014-11-03T17:52:26Z</time>
</trkpt>
<trkpt lat="38.08880665" lon="-1.27479526">
<ele>142</ele>
<time>2014-11-03T17:52:28Z</time>
</trkpt>
<trkpt lat="38.08882305" lon="-1.2748116">
<ele>142</ele>
<time>2014-11-03T17:52:30Z</time>
</trkpt>
<trkpt lat="38.08884075" lon="-1.27482639">
<ele>141</ele>
<time>2014-11-03T17:52:32Z</time>
</trkpt>
<trkpt lat="38.08886046" lon="-1.27484021">
<ele>141</ele>
<time>2014-11-03T17:52:34Z</time>
</trkpt>
<trkpt lat="38.08887971" lon="-1.27485542">
<ele>142</ele>
<time>2014-11-03T17:52:36Z</time>
</trkpt>
<trkpt lat="38.08889806" lon="-1.27487265">
<ele>142</ele>
<time>2014-11-03T17:52:38Z</time>
</trkpt>
<trkpt lat="38.08891825" lon="-1.2748904">
<ele>142</ele>
<time>2014-11-03T17:52:40Z</time>
</trkpt>
<trkpt lat="38.08893709" lon="-1.27490621">
<ele>142</ele>
<time>2014-11-03T17:52:42Z</time>
</trkpt>
<trkpt lat="38.08895452" lon="-1.27492024">
<ele>142</ele>
<time>2014-11-03T17:52:44Z</time>
</trkpt>
<trkpt lat="38.08897427" lon="-1.27493465">
<ele>142</ele>
<time>2014-11-03T17:52:46Z</time>
</trkpt>
<trkpt lat="38.08899362" lon="-1.27495009">
<ele>142</ele>
<time>2014-11-03T17:52:48Z</time>
</trkpt>
<trkpt lat="38.08900742" lon="-1.27496609">
<ele>143</ele>
<time>2014-11-03T17:52:50Z</time>
</trkpt>
<trkpt lat="38.0890176" lon="-1.27498138">
<ele>142</ele>
<time>2014-11-03T17:52:52Z</time>
</trkpt>
<trkpt lat="38.08903276" lon="-1.27499823">
<ele>142</ele>
<time>2014-11-03T17:52:54Z</time>
</trkpt>
<trkpt lat="38.08904925" lon="-1.27501716">
<ele>143</ele>
<time>2014-11-03T17:52:56Z</time>
</trkpt>
<trkpt lat="38.08906376" lon="-1.27503025">
<ele>143</ele>
<time>2014-11-03T17:52:58Z</time>
</trkpt>
<trkpt lat="38.08907917" lon="-1.2750442">
<ele>143</ele>
<time>2014-11-03T17:53:00Z</time>
</trkpt>
<trkpt lat="38.08909613" lon="-1.27506094">
<ele>143</ele>
<time>2014-11-03T17:53:02Z</time>
</trkpt>
<trkpt lat="38.08911593" lon="-1.27507458">
<ele>143</ele>
<time>2014-11-03T17:53:04Z</time>
</trkpt>
<trkpt lat="38.08913378" lon="-1.27508222">
<ele>144</ele>
<time>2014-11-03T17:53:06Z</time>
</trkpt>
<trkpt lat="38.08914538" lon="-1.27508501">
<ele>145</ele>
<time>2014-11-03T17:53:08Z</time>
</trkpt>
<trkpt lat="38.08915604" lon="-1.27509461">
<ele>147</ele>
<time>2014-11-03T17:53:10Z</time>
</trkpt>
<trkpt lat="38.08916945" lon="-1.27511148">
<ele>147</ele>
<time>2014-11-03T17:53:12Z</time>
</trkpt>
<trkpt lat="38.08918622" lon="-1.27512779">
<ele>147</ele>
<time>2014-11-03T17:53:14Z</time>
</trkpt>
<trkpt lat="38.08920415" lon="-1.2751438">
<ele>147</ele>
<time>2014-11-03T17:53:16Z</time>
</trkpt>
<trkpt lat="38.08922342" lon="-1.27516202">
<ele>147</ele>
<time>2014-11-03T17:53:18Z</time>
</trkpt>
<trkpt lat="38.08924228" lon="-1.27518044">
<ele>146</ele>
<time>2014-11-03T17:53:20Z</time>
</trkpt>
<trkpt lat="38.08926234" lon="-1.27519617">
<ele>145</ele>
<time>2014-11-03T17:53:22Z</time>
</trkpt>
<trkpt lat="38.08928396" lon="-1.27521058">
<ele>145</ele>
<time>2014-11-03T17:53:24Z</time>
</trkpt>
<trkpt lat="38.08930101" lon="-1.2752265">
<ele>146</ele>
<time>2014-11-03T17:53:26Z</time>
</trkpt>
<trkpt lat="38.0893153" lon="-1.27524123">
<ele>146</ele>
<time>2014-11-03T17:53:28Z</time>
</trkpt>
<trkpt lat="38.08932903" lon="-1.27525206">
<ele>145</ele>
<time>2014-11-03T17:53:30Z</time>
</trkpt>
<trkpt lat="38.08933323" lon="-1.27525171">
<ele>145</ele>
<time>2014-11-03T17:53:32Z</time>
</trkpt>
<trkpt lat="38.08933155" lon="-1.27525195">
<ele>145</ele>
<time>2014-11-03T17:53:34Z</time>
</trkpt>
<trkpt lat="38.08933122" lon="-1.27525249">
<ele>145</ele>
<time>2014-11-03T17:53:36Z</time>
</trkpt>
<trkpt lat="38.08933104" lon="-1.27525232">
<ele>145</ele>
<time>2014-11-03T17:53:38Z</time>
</trkpt>
<trkpt lat="38.08933088" lon="-1.27525279">
<ele>145</ele>
<time>2014-11-03T17:53:40Z</time>
</trkpt>
<trkpt lat="38.08933012" lon="-1.27525352">
<ele>145</ele>
<time>2014-11-03T17:53:42Z</time>
</trkpt>
<trkpt lat="38.08932881" lon="-1.27525128">
<ele>145</ele>
<time>2014-11-03T17:53:44Z</time>
</trkpt>
<trkpt lat="38.08932858" lon="-1.27524295">
<ele>145</ele>
<time>2014-11-03T17:53:46Z</time>
</trkpt>
<trkpt lat="38.08932932" lon="-1.27524557">
<ele>144</ele>
<time>2014-11-03T17:53:48Z</time>
</trkpt>
<trkpt lat="38.08932955" lon="-1.27524371">
<ele>144</ele>
<time>2014-11-03T17:53:50Z</time>
</trkpt>
<trkpt lat="38.08932992" lon="-1.27524219">
<ele>144</ele>
<time>2014-11-03T17:53:52Z</time>
</trkpt>
<trkpt lat="38.0893311" lon="-1.27524251">
<ele>143</ele>
<time>2014-11-03T17:53:54Z</time>
</trkpt>
<trkpt lat="38.08933159" lon="-1.27524234">
<ele>143</ele>
<time>2014-11-03T17:53:56Z</time>
</trkpt>
<trkpt lat="38.08933125" lon="-1.27524269">
<ele>143</ele>
<time>2014-11-03T17:53:58Z</time>
</trkpt>
<trkpt lat="38.08933078" lon="-1.27524298">
<ele>144</ele>
<time>2014-11-03T17:54:00Z</time>
</trkpt>
<trkpt lat="38.08933065" lon="-1.27524316">
<ele>144</ele>
<time>2014-11-03T17:54:02Z</time>
</trkpt>
<trkpt lat="38.0893306" lon="-1.27524323">
<ele>144</ele>
<time>2014-11-03T17:54:04Z</time>
</trkpt>
<trkpt lat="38.08933648" lon="-1.27524629">
<ele>143</ele>
<time>2014-11-03T17:54:06Z</time>
</trkpt>
<trkpt lat="38.08934255" lon="-1.27524876">
<ele>143</ele>
<time>2014-11-03T17:54:08Z</time>
</trkpt>
<trkpt lat="38.08934565" lon="-1.2752522">
<ele>142</ele>
<time>2014-11-03T17:54:10Z</time>
</trkpt>
<trkpt lat="38.08934556" lon="-1.27525348">
<ele>142</ele>
<time>2014-11-03T17:54:12Z</time>
</trkpt>
<trkpt lat="38.08935044" lon="-1.27525811">
<ele>142</ele>
<time>2014-11-03T17:54:14Z</time>
</trkpt>
<trkpt lat="38.08935814" lon="-1.27526042">
<ele>142</ele>
<time>2014-11-03T17:54:16Z</time>
</trkpt>
<trkpt lat="38.08936328" lon="-1.27526639">
<ele>142</ele>
<time>2014-11-03T17:54:18Z</time>
</trkpt>
<trkpt lat="38.08937135" lon="-1.27527202">
<ele>142</ele>
<time>2014-11-03T17:54:20Z</time>
</trkpt>
<trkpt lat="38.08938447" lon="-1.27527984">
<ele>143</ele>
<time>2014-11-03T17:54:22Z</time>
</trkpt>
<trkpt lat="38.08940119" lon="-1.27528741">
<ele>143</ele>
<time>2014-11-03T17:54:24Z</time>
</trkpt>
<trkpt lat="38.08941955" lon="-1.27529816">
<ele>142</ele>
<time>2014-11-03T17:54:26Z</time>
</trkpt>
<trkpt lat="38.08943403" lon="-1.27531199">
<ele>143</ele>
<time>2014-11-03T17:54:28Z</time>
</trkpt>
<trkpt lat="38.0894479" lon="-1.27532456">
<ele>143</ele>
<time>2014-11-03T17:54:30Z</time>
</trkpt>
<trkpt lat="38.08946562" lon="-1.2753303">
<ele>144</ele>
<time>2014-11-03T17:54:32Z</time>
</trkpt>
<trkpt lat="38.08948213" lon="-1.27532151">
<ele>145</ele>
<time>2014-11-03T17:54:34Z</time>
</trkpt>
<trkpt lat="38.0894955" lon="-1.27531021">
<ele>146</ele>
<time>2014-11-03T17:54:36Z</time>
</trkpt>
<trkpt lat="38.08951141" lon="-1.27529764">
<ele>145</ele>
<time>2014-11-03T17:54:38Z</time>
</trkpt>
<trkpt lat="38.08953075" lon="-1.27527898">
<ele>146</ele>
<time>2014-11-03T17:54:40Z</time>
</trkpt>
<trkpt lat="38.08954822" lon="-1.27526257">
<ele>147</ele>
<time>2014-11-03T17:54:42Z</time>
</trkpt>
<trkpt lat="38.08956122" lon="-1.27524642">
<ele>147</ele>
<time>2014-11-03T17:54:44Z</time>
</trkpt>
<trkpt lat="38.08957123" lon="-1.27523019">
<ele>147</ele>
<time>2014-11-03T17:54:46Z</time>
</trkpt>
<trkpt lat="38.08957984" lon="-1.27521496">
<ele>148</ele>
<time>2014-11-03T17:54:48Z</time>
</trkpt>
<trkpt lat="38.08958952" lon="-1.27519905">
<ele>148</ele>
<time>2014-11-03T17:54:50Z</time>
</trkpt>
<trkpt lat="38.0896005" lon="-1.27518186">
<ele>149</ele>
<time>2014-11-03T17:54:52Z</time>
</trkpt>
<trkpt lat="38.08961128" lon="-1.27516567">
<ele>149</ele>
<time>2014-11-03T17:54:54Z</time>
</trkpt>
<trkpt lat="38.08962072" lon="-1.27515105">
<ele>149</ele>
<time>2014-11-03T17:54:56Z</time>
</trkpt>
<trkpt lat="38.08962924" lon="-1.27513768">
<ele>149</ele>
<time>2014-11-03T17:54:58Z</time>
</trkpt>
<trkpt lat="38.08963954" lon="-1.27512147">
<ele>148</ele>
<time>2014-11-03T17:55:00Z</time>
</trkpt>
<trkpt lat="38.08965036" lon="-1.27510662">
<ele>148</ele>
<time>2014-11-03T17:55:02Z</time>
</trkpt>
<trkpt lat="38.08965754" lon="-1.2750927">
<ele>148</ele>
<time>2014-11-03T17:55:04Z</time>
</trkpt>
<trkpt lat="38.08966053" lon="-1.27507963">
<ele>148</ele>
<time>2014-11-03T17:55:06Z</time>
</trkpt>
<trkpt lat="38.08965031" lon="-1.27507229">
<ele>146</ele>
<time>2014-11-03T17:55:08Z</time>
</trkpt>
<trkpt lat="38.08964719" lon="-1.27506205">
<ele>146</ele>
<time>2014-11-03T17:55:10Z</time>
</trkpt>
<trkpt lat="38.0896468" lon="-1.27505514">
<ele>146</ele>
<time>2014-11-03T17:55:12Z</time>
</trkpt>
<trkpt lat="38.08964991" lon="-1.27504969">
<ele>146</ele>
<time>2014-11-03T17:55:14Z</time>
</trkpt>
<trkpt lat="38.08965801" lon="-1.27504185">
<ele>146</ele>
<time>2014-11-03T17:55:16Z</time>
</trkpt>
<trkpt lat="38.08967224" lon="-1.27502186">
<ele>146</ele>
<time>2014-11-03T17:55:18Z</time>
</trkpt>
<trkpt lat="38.08968503" lon="-1.27499689">
<ele>147</ele>
<time>2014-11-03T17:55:20Z</time>
</trkpt>
<trkpt lat="38.08969625" lon="-1.27497605">
<ele>146</ele>
<time>2014-11-03T17:55:22Z</time>
</trkpt>
<trkpt lat="38.0897082" lon="-1.27495875">
<ele>146</ele>
<time>2014-11-03T17:55:24Z</time>
</trkpt>
<trkpt lat="38.08971937" lon="-1.27494047">
<ele>145</ele>
<time>2014-11-03T17:55:26Z</time>
</trkpt>
<trkpt lat="38.08973083" lon="-1.2749207">
<ele>145</ele>
<time>2014-11-03T17:55:28Z</time>
</trkpt>
<trkpt lat="38.08974531" lon="-1.27490178">
<ele>146</ele>
<time>2014-11-03T17:55:30Z</time>
</trkpt>
<trkpt lat="38.08975799" lon="-1.27488121">
<ele>145</ele>
<time>2014-11-03T17:55:32Z</time>
</trkpt>
<trkpt lat="38.08977057" lon="-1.27486033">
<ele>144</ele>
<time>2014-11-03T17:55:34Z</time>
</trkpt>
<trkpt lat="38.08978435" lon="-1.27483701">
<ele>143</ele>
<time>2014-11-03T17:55:36Z</time>
</trkpt>
<trkpt lat="38.08979648" lon="-1.27481318">
<ele>144</ele>
<time>2014-11-03T17:55:38Z</time>
</trkpt>
<trkpt lat="38.08980775" lon="-1.27478987">
<ele>144</ele>
<time>2014-11-03T17:55:40Z</time>
</trkpt>
<trkpt lat="38.08981938" lon="-1.27476454">
<ele>145</ele>
<time>2014-11-03T17:55:42Z</time>
</trkpt>
<trkpt lat="38.08983217" lon="-1.27474164">
<ele>145</ele>
<time>2014-11-03T17:55:44Z</time>
</trkpt>
<trkpt lat="38.0898452" lon="-1.27471859">
<ele>145</ele>
<time>2014-11-03T17:55:46Z</time>
</trkpt>
<trkpt lat="38.0898582" lon="-1.27469475">
<ele>145</ele>
<time>2014-11-03T17:55:48Z</time>
</trkpt>
<trkpt lat="38.08987059" lon="-1.27467131">
<ele>145</ele>
<time>2014-11-03T17:55:50Z</time>
</trkpt>
<trkpt lat="38.0898824" lon="-1.27464844">
<ele>145</ele>
<time>2014-11-03T17:55:52Z</time>
</trkpt>
<trkpt lat="38.08989498" lon="-1.27462501">
<ele>145</ele>
<time>2014-11-03T17:55:54Z</time>
</trkpt>
<trkpt lat="38.08990672" lon="-1.27460326">
<ele>145</ele>
<time>2014-11-03T17:55:56Z</time>
</trkpt>
<trkpt lat="38.08991577" lon="-1.27458166">
<ele>145</ele>
<time>2014-11-03T17:55:58Z</time>
</trkpt>
<trkpt lat="38.08992586" lon="-1.27455891">
<ele>145</ele>
<time>2014-11-03T17:56:00Z</time>
</trkpt>
<trkpt lat="38.08993968" lon="-1.27453538">
<ele>144</ele>
<time>2014-11-03T17:56:02Z</time>
</trkpt>
<trkpt lat="38.08995491" lon="-1.27451256">
<ele>145</ele>
<time>2014-11-03T17:56:04Z</time>
</trkpt>
<trkpt lat="38.0899664" lon="-1.27449063">
<ele>145</ele>
<time>2014-11-03T17:56:06Z</time>
</trkpt>
<trkpt lat="38.0899766" lon="-1.27446974">
<ele>145</ele>
<time>2014-11-03T17:56:08Z</time>
</trkpt>
<trkpt lat="38.08998587" lon="-1.27445058">
<ele>145</ele>
<time>2014-11-03T17:56:10Z</time>
</trkpt>
<trkpt lat="38.08999167" lon="-1.27443269">
<ele>145</ele>
<time>2014-11-03T17:56:12Z</time>
</trkpt>
<trkpt lat="38.08999733" lon="-1.27441442">
<ele>146</ele>
<time>2014-11-03T17:56:14Z</time>
</trkpt>
<trkpt lat="38.0900028" lon="-1.2743998">
<ele>146</ele>
<time>2014-11-03T17:56:16Z</time>
</trkpt>
<trkpt lat="38.09000922" lon="-1.27438434">
<ele>145</ele>
<time>2014-11-03T17:56:18Z</time>
</trkpt>
<trkpt lat="38.09001889" lon="-1.27436212">
<ele>144</ele>
<time>2014-11-03T17:56:20Z</time>
</trkpt>
<trkpt lat="38.09002745" lon="-1.27434043">
<ele>143</ele>
<time>2014-11-03T17:56:22Z</time>
</trkpt>
<trkpt lat="38.09003689" lon="-1.27431723">
<ele>143</ele>
<time>2014-11-03T17:56:24Z</time>
</trkpt>
<trkpt lat="38.0900435" lon="-1.274298">
<ele>141</ele>
<time>2014-11-03T17:56:26Z</time>
</trkpt>
<trkpt lat="38.09004716" lon="-1.2742808">
<ele>140</ele>
<time>2014-11-03T17:56:28Z</time>
</trkpt>
<trkpt lat="38.0900667" lon="-1.27423433">
<ele>140</ele>
<time>2014-11-03T17:56:32Z</time>
</trkpt>
<trkpt lat="38.09007861" lon="-1.27421867">
<ele>140</ele>
<time>2014-11-03T17:56:34Z</time>
</trkpt>
<trkpt lat="38.09009467" lon="-1.27420687">
<ele>140</ele>
<time>2014-11-03T17:56:36Z</time>
</trkpt>
<trkpt lat="38.09011167" lon="-1.27419033">
<ele>140</ele>
<time>2014-11-03T17:56:38Z</time>
</trkpt>
<trkpt lat="38.09012436" lon="-1.27417088">
<ele>140</ele>
<time>2014-11-03T17:56:40Z</time>
</trkpt>
<trkpt lat="38.09013118" lon="-1.27415337">
<ele>139</ele>
<time>2014-11-03T17:56:42Z</time>
</trkpt>
<trkpt lat="38.09013558" lon="-1.274134">
<ele>140</ele>
<time>2014-11-03T17:56:44Z</time>
</trkpt>
<trkpt lat="38.09014114" lon="-1.27411256">
<ele>140</ele>
<time>2014-11-03T17:56:46Z</time>
</trkpt>
<trkpt lat="38.09014948" lon="-1.27409235">
<ele>140</ele>
<time>2014-11-03T17:56:48Z</time>
</trkpt>
<trkpt lat="38.09015515" lon="-1.27406368">
<ele>140</ele>
<time>2014-11-03T17:56:50Z</time>
</trkpt>
<trkpt lat="38.09016061" lon="-1.27404191">
<ele>140</ele>
<time>2014-11-03T17:56:52Z</time>
</trkpt>
<trkpt lat="38.09017027" lon="-1.27402048">
<ele>140</ele>
<time>2014-11-03T17:56:54Z</time>
</trkpt>
<trkpt lat="38.09018257" lon="-1.27399806">
<ele>139</ele>
<time>2014-11-03T17:56:56Z</time>
</trkpt>
<trkpt lat="38.09019234" lon="-1.27396973">
<ele>139</ele>
<time>2014-11-03T17:56:58Z</time>
</trkpt>
<trkpt lat="38.09020056" lon="-1.27394048">
<ele>139</ele>
<time>2014-11-03T17:57:00Z</time>
</trkpt>
<trkpt lat="38.09021042" lon="-1.27391896">
<ele>135</ele>
<time>2014-11-03T17:57:02Z</time>
</trkpt>
<trkpt lat="38.09022429" lon="-1.27390101">
<ele>135</ele>
<time>2014-11-03T17:57:04Z</time>
</trkpt>
<trkpt lat="38.09024376" lon="-1.27387829">
<ele>135</ele>
<time>2014-11-03T17:57:06Z</time>
</trkpt>
<trkpt lat="38.09026364" lon="-1.27385266">
<ele>136</ele>
<time>2014-11-03T17:57:08Z</time>
</trkpt>
<trkpt lat="38.09027777" lon="-1.27382807">
<ele>136</ele>
<time>2014-11-03T17:57:10Z</time>
</trkpt>
<trkpt lat="38.09029069" lon="-1.27381027">
<ele>136</ele>
<time>2014-11-03T17:57:12Z</time>
</trkpt>
<trkpt lat="38.09030654" lon="-1.27379303">
<ele>136</ele>
<time>2014-11-03T17:57:14Z</time>
</trkpt>
<trkpt lat="38.09032218" lon="-1.27377661">
<ele>136</ele>
<time>2014-11-03T17:57:16Z</time>
</trkpt>
<trkpt lat="38.09033628" lon="-1.27375718">
<ele>136</ele>
<time>2014-11-03T17:57:18Z</time>
</trkpt>
<trkpt lat="38.09035067" lon="-1.27373969">
<ele>135</ele>
<time>2014-11-03T17:57:20Z</time>
</trkpt>
<trkpt lat="38.09036022" lon="-1.27372242">
<ele>135</ele>
<time>2014-11-03T17:57:22Z</time>
</trkpt>
<trkpt lat="38.09037017" lon="-1.27370256">
<ele>134</ele>
<time>2014-11-03T17:57:24Z</time>
</trkpt>
<trkpt lat="38.09037726" lon="-1.27367713">
<ele>135</ele>
<time>2014-11-03T17:57:26Z</time>
</trkpt>
<trkpt lat="38.09038535" lon="-1.27365926">
<ele>131</ele>
<time>2014-11-03T17:57:28Z</time>
</trkpt>
<trkpt lat="38.09040399" lon="-1.2736563">
<ele>131</ele>
<time>2014-11-03T17:57:30Z</time>
</trkpt>
<trkpt lat="38.09044159" lon="-1.27365928">
<ele>132</ele>
<time>2014-11-03T17:57:32Z</time>
</trkpt>
<trkpt lat="38.09047652" lon="-1.27365159">
<ele>132</ele>
<time>2014-11-03T17:57:34Z</time>
</trkpt>
<trkpt lat="38.09049845" lon="-1.27362745">
<ele>132</ele>
<time>2014-11-03T17:57:36Z</time>
</trkpt>
<trkpt lat="38.0904995" lon="-1.27361026">
<ele>133</ele>
<time>2014-11-03T17:57:38Z</time>
</trkpt>
<trkpt lat="38.09049815" lon="-1.27360541">
<ele>134</ele>
<time>2014-11-03T17:57:40Z</time>
</trkpt>
<trkpt lat="38.09050008" lon="-1.27360262">
<ele>133</ele>
<time>2014-11-03T17:57:42Z</time>
</trkpt>
<trkpt lat="38.09049998" lon="-1.27359649">
<ele>134</ele>
<time>2014-11-03T17:57:44Z</time>
</trkpt>
<trkpt lat="38.09049861" lon="-1.27359128">
<ele>135</ele>
<time>2014-11-03T17:57:46Z</time>
</trkpt>
<trkpt lat="38.09049818" lon="-1.27358834">
<ele>135</ele>
<time>2014-11-03T17:57:48Z</time>
</trkpt>
<trkpt lat="38.09049796" lon="-1.27358725">
<ele>135</ele>
<time>2014-11-03T17:57:50Z</time>
</trkpt>
<trkpt lat="38.09050542" lon="-1.27357673">
<ele>136</ele>
<time>2014-11-03T17:57:52Z</time>
</trkpt>
<trkpt lat="38.09050523" lon="-1.27357508">
<ele>136</ele>
<time>2014-11-03T17:57:54Z</time>
</trkpt>
<trkpt lat="38.09050307" lon="-1.27356472">
<ele>135</ele>
<time>2014-11-03T17:57:56Z</time>
</trkpt>
<trkpt lat="38.09050321" lon="-1.27355291">
<ele>135</ele>
<time>2014-11-03T17:57:58Z</time>
</trkpt>
<trkpt lat="38.09050461" lon="-1.27354353">
<ele>135</ele>
<time>2014-11-03T17:58:00Z</time>
</trkpt>
<trkpt lat="38.09050467" lon="-1.27353775">
<ele>136</ele>
<time>2014-11-03T17:58:02Z</time>
</trkpt>
<trkpt lat="38.09050466" lon="-1.27353526">
<ele>136</ele>
<time>2014-11-03T17:58:04Z</time>
</trkpt>
<trkpt lat="38.09050783" lon="-1.27351809">
<ele>136</ele>
<time>2014-11-03T17:58:06Z</time>
</trkpt>
<trkpt lat="38.09051237" lon="-1.27349428">
<ele>137</ele>
<time>2014-11-03T17:58:08Z</time>
</trkpt>
<trkpt lat="38.09051263" lon="-1.27346318">
<ele>139</ele>
<time>2014-11-03T17:58:10Z</time>
</trkpt>
<trkpt lat="38.09051269" lon="-1.27342557">
<ele>141</ele>
<time>2014-11-03T17:58:12Z</time>
</trkpt>
<trkpt lat="38.0905268" lon="-1.27338454">
<ele>141</ele>
<time>2014-11-03T17:58:14Z</time>
</trkpt>
<trkpt lat="38.09053982" lon="-1.27334512">
<ele>142</ele>
<time>2014-11-03T17:58:16Z</time>
</trkpt>
<trkpt lat="38.0905483" lon="-1.27330764">
<ele>142</ele>
<time>2014-11-03T17:58:18Z</time>
</trkpt>
<trkpt lat="38.09055449" lon="-1.27326735">
<ele>142</ele>
<time>2014-11-03T17:58:20Z</time>
</trkpt>
<trkpt lat="38.09055777" lon="-1.27323072">
<ele>142</ele>
<time>2014-11-03T17:58:22Z</time>
</trkpt>
<trkpt lat="38.09056292" lon="-1.27320785">
<ele>141</ele>
<time>2014-11-03T17:58:24Z</time>
</trkpt>
<trkpt lat="38.09057196" lon="-1.27320159">
<ele>140</ele>
<time>2014-11-03T17:58:26Z</time>
</trkpt>
<trkpt lat="38.09057568" lon="-1.27320017">
<ele>141</ele>
<time>2014-11-03T17:58:28Z</time>
</trkpt>
<trkpt lat="38.09057796" lon="-1.27319505">
<ele>141</ele>
<time>2014-11-03T17:58:30Z</time>
</trkpt>
<trkpt lat="38.09057755" lon="-1.27319206">
<ele>141</ele>
<time>2014-11-03T17:58:32Z</time>
</trkpt>
<trkpt lat="38.09057914" lon="-1.27318925">
<ele>141</ele>
<time>2014-11-03T17:58:34Z</time>
</trkpt>
<trkpt lat="38.09058001" lon="-1.27318737">
<ele>141</ele>
<time>2014-11-03T17:58:36Z</time>
</trkpt>
<trkpt lat="38.09058209" lon="-1.27316318">
<ele>141</ele>
<time>2014-11-03T17:58:38Z</time>
</trkpt>
<trkpt lat="38.09059045" lon="-1.27313731">
<ele>142</ele>
<time>2014-11-03T17:58:40Z</time>
</trkpt>
<trkpt lat="38.09060097" lon="-1.27310568">
<ele>141</ele>
<time>2014-11-03T17:58:42Z</time>
</trkpt>
<trkpt lat="38.09061051" lon="-1.27307395">
<ele>141</ele>
<time>2014-11-03T17:58:44Z</time>
</trkpt>
<trkpt lat="38.09062331" lon="-1.27305172">
<ele>141</ele>
<time>2014-11-03T17:58:46Z</time>
</trkpt>
<trkpt lat="38.09062947" lon="-1.27304048">
<ele>142</ele>
<time>2014-11-03T17:58:48Z</time>
</trkpt>
<trkpt lat="38.09062825" lon="-1.2730253">
<ele>142</ele>
<time>2014-11-03T17:58:50Z</time>
</trkpt>
<trkpt lat="38.09062627" lon="-1.27300323">
<ele>141</ele>
<time>2014-11-03T17:58:52Z</time>
</trkpt>
<trkpt lat="38.09062786" lon="-1.27297892">
<ele>142</ele>
<time>2014-11-03T17:58:54Z</time>
</trkpt>
<trkpt lat="38.09063352" lon="-1.27295302">
<ele>142</ele>
<time>2014-11-03T17:58:56Z</time>
</trkpt>
<trkpt lat="38.09064032" lon="-1.27292989">
<ele>142</ele>
<time>2014-11-03T17:58:58Z</time>
</trkpt>
<trkpt lat="38.09065104" lon="-1.27290801">
<ele>141</ele>
<time>2014-11-03T17:59:00Z</time>
</trkpt>
<trkpt lat="38.09065767" lon="-1.27288549">
<ele>140</ele>
<time>2014-11-03T17:59:02Z</time>
</trkpt>
<trkpt lat="38.09066153" lon="-1.27286489">
<ele>139</ele>
<time>2014-11-03T17:59:04Z</time>
</trkpt>
<trkpt lat="38.09067674" lon="-1.2728411">
<ele>138</ele>
<time>2014-11-03T17:59:06Z</time>
</trkpt>
<trkpt lat="38.09069308" lon="-1.27281638">
<ele>138</ele>
<time>2014-11-03T17:59:08Z</time>
</trkpt>
<trkpt lat="38.09069822" lon="-1.27280174">
<ele>139</ele>
<time>2014-11-03T17:59:10Z</time>
</trkpt>
<trkpt lat="38.09070158" lon="-1.27279352">
<ele>139</ele>
<time>2014-11-03T17:59:12Z</time>
</trkpt>
<trkpt lat="38.09069568" lon="-1.2727884">
<ele>139</ele>
<time>2014-11-03T17:59:14Z</time>
</trkpt>
<trkpt lat="38.09069345" lon="-1.27278336">
<ele>139</ele>
<time>2014-11-03T17:59:16Z</time>
</trkpt>
<trkpt lat="38.09071424" lon="-1.27275435">
<ele>140</ele>
<time>2014-11-03T17:59:18Z</time>
</trkpt>
<trkpt lat="38.09072165" lon="-1.27272713">
<ele>142</ele>
<time>2014-11-03T17:59:20Z</time>
</trkpt>
<trkpt lat="38.09072257" lon="-1.27269401">
<ele>141</ele>
<time>2014-11-03T17:59:22Z</time>
</trkpt>
<trkpt lat="38.09071807" lon="-1.27266561">
<ele>140</ele>
<time>2014-11-03T17:59:24Z</time>
</trkpt>
<trkpt lat="38.09071624" lon="-1.27264094">
<ele>141</ele>
<time>2014-11-03T17:59:26Z</time>
</trkpt>
<trkpt lat="38.09071574" lon="-1.27261746">
<ele>141</ele>
<time>2014-11-03T17:59:28Z</time>
</trkpt>
<trkpt lat="38.09072022" lon="-1.27258798">
<ele>141</ele>
<time>2014-11-03T17:59:30Z</time>
</trkpt>
<trkpt lat="38.09072551" lon="-1.27256038">
<ele>141</ele>
<time>2014-11-03T17:59:32Z</time>
</trkpt>
<trkpt lat="38.09072924" lon="-1.27253863">
<ele>139</ele>
<time>2014-11-03T17:59:34Z</time>
</trkpt>
<trkpt lat="38.09073085" lon="-1.27251877">
<ele>139</ele>
<time>2014-11-03T17:59:36Z</time>
</trkpt>
<trkpt lat="38.09073373" lon="-1.27249405">
<ele>139</ele>
<time>2014-11-03T17:59:38Z</time>
</trkpt>
<trkpt lat="38.09073634" lon="-1.27246013">
<ele>145</ele>
<time>2014-11-03T17:59:40Z</time>
</trkpt>
<trkpt lat="38.0907363" lon="-1.27241658">
<ele>147</ele>
<time>2014-11-03T17:59:42Z</time>
</trkpt>
<trkpt lat="38.09073186" lon="-1.27238244">
<ele>148</ele>
<time>2014-11-03T17:59:44Z</time>
</trkpt>
<trkpt lat="38.09072977" lon="-1.27236551">
<ele>146</ele>
<time>2014-11-03T17:59:46Z</time>
</trkpt>
<trkpt lat="38.09073215" lon="-1.27234552">
<ele>146</ele>
<time>2014-11-03T17:59:48Z</time>
</trkpt>
<trkpt lat="38.09073491" lon="-1.27232092">
<ele>144</ele>
<time>2014-11-03T17:59:50Z</time>
</trkpt>
<trkpt lat="38.09073749" lon="-1.27229812">
<ele>144</ele>
<time>2014-11-03T17:59:52Z</time>
</trkpt>
<trkpt lat="38.09074207" lon="-1.27227541">
<ele>144</ele>
<time>2014-11-03T17:59:54Z</time>
</trkpt>
<trkpt lat="38.09074356" lon="-1.27225509">
<ele>144</ele>
<time>2014-11-03T17:59:56Z</time>
</trkpt>
<trkpt lat="38.09074501" lon="-1.27223449">
<ele>144</ele>
<time>2014-11-03T17:59:58Z</time>
</trkpt>
<trkpt lat="38.09074715" lon="-1.27221407">
<ele>143</ele>
<time>2014-11-03T18:00:00Z</time>
</trkpt>
<trkpt lat="38.09074618" lon="-1.2721981">
<ele>144</ele>
<time>2014-11-03T18:00:02Z</time>
</trkpt>
<trkpt lat="38.09074315" lon="-1.27220287">
<ele>144</ele>
<time>2014-11-03T18:00:04Z</time>
</trkpt>
<trkpt lat="38.090744" lon="-1.27220064">
<ele>144</ele>
<time>2014-11-03T18:00:06Z</time>
</trkpt>
<trkpt lat="38.09074517" lon="-1.27219608">
<ele>144</ele>
<time>2014-11-03T18:00:08Z</time>
</trkpt>
<trkpt lat="38.0907457" lon="-1.27219494">
<ele>144</ele>
<time>2014-11-03T18:00:10Z</time>
</trkpt>
<trkpt lat="38.09074598" lon="-1.27219422">
<ele>144</ele>
<time>2014-11-03T18:00:12Z</time>
</trkpt>
<trkpt lat="38.09074088" lon="-1.2721914">
<ele>146</ele>
<time>2014-11-03T18:00:14Z</time>
</trkpt>
<trkpt lat="38.09073915" lon="-1.27218812">
<ele>146</ele>
<time>2014-11-03T18:00:16Z</time>
</trkpt>
<trkpt lat="38.09073836" lon="-1.27217575">
<ele>146</ele>
<time>2014-11-03T18:00:18Z</time>
</trkpt>
<trkpt lat="38.09074067" lon="-1.27215726">
<ele>146</ele>
<time>2014-11-03T18:00:20Z</time>
</trkpt>
<trkpt lat="38.09074441" lon="-1.2721312">
<ele>145</ele>
<time>2014-11-03T18:00:22Z</time>
</trkpt>
<trkpt lat="38.09074723" lon="-1.27210564">
<ele>146</ele>
<time>2014-11-03T18:00:24Z</time>
</trkpt>
<trkpt lat="38.09075007" lon="-1.27208216">
<ele>146</ele>
<time>2014-11-03T18:00:26Z</time>
</trkpt>
<trkpt lat="38.09074427" lon="-1.27207755">
<ele>146</ele>
<time>2014-11-03T18:00:28Z</time>
</trkpt>
<trkpt lat="38.0907437" lon="-1.2720773">
<ele>146</ele>
<time>2014-11-03T18:00:30Z</time>
</trkpt>
<trkpt lat="38.0907474" lon="-1.27204839">
<ele>146</ele>
<time>2014-11-03T18:00:32Z</time>
</trkpt>
<trkpt lat="38.09074916" lon="-1.27202324">
<ele>146</ele>
<time>2014-11-03T18:00:34Z</time>
</trkpt>
<trkpt lat="38.09075105" lon="-1.27199927">
<ele>145</ele>
<time>2014-11-03T18:00:36Z</time>
</trkpt>
<trkpt lat="38.09075506" lon="-1.2719787">
<ele>144</ele>
<time>2014-11-03T18:00:38Z</time>
</trkpt>
<trkpt lat="38.09076047" lon="-1.27195754">
<ele>144</ele>
<time>2014-11-03T18:00:40Z</time>
</trkpt>
<trkpt lat="38.0907663" lon="-1.27193595">
<ele>143</ele>
<time>2014-11-03T18:00:42Z</time>
</trkpt>
<trkpt lat="38.09077295" lon="-1.27191279">
<ele>143</ele>
<time>2014-11-03T18:00:44Z</time>
</trkpt>
<trkpt lat="38.090778" lon="-1.27188547">
<ele>142</ele>
<time>2014-11-03T18:00:46Z</time>
</trkpt>
<trkpt lat="38.09078268" lon="-1.27185866">
<ele>142</ele>
<time>2014-11-03T18:00:48Z</time>
</trkpt>
<trkpt lat="38.09078691" lon="-1.27183652">
<ele>142</ele>
<time>2014-11-03T18:00:50Z</time>
</trkpt>
<trkpt lat="38.0907907" lon="-1.27181322">
<ele>142</ele>
<time>2014-11-03T18:00:52Z</time>
</trkpt>
<trkpt lat="38.09079359" lon="-1.27179146">
<ele>142</ele>
<time>2014-11-03T18:00:54Z</time>
</trkpt>
<trkpt lat="38.09079529" lon="-1.27177668">
<ele>142</ele>
<time>2014-11-03T18:00:56Z</time>
</trkpt>
<trkpt lat="38.09079713" lon="-1.27175616">
<ele>142</ele>
<time>2014-11-03T18:00:58Z</time>
</trkpt>
<trkpt lat="38.0908016" lon="-1.27172707">
<ele>142</ele>
<time>2014-11-03T18:01:00Z</time>
</trkpt>
<trkpt lat="38.09080635" lon="-1.2717014">
<ele>142</ele>
<time>2014-11-03T18:01:02Z</time>
</trkpt>
<trkpt lat="38.0908104" lon="-1.27167649">
<ele>142</ele>
<time>2014-11-03T18:01:04Z</time>
</trkpt>
<trkpt lat="38.09081296" lon="-1.27165106">
<ele>142</ele>
<time>2014-11-03T18:01:06Z</time>
</trkpt>
<trkpt lat="38.09081449" lon="-1.2716249">
<ele>142</ele>
<time>2014-11-03T18:01:08Z</time>
</trkpt>
<trkpt lat="38.09081635" lon="-1.27159913">
<ele>142</ele>
<time>2014-11-03T18:01:10Z</time>
</trkpt>
<trkpt lat="38.09082032" lon="-1.2715716">
<ele>141</ele>
<time>2014-11-03T18:01:12Z</time>
</trkpt>
<trkpt lat="38.09082661" lon="-1.27154405">
<ele>142</ele>
<time>2014-11-03T18:01:14Z</time>
</trkpt>
<trkpt lat="38.09083" lon="-1.27151666">
<ele>141</ele>
<time>2014-11-03T18:01:16Z</time>
</trkpt>
<trkpt lat="38.0908309" lon="-1.2714909">
<ele>141</ele>
<time>2014-11-03T18:01:18Z</time>
</trkpt>
<trkpt lat="38.09083481" lon="-1.2714663">
<ele>141</ele>
<time>2014-11-03T18:01:20Z</time>
</trkpt>
<trkpt lat="38.09084049" lon="-1.27143937">
<ele>141</ele>
<time>2014-11-03T18:01:22Z</time>
</trkpt>
<trkpt lat="38.09084471" lon="-1.27140948">
<ele>141</ele>
<time>2014-11-03T18:01:24Z</time>
</trkpt>
<trkpt lat="38.09084778" lon="-1.27139005">
<ele>142</ele>
<time>2014-11-03T18:01:26Z</time>
</trkpt>
<trkpt lat="38.09085028" lon="-1.27137515">
<ele>142</ele>
<time>2014-11-03T18:01:28Z</time>
</trkpt>
<trkpt lat="38.09085076" lon="-1.27136378">
<ele>141</ele>
<time>2014-11-03T18:01:30Z</time>
</trkpt>
<trkpt lat="38.09085329" lon="-1.27134502">
<ele>140</ele>
<time>2014-11-03T18:01:32Z</time>
</trkpt>
<trkpt lat="38.09085585" lon="-1.27131813">
<ele>140</ele>
<time>2014-11-03T18:01:34Z</time>
</trkpt>
<trkpt lat="38.09085866" lon="-1.27129555">
<ele>140</ele>
<time>2014-11-03T18:01:36Z</time>
</trkpt>
<trkpt lat="38.09085987" lon="-1.27127483">
<ele>140</ele>
<time>2014-11-03T18:01:38Z</time>
</trkpt>
<trkpt lat="38.09085997" lon="-1.27125348">
<ele>140</ele>
<time>2014-11-03T18:01:40Z</time>
</trkpt>
<trkpt lat="38.09086113" lon="-1.27123673">
<ele>141</ele>
<time>2014-11-03T18:01:42Z</time>
</trkpt>
<trkpt lat="38.0908625" lon="-1.27121767">
<ele>141</ele>
<time>2014-11-03T18:01:44Z</time>
</trkpt>
<trkpt lat="38.09086386" lon="-1.27119452">
<ele>141</ele>
<time>2014-11-03T18:01:46Z</time>
</trkpt>
<trkpt lat="38.09086393" lon="-1.27118239">
<ele>140</ele>
<time>2014-11-03T18:01:48Z</time>
</trkpt>
<trkpt lat="38.09086407" lon="-1.27117676">
<ele>141</ele>
<time>2014-11-03T18:01:50Z</time>
</trkpt>
<trkpt lat="38.0908658" lon="-1.27115893">
<ele>140</ele>
<time>2014-11-03T18:01:52Z</time>
</trkpt>
<trkpt lat="38.09086761" lon="-1.2711397">
<ele>141</ele>
<time>2014-11-03T18:01:54Z</time>
</trkpt>
<trkpt lat="38.09086918" lon="-1.27111914">
<ele>141</ele>
<time>2014-11-03T18:01:56Z</time>
</trkpt>
<trkpt lat="38.09087077" lon="-1.27109841">
<ele>140</ele>
<time>2014-11-03T18:01:58Z</time>
</trkpt>
<trkpt lat="38.09087242" lon="-1.27107567">
<ele>140</ele>
<time>2014-11-03T18:02:00Z</time>
</trkpt>
<trkpt lat="38.09087512" lon="-1.2710576">
<ele>140</ele>
<time>2014-11-03T18:02:02Z</time>
</trkpt>
<trkpt lat="38.09087831" lon="-1.27103747">
<ele>140</ele>
<time>2014-11-03T18:02:04Z</time>
</trkpt>
<trkpt lat="38.09088093" lon="-1.27101525">
<ele>141</ele>
<time>2014-11-03T18:02:06Z</time>
</trkpt>
<trkpt lat="38.09088264" lon="-1.27099319">
<ele>140</ele>
<time>2014-11-03T18:02:08Z</time>
</trkpt>
<trkpt lat="38.09088359" lon="-1.27097545">
<ele>140</ele>
<time>2014-11-03T18:02:10Z</time>
</trkpt>
<trkpt lat="38.09088553" lon="-1.27096208">
<ele>141</ele>
<time>2014-11-03T18:02:12Z</time>
</trkpt>
<trkpt lat="38.09088761" lon="-1.27093876">
<ele>141</ele>
<time>2014-11-03T18:02:14Z</time>
</trkpt>
<trkpt lat="38.09089114" lon="-1.27091039">
<ele>141</ele>
<time>2014-11-03T18:02:16Z</time>
</trkpt>
<trkpt lat="38.09089421" lon="-1.27088973">
<ele>142</ele>
<time>2014-11-03T18:02:18Z</time>
</trkpt>
<trkpt lat="38.09089622" lon="-1.27087221">
<ele>143</ele>
<time>2014-11-03T18:02:20Z</time>
</trkpt>
<trkpt lat="38.09091447" lon="-1.27085071">
<ele>142</ele>
<time>2014-11-03T18:02:25Z</time>
</trkpt>
<trkpt lat="38.09092021" lon="-1.27084253">
<ele>140</ele>
<time>2014-11-03T18:02:26Z</time>
</trkpt>
<trkpt lat="38.09093844" lon="-1.27075714">
<ele>137</ele>
<time>2014-11-03T18:02:28Z</time>
</trkpt>
<trkpt lat="38.09094182" lon="-1.27072943">
<ele>137</ele>
<time>2014-11-03T18:02:30Z</time>
</trkpt>
<trkpt lat="38.09094444" lon="-1.2707126">
<ele>137</ele>
<time>2014-11-03T18:02:32Z</time>
</trkpt>
<trkpt lat="38.09094444" lon="-1.2707126">
<ele>137</ele>
<time>2014-11-03T18:02:34Z</time>
</trkpt>
<trkpt lat="38.09094632" lon="-1.27069765">
<ele>137</ele>
<time>2014-11-03T18:02:36Z</time>
</trkpt>
<trkpt lat="38.09094304" lon="-1.2706956">
<ele>137</ele>
<time>2014-11-03T18:02:38Z</time>
</trkpt>
<trkpt lat="38.09093943" lon="-1.27068624">
<ele>137</ele>
<time>2014-11-03T18:02:40Z</time>
</trkpt>
<trkpt lat="38.09093943" lon="-1.27068624">
<ele>137</ele>
<time>2014-11-03T18:02:42Z</time>
</trkpt>
<trkpt lat="38.09095113" lon="-1.27064721">
<ele>134</ele>
<time>2014-11-03T18:02:45Z</time>
</trkpt>
<trkpt lat="38.09095769" lon="-1.27062956">
<ele>132</ele>
<time>2014-11-03T18:02:46Z</time>
</trkpt>
<trkpt lat="38.09095098" lon="-1.27063085">
<ele>135</ele>
<time>2014-11-03T18:02:48Z</time>
</trkpt>
<trkpt lat="38.09096382" lon="-1.2706017">
<ele>135</ele>
<time>2014-11-03T18:02:51Z</time>
</trkpt>
<trkpt lat="38.09097672" lon="-1.27057196">
<ele>135</ele>
<time>2014-11-03T18:02:52Z</time>
</trkpt>
<trkpt lat="38.09098955" lon="-1.27052758">
<ele>135</ele>
<time>2014-11-03T18:02:54Z</time>
</trkpt>
<trkpt lat="38.09100187" lon="-1.27048242">
<ele>135</ele>
<time>2014-11-03T18:02:56Z</time>
</trkpt>
<trkpt lat="38.09098079" lon="-1.27045433">
<ele>135</ele>
<time>2014-11-03T18:02:58Z</time>
</trkpt>
<trkpt lat="38.09097684" lon="-1.2704111">
<ele>137</ele>
<time>2014-11-03T18:03:01Z</time>
</trkpt>
<trkpt lat="38.09097374" lon="-1.27039313">
<ele>137</ele>
<time>2014-11-03T18:03:02Z</time>
</trkpt>
<trkpt lat="38.09096986" lon="-1.27034664">
<ele>138</ele>
<time>2014-11-03T18:03:05Z</time>
</trkpt>
<trkpt lat="38.09096824" lon="-1.27033368">
<ele>138</ele>
<time>2014-11-03T18:03:06Z</time>
</trkpt>
<trkpt lat="38.09096527" lon="-1.27031484">
<ele>138</ele>
<time>2014-11-03T18:03:08Z</time>
</trkpt>
<trkpt lat="38.09095942" lon="-1.27030443">
<ele>138</ele>
<time>2014-11-03T18:03:10Z</time>
</trkpt>
<trkpt lat="38.09094468" lon="-1.27028982">
<ele>138</ele>
<time>2014-11-03T18:03:12Z</time>
</trkpt>
<trkpt lat="38.09093131" lon="-1.27025745">
<ele>137</ele>
<time>2014-11-03T18:03:14Z</time>
</trkpt>
<trkpt lat="38.09093642" lon="-1.27021896">
<ele>135</ele>
<time>2014-11-03T18:03:16Z</time>
</trkpt>
<trkpt lat="38.09095137" lon="-1.27017323">
<ele>135</ele>
<time>2014-11-03T18:03:18Z</time>
</trkpt>
<trkpt lat="38.0909568" lon="-1.27016441">
<ele>136</ele>
<time>2014-11-03T18:03:21Z</time>
</trkpt>
<trkpt lat="38.09096155" lon="-1.27015669">
<ele>136</ele>
<time>2014-11-03T18:03:23Z</time>
</trkpt>
<trkpt lat="38.09096171" lon="-1.27015621">
<ele>136</ele>
<time>2014-11-03T18:03:24Z</time>
</trkpt>
<trkpt lat="38.09096174" lon="-1.27014946">
<ele>136</ele>
<time>2014-11-03T18:03:26Z</time>
</trkpt>
<trkpt lat="38.09096375" lon="-1.27013722">
<ele>136</ele>
<time>2014-11-03T18:03:28Z</time>
</trkpt>
<trkpt lat="38.09096512" lon="-1.2701295">
<ele>136</ele>
<time>2014-11-03T18:03:30Z</time>
</trkpt>
<trkpt lat="38.09096587" lon="-1.27012341">
<ele>136</ele>
<time>2014-11-03T18:03:33Z</time>
</trkpt>
<trkpt lat="38.09096652" lon="-1.27011809">
<ele>136</ele>
<time>2014-11-03T18:03:35Z</time>
</trkpt>
<trkpt lat="38.09096673" lon="-1.2701169">
<ele>135</ele>
<time>2014-11-03T18:03:36Z</time>
</trkpt>
<trkpt lat="38.09096739" lon="-1.27010609">
<ele>135</ele>
<time>2014-11-03T18:03:38Z</time>
</trkpt>
<trkpt lat="38.09096655" lon="-1.27007512">
<ele>135</ele>
<time>2014-11-03T18:03:40Z</time>
</trkpt>
<trkpt lat="38.09097754" lon="-1.27004008">
<ele>134</ele>
<time>2014-11-03T18:03:42Z</time>
</trkpt>
<trkpt lat="38.09098133" lon="-1.27000762">
<ele>137</ele>
<time>2014-11-03T18:03:44Z</time>
</trkpt>
<trkpt lat="38.09098317" lon="-1.26996064">
<ele>135</ele>
<time>2014-11-03T18:03:46Z</time>
</trkpt>
<trkpt lat="38.09098696" lon="-1.26991574">
<ele>136</ele>
<time>2014-11-03T18:03:49Z</time>
</trkpt>
<trkpt lat="38.09100076" lon="-1.26989357">
<ele>137</ele>
<time>2014-11-03T18:03:51Z</time>
</trkpt>
<trkpt lat="38.09100201" lon="-1.26988771">
<ele>137</ele>
<time>2014-11-03T18:03:52Z</time>
</trkpt>
<trkpt lat="38.09100681" lon="-1.26987041">
<ele>138</ele>
<time>2014-11-03T18:03:54Z</time>
</trkpt>
<trkpt lat="38.09100914" lon="-1.26986089">
<ele>138</ele>
<time>2014-11-03T18:03:56Z</time>
</trkpt>
<trkpt lat="38.0910095" lon="-1.26985643">
<ele>138</ele>
<time>2014-11-03T18:03:58Z</time>
</trkpt>
<trkpt lat="38.09100968" lon="-1.2698542">
<ele>138</ele>
<time>2014-11-03T18:04:00Z</time>
</trkpt>
<trkpt lat="38.09101363" lon="-1.26984646">
<ele>137</ele>
<time>2014-11-03T18:04:02Z</time>
</trkpt>
<trkpt lat="38.09101518" lon="-1.26984416">
<ele>138</ele>
<time>2014-11-03T18:04:04Z</time>
</trkpt>
<trkpt lat="38.09101194" lon="-1.26983667">
<ele>137</ele>
<time>2014-11-03T18:04:06Z</time>
</trkpt>
<trkpt lat="38.09098316" lon="-1.26980399">
<ele>138</ele>
<time>2014-11-03T18:04:09Z</time>
</trkpt>
<trkpt lat="38.09096779" lon="-1.26978493">
<ele>138</ele>
<time>2014-11-03T18:04:11Z</time>
</trkpt>
<trkpt lat="38.09094818" lon="-1.26973011">
<ele>140</ele>
<time>2014-11-03T18:04:13Z</time>
</trkpt>
<trkpt lat="38.09092338" lon="-1.26968719">
<ele>138</ele>
<time>2014-11-03T18:04:15Z</time>
</trkpt>
<trkpt lat="38.09090419" lon="-1.26966976">
<ele>136</ele>
<time>2014-11-03T18:04:17Z</time>
</trkpt>
<trkpt lat="38.09088802" lon="-1.26964253">
<ele>138</ele>
<time>2014-11-03T18:04:19Z</time>
</trkpt>
<trkpt lat="38.09086971" lon="-1.26962269">
<ele>136</ele>
<time>2014-11-03T18:04:21Z</time>
</trkpt>
<trkpt lat="38.09085046" lon="-1.26961199">
<ele>136</ele>
<time>2014-11-03T18:04:23Z</time>
</trkpt>
<trkpt lat="38.09083061" lon="-1.26959735">
<ele>136</ele>
<time>2014-11-03T18:04:25Z</time>
</trkpt>
<trkpt lat="38.09081142" lon="-1.26957887">
<ele>137</ele>
<time>2014-11-03T18:04:27Z</time>
</trkpt>
<trkpt lat="38.09078192" lon="-1.26955767">
<ele>135</ele>
<time>2014-11-03T18:04:30Z</time>
</trkpt>
<trkpt lat="38.09077185" lon="-1.26955274">
<ele>135</ele>
<time>2014-11-03T18:04:31Z</time>
</trkpt>
<trkpt lat="38.09075137" lon="-1.26954312">
<ele>136</ele>
<time>2014-11-03T18:04:33Z</time>
</trkpt>
<trkpt lat="38.09072888" lon="-1.26954954">
<ele>136</ele>
<time>2014-11-03T18:04:35Z</time>
</trkpt>
<trkpt lat="38.09070722" lon="-1.26954987">
<ele>137</ele>
<time>2014-11-03T18:04:37Z</time>
</trkpt>
<trkpt lat="38.0906754" lon="-1.26957385">
<ele>135</ele>
<time>2014-11-03T18:04:39Z</time>
</trkpt>
<trkpt lat="38.09065152" lon="-1.26957734">
<ele>134</ele>
<time>2014-11-03T18:04:41Z</time>
</trkpt>
<trkpt lat="38.09063807" lon="-1.26957168">
<ele>133</ele>
<time>2014-11-03T18:04:43Z</time>
</trkpt>
<trkpt lat="38.09062522" lon="-1.26956548">
<ele>133</ele>
<time>2014-11-03T18:04:45Z</time>
</trkpt>
<trkpt lat="38.09061036" lon="-1.26955763">
<ele>132</ele>
<time>2014-11-03T18:04:47Z</time>
</trkpt>
<trkpt lat="38.09058227" lon="-1.26954762">
<ele>132</ele>
<time>2014-11-03T18:04:50Z</time>
</trkpt>
<trkpt lat="38.09056993" lon="-1.269506">
<ele>134</ele>
<time>2014-11-03T18:04:51Z</time>
</trkpt>
<trkpt lat="38.09054752" lon="-1.26946095">
<ele>134</ele>
<time>2014-11-03T18:04:53Z</time>
</trkpt>
<trkpt lat="38.09053502" lon="-1.26945823">
<ele>137</ele>
<time>2014-11-03T18:04:55Z</time>
</trkpt>
<trkpt lat="38.0905161" lon="-1.26944951">
<ele>139</ele>
<time>2014-11-03T18:04:57Z</time>
</trkpt>
<trkpt lat="38.09050325" lon="-1.26948029">
<ele>141</ele>
<time>2014-11-03T18:04:59Z</time>
</trkpt>
<trkpt lat="38.09048873" lon="-1.2694922">
<ele>143</ele>
<time>2014-11-03T18:05:01Z</time>
</trkpt>
<trkpt lat="38.09047385" lon="-1.26949772">
<ele>144</ele>
<time>2014-11-03T18:05:03Z</time>
</trkpt>
<trkpt lat="38.09045438" lon="-1.26949582">
<ele>144</ele>
<time>2014-11-03T18:05:05Z</time>
</trkpt>
<trkpt lat="38.09044423" lon="-1.26949801">
<ele>144</ele>
<time>2014-11-03T18:05:07Z</time>
</trkpt>
<trkpt lat="38.0904275" lon="-1.26949953">
<ele>144</ele>
<time>2014-11-03T18:05:09Z</time>
</trkpt>
<trkpt lat="38.09041187" lon="-1.26950432">
<ele>145</ele>
<time>2014-11-03T18:05:11Z</time>
</trkpt>
<trkpt lat="38.09039293" lon="-1.26950094">
<ele>145</ele>
<time>2014-11-03T18:05:13Z</time>
</trkpt>
<trkpt lat="38.09038084" lon="-1.26950902">
<ele>146</ele>
<time>2014-11-03T18:05:15Z</time>
</trkpt>
<trkpt lat="38.09034719" lon="-1.26948898">
<ele>142</ele>
<time>2014-11-03T18:05:18Z</time>
</trkpt>
<trkpt lat="38.09032559" lon="-1.26948153">
<ele>142</ele>
<time>2014-11-03T18:05:20Z</time>
</trkpt>
<trkpt lat="38.09030836" lon="-1.26948552">
<ele>141</ele>
<time>2014-11-03T18:05:22Z</time>
</trkpt>
<trkpt lat="38.09029266" lon="-1.26948245">
<ele>141</ele>
<time>2014-11-03T18:05:24Z</time>
</trkpt>
<trkpt lat="38.09027321" lon="-1.26948101">
<ele>141</ele>
<time>2014-11-03T18:05:26Z</time>
</trkpt>
<trkpt lat="38.0902604" lon="-1.2694559">
<ele>140</ele>
<time>2014-11-03T18:05:28Z</time>
</trkpt>
<trkpt lat="38.09024625" lon="-1.26944342">
<ele>140</ele>
<time>2014-11-03T18:05:30Z</time>
</trkpt>
<trkpt lat="38.09022964" lon="-1.26942489">
<ele>142</ele>
<time>2014-11-03T18:05:32Z</time>
</trkpt>
<trkpt lat="38.09020688" lon="-1.26941647">
<ele>140</ele>
<time>2014-11-03T18:05:34Z</time>
</trkpt>
<trkpt lat="38.09019823" lon="-1.26941902">
<ele>140</ele>
<time>2014-11-03T18:05:36Z</time>
</trkpt>
<trkpt lat="38.09019176" lon="-1.26944294">
<ele>140</ele>
<time>2014-11-03T18:05:39Z</time>
</trkpt>
<trkpt lat="38.09018469" lon="-1.26946025">
<ele>140</ele>
<time>2014-11-03T18:05:40Z</time>
</trkpt>
<trkpt lat="38.09016963" lon="-1.26947347">
<ele>135</ele>
<time>2014-11-03T18:05:42Z</time>
</trkpt>
<trkpt lat="38.09014292" lon="-1.26947085">
<ele>136</ele>
<time>2014-11-03T18:05:44Z</time>
</trkpt>
<trkpt lat="38.09011901" lon="-1.26946095">
<ele>137</ele>
<time>2014-11-03T18:05:46Z</time>
</trkpt>
<trkpt lat="38.09010036" lon="-1.26945523">
<ele>137</ele>
<time>2014-11-03T18:05:48Z</time>
</trkpt>
<trkpt lat="38.09003783" lon="-1.26942596">
<ele>138</ele>
<time>2014-11-03T18:05:52Z</time>
</trkpt>
<trkpt lat="38.09002458" lon="-1.26942282">
<ele>141</ele>
<time>2014-11-03T18:05:53Z</time>
</trkpt>
<trkpt lat="38.08999307" lon="-1.26941295">
<ele>139</ele>
<time>2014-11-03T18:05:55Z</time>
</trkpt>
<trkpt lat="38.08996848" lon="-1.26940734">
<ele>136</ele>
<time>2014-11-03T18:05:57Z</time>
</trkpt>
<trkpt lat="38.08994538" lon="-1.26939954">
<ele>137</ele>
<time>2014-11-03T18:05:59Z</time>
</trkpt>
<trkpt lat="38.0899245" lon="-1.26939848">
<ele>137</ele>
<time>2014-11-03T18:06:01Z</time>
</trkpt>
<trkpt lat="38.08990721" lon="-1.26938171">
<ele>137</ele>
<time>2014-11-03T18:06:03Z</time>
</trkpt>
<trkpt lat="38.08991572" lon="-1.26939638">
<ele>138</ele>
<time>2014-11-03T18:06:05Z</time>
</trkpt>
<trkpt lat="38.08992072" lon="-1.26944179">
<ele>137</ele>
<time>2014-11-03T18:06:07Z</time>
</trkpt>
<trkpt lat="38.08992262" lon="-1.26947255">
<ele>137</ele>
<time>2014-11-03T18:06:09Z</time>
</trkpt>
<trkpt lat="38.08989892" lon="-1.26945266">
<ele>137</ele>
<time>2014-11-03T18:06:11Z</time>
</trkpt>
<trkpt lat="38.0898893" lon="-1.26946766">
<ele>137</ele>
<time>2014-11-03T18:06:13Z</time>
</trkpt>
<trkpt lat="38.08984204" lon="-1.26940407">
<ele>137</ele>
<time>2014-11-03T18:06:16Z</time>
</trkpt>
<trkpt lat="38.08983806" lon="-1.26938165">
<ele>136</ele>
<time>2014-11-03T18:06:17Z</time>
</trkpt>
<trkpt lat="38.08982761" lon="-1.26933916">
<ele>135</ele>
<time>2014-11-03T18:06:19Z</time>
</trkpt>
<trkpt lat="38.08980736" lon="-1.26928739">
<ele>137</ele>
<time>2014-11-03T18:06:21Z</time>
</trkpt>
<trkpt lat="38.08978774" lon="-1.26927009">
<ele>136</ele>
<time>2014-11-03T18:06:23Z</time>
</trkpt>
<trkpt lat="38.08976774" lon="-1.26926635">
<ele>135</ele>
<time>2014-11-03T18:06:25Z</time>
</trkpt>
<trkpt lat="38.08973209" lon="-1.26920611">
<ele>135</ele>
<time>2014-11-03T18:06:28Z</time>
</trkpt>
<trkpt lat="38.08972731" lon="-1.26919102">
<ele>136</ele>
<time>2014-11-03T18:06:29Z</time>
</trkpt>
<trkpt lat="38.08970619" lon="-1.26916845">
<ele>135</ele>
<time>2014-11-03T18:06:31Z</time>
</trkpt>
<trkpt lat="38.08969046" lon="-1.26915227">
<ele>135</ele>
<time>2014-11-03T18:06:33Z</time>
</trkpt>
<trkpt lat="38.08966297" lon="-1.2691542">
<ele>135</ele>
<time>2014-11-03T18:06:35Z</time>
</trkpt>
<trkpt lat="38.08964122" lon="-1.2691615">
<ele>135</ele>
<time>2014-11-03T18:06:37Z</time>
</trkpt>
<trkpt lat="38.08962143" lon="-1.26915882">
<ele>135</ele>
<time>2014-11-03T18:06:39Z</time>
</trkpt>
<trkpt lat="38.08960241" lon="-1.26916964">
<ele>134</ele>
<time>2014-11-03T18:06:41Z</time>
</trkpt>
<trkpt lat="38.08956611" lon="-1.26919975">
<ele>135</ele>
<time>2014-11-03T18:06:43Z</time>
</trkpt>
<trkpt lat="38.08950256" lon="-1.26919139">
<ele>134</ele>
<time>2014-11-03T18:06:45Z</time>
</trkpt>
<trkpt lat="38.08945439" lon="-1.26917389">
<ele>132</ele>
<time>2014-11-03T18:06:47Z</time>
</trkpt>
<trkpt lat="38.08942298" lon="-1.26917299">
<ele>133</ele>
<time>2014-11-03T18:06:49Z</time>
</trkpt>
<trkpt lat="38.08942103" lon="-1.26917304">
<ele>133</ele>
<time>2014-11-03T18:06:51Z</time>
</trkpt>
<trkpt lat="38.08940224" lon="-1.26917956">
<ele>134</ele>
<time>2014-11-03T18:06:53Z</time>
</trkpt>
<trkpt lat="38.08939781" lon="-1.26918286">
<ele>134</ele>
<time>2014-11-03T18:06:57Z</time>
</trkpt>
<trkpt lat="38.08939491" lon="-1.26918513">
<ele>134</ele>
<time>2014-11-03T18:06:58Z</time>
</trkpt>
<trkpt lat="38.089416" lon="-1.26918079">
<ele>134</ele>
<time>2014-11-03T18:07:00Z</time>
</trkpt>
<trkpt lat="38.08942477" lon="-1.26918534">
<ele>133</ele>
<time>2014-11-03T18:07:02Z</time>
</trkpt>
<trkpt lat="38.08943037" lon="-1.26919032">
<ele>133</ele>
<time>2014-11-03T18:07:04Z</time>
</trkpt>
<trkpt lat="38.08943303" lon="-1.26919362">
<ele>133</ele>
<time>2014-11-03T18:07:06Z</time>
</trkpt>
<trkpt lat="38.08943323" lon="-1.26919574">
<ele>134</ele>
<time>2014-11-03T18:07:08Z</time>
</trkpt>
<trkpt lat="38.08943205" lon="-1.26919786">
<ele>133</ele>
<time>2014-11-03T18:07:10Z</time>
</trkpt>
<trkpt lat="38.08943205" lon="-1.26919786">
<ele>133</ele>
<time>2014-11-03T18:07:12Z</time>
</trkpt>
<trkpt lat="38.08942132" lon="-1.26918973">
<ele>133</ele>
<time>2014-11-03T18:07:14Z</time>
</trkpt>
<trkpt lat="38.08940069" lon="-1.26917132">
<ele>133</ele>
<time>2014-11-03T18:07:16Z</time>
</trkpt>
<trkpt lat="38.08938577" lon="-1.26916708">
<ele>134</ele>
<time>2014-11-03T18:07:18Z</time>
</trkpt>
<trkpt lat="38.08936638" lon="-1.26916842">
<ele>134</ele>
<time>2014-11-03T18:07:20Z</time>
</trkpt>
<trkpt lat="38.08935474" lon="-1.26917422">
<ele>135</ele>
<time>2014-11-03T18:07:22Z</time>
</trkpt>
<trkpt lat="38.08934341" lon="-1.26917497">
<ele>135</ele>
<time>2014-11-03T18:07:24Z</time>
</trkpt>
<trkpt lat="38.08933116" lon="-1.26917833">
<ele>136</ele>
<time>2014-11-03T18:07:26Z</time>
</trkpt>
<trkpt lat="38.08931405" lon="-1.26918295">
<ele>136</ele>
<time>2014-11-03T18:07:28Z</time>
</trkpt>
<trkpt lat="38.0892985" lon="-1.26918336">
<ele>134</ele>
<time>2014-11-03T18:07:30Z</time>
</trkpt>
<trkpt lat="38.089258" lon="-1.26918793">
<ele>135</ele>
<time>2014-11-03T18:07:33Z</time>
</trkpt>
<trkpt lat="38.0892348" lon="-1.26919526">
<ele>133</ele>
<time>2014-11-03T18:07:34Z</time>
</trkpt>
<trkpt lat="38.0891675" lon="-1.26921057">
<ele>130</ele>
<time>2014-11-03T18:07:36Z</time>
</trkpt>
<trkpt lat="38.08912857" lon="-1.2692187">
<ele>129</ele>
<time>2014-11-03T18:07:38Z</time>
</trkpt>
<trkpt lat="38.08909179" lon="-1.26922452">
<ele>129</ele>
<time>2014-11-03T18:07:40Z</time>
</trkpt>
<trkpt lat="38.08906321" lon="-1.26922374">
<ele>130</ele>
<time>2014-11-03T18:07:42Z</time>
</trkpt>
<trkpt lat="38.089045" lon="-1.26921722">
<ele>129</ele>
<time>2014-11-03T18:07:44Z</time>
</trkpt>
<trkpt lat="38.08903118" lon="-1.2692174">
<ele>130</ele>
<time>2014-11-03T18:07:46Z</time>
</trkpt>
<trkpt lat="38.08901625" lon="-1.2692379">
<ele>129</ele>
<time>2014-11-03T18:07:48Z</time>
</trkpt>
<trkpt lat="38.08900675" lon="-1.26924606">
<ele>129</ele>
<time>2014-11-03T18:07:50Z</time>
</trkpt>
<trkpt lat="38.0889943" lon="-1.26924507">
<ele>131</ele>
<time>2014-11-03T18:07:52Z</time>
</trkpt>
<trkpt lat="38.08897805" lon="-1.2692467">
<ele>130</ele>
<time>2014-11-03T18:07:54Z</time>
</trkpt>
<trkpt lat="38.08894966" lon="-1.26920314">
<ele>130</ele>
<time>2014-11-03T18:07:57Z</time>
</trkpt>
<trkpt lat="38.0889402" lon="-1.26919227">
<ele>131</ele>
<time>2014-11-03T18:07:58Z</time>
</trkpt>
<trkpt lat="38.08892609" lon="-1.26916502">
<ele>132</ele>
<time>2014-11-03T18:08:00Z</time>
</trkpt>
<trkpt lat="38.08890602" lon="-1.26915797">
<ele>131</ele>
<time>2014-11-03T18:08:02Z</time>
</trkpt>
<trkpt lat="38.08888627" lon="-1.26915143">
<ele>131</ele>
<time>2014-11-03T18:08:04Z</time>
</trkpt>
<trkpt lat="38.08886673" lon="-1.2691513">
<ele>132</ele>
<time>2014-11-03T18:08:06Z</time>
</trkpt>
<trkpt lat="38.08884755" lon="-1.26914785">
<ele>132</ele>
<time>2014-11-03T18:08:08Z</time>
</trkpt>
<trkpt lat="38.08884354" lon="-1.26915607">
<ele>136</ele>
<time>2014-11-03T18:08:10Z</time>
</trkpt>
<trkpt lat="38.08883232" lon="-1.26916408">
<ele>136</ele>
<time>2014-11-03T18:08:12Z</time>
</trkpt>
<trkpt lat="38.08881712" lon="-1.26916881">
<ele>137</ele>
<time>2014-11-03T18:08:14Z</time>
</trkpt>
<trkpt lat="38.08879506" lon="-1.26917258">
<ele>138</ele>
<time>2014-11-03T18:08:16Z</time>
</trkpt>
<trkpt lat="38.08877572" lon="-1.269171">
<ele>138</ele>
<time>2014-11-03T18:08:18Z</time>
</trkpt>
<trkpt lat="38.08872236" lon="-1.26916744">
<ele>136</ele>
<time>2014-11-03T18:08:21Z</time>
</trkpt>
<trkpt lat="38.08870536" lon="-1.26916515">
<ele>137</ele>
<time>2014-11-03T18:08:22Z</time>
</trkpt>
<trkpt lat="38.08868064" lon="-1.26914627">
<ele>135</ele>
<time>2014-11-03T18:08:24Z</time>
</trkpt>
<trkpt lat="38.088669" lon="-1.26912545">
<ele>136</ele>
<time>2014-11-03T18:08:26Z</time>
</trkpt>
<trkpt lat="38.08866816" lon="-1.26912907">
<ele>135</ele>
<time>2014-11-03T18:08:28Z</time>
</trkpt>
<trkpt lat="38.0886663" lon="-1.26911975">
<ele>135</ele>
<time>2014-11-03T18:08:30Z</time>
</trkpt>
<trkpt lat="38.08865126" lon="-1.26911654">
<ele>135</ele>
<time>2014-11-03T18:08:32Z</time>
</trkpt>
<trkpt lat="38.08862787" lon="-1.26911604">
<ele>135</ele>
<time>2014-11-03T18:08:34Z</time>
</trkpt>
<trkpt lat="38.08861321" lon="-1.26911083">
<ele>132</ele>
<time>2014-11-03T18:08:36Z</time>
</trkpt>
<trkpt lat="38.08860029" lon="-1.26910688">
<ele>129</ele>
<time>2014-11-03T18:08:38Z</time>
</trkpt>
<trkpt lat="38.08858548" lon="-1.26909469">
<ele>132</ele>
<time>2014-11-03T18:08:40Z</time>
</trkpt>
<trkpt lat="38.08856997" lon="-1.26909248">
<ele>132</ele>
<time>2014-11-03T18:08:42Z</time>
</trkpt>
<trkpt lat="38.08853581" lon="-1.26910297">
<ele>132</ele>
<time>2014-11-03T18:08:45Z</time>
</trkpt>
<trkpt lat="38.08852738" lon="-1.26909936">
<ele>132</ele>
<time>2014-11-03T18:08:46Z</time>
</trkpt>
<trkpt lat="38.08849407" lon="-1.26910664">
<ele>132</ele>
<time>2014-11-03T18:08:48Z</time>
</trkpt>
<trkpt lat="38.08846811" lon="-1.26912596">
<ele>133</ele>
<time>2014-11-03T18:08:50Z</time>
</trkpt>
<trkpt lat="38.08843277" lon="-1.26915348">
<ele>133</ele>
<time>2014-11-03T18:08:53Z</time>
</trkpt>
<trkpt lat="38.08841049" lon="-1.2691552">
<ele>134</ele>
<time>2014-11-03T18:08:55Z</time>
</trkpt>
<trkpt lat="38.0883929" lon="-1.26915744">
<ele>132</ele>
<time>2014-11-03T18:08:57Z</time>
</trkpt>
<trkpt lat="38.08837551" lon="-1.26913562">
<ele>133</ele>
<time>2014-11-03T18:08:59Z</time>
</trkpt>
<trkpt lat="38.08835307" lon="-1.26912785">
<ele>133</ele>
<time>2014-11-03T18:09:01Z</time>
</trkpt>
<trkpt lat="38.08833048" lon="-1.26912153">
<ele>128</ele>
<time>2014-11-03T18:09:03Z</time>
</trkpt>
<trkpt lat="38.08830994" lon="-1.26911315">
<ele>128</ele>
<time>2014-11-03T18:09:05Z</time>
</trkpt>
<trkpt lat="38.08828691" lon="-1.26909933">
<ele>128</ele>
<time>2014-11-03T18:09:07Z</time>
</trkpt>
<trkpt lat="38.08826501" lon="-1.26907948">
<ele>128</ele>
<time>2014-11-03T18:09:09Z</time>
</trkpt>
<trkpt lat="38.0882314" lon="-1.26904468">
<ele>129</ele>
<time>2014-11-03T18:09:11Z</time>
</trkpt>
<trkpt lat="38.08821587" lon="-1.26903131">
<ele>131</ele>
<time>2014-11-03T18:09:13Z</time>
</trkpt>
<trkpt lat="38.0881997" lon="-1.26902405">
<ele>130</ele>
<time>2014-11-03T18:09:15Z</time>
</trkpt>
<trkpt lat="38.08816847" lon="-1.26901708">
<ele>127</ele>
<time>2014-11-03T18:09:18Z</time>
</trkpt>
<trkpt lat="38.08814798" lon="-1.26900986">
<ele>126</ele>
<time>2014-11-03T18:09:20Z</time>
</trkpt>
<trkpt lat="38.08815104" lon="-1.26901456">
<ele>127</ele>
<time>2014-11-03T18:09:22Z</time>
</trkpt>
<trkpt lat="38.08815867" lon="-1.26901161">
<ele>126</ele>
<time>2014-11-03T18:09:24Z</time>
</trkpt>
<trkpt lat="38.0881508" lon="-1.26901105">
<ele>127</ele>
<time>2014-11-03T18:09:26Z</time>
</trkpt>
<trkpt lat="38.0881388" lon="-1.26901364">
<ele>129</ele>
<time>2014-11-03T18:09:28Z</time>
</trkpt>
<trkpt lat="38.0881283" lon="-1.26901214">
<ele>130</ele>
<time>2014-11-03T18:09:30Z</time>
</trkpt>
<trkpt lat="38.08808796" lon="-1.26902399">
<ele>130</ele>
<time>2014-11-03T18:09:33Z</time>
</trkpt>
<trkpt lat="38.08807107" lon="-1.26902395">
<ele>131</ele>
<time>2014-11-03T18:09:34Z</time>
</trkpt>
<trkpt lat="38.08803705" lon="-1.26902029">
<ele>129</ele>
<time>2014-11-03T18:09:36Z</time>
</trkpt>
<trkpt lat="38.08801659" lon="-1.26901733">
<ele>129</ele>
<time>2014-11-03T18:09:38Z</time>
</trkpt>
<trkpt lat="38.08799258" lon="-1.26900853">
<ele>129</ele>
<time>2014-11-03T18:09:40Z</time>
</trkpt>
<trkpt lat="38.08797169" lon="-1.26900387">
<ele>129</ele>
<time>2014-11-03T18:09:42Z</time>
</trkpt>
<trkpt lat="38.08795034" lon="-1.26899913">
<ele>129</ele>
<time>2014-11-03T18:09:44Z</time>
</trkpt>
<trkpt lat="38.08791539" lon="-1.26898607">
<ele>129</ele>
<time>2014-11-03T18:09:47Z</time>
</trkpt>
<trkpt lat="38.08790208" lon="-1.26896751">
<ele>128</ele>
<time>2014-11-03T18:09:48Z</time>
</trkpt>
<trkpt lat="38.08786991" lon="-1.26896656">
<ele>126</ele>
<time>2014-11-03T18:09:50Z</time>
</trkpt>
<trkpt lat="38.08784961" lon="-1.26895474">
<ele>127</ele>
<time>2014-11-03T18:09:52Z</time>
</trkpt>
<trkpt lat="38.08782143" lon="-1.2689706">
<ele>128</ele>
<time>2014-11-03T18:09:54Z</time>
</trkpt>
<trkpt lat="38.0877862" lon="-1.26899889">
<ele>126</ele>
<time>2014-11-03T18:09:57Z</time>
</trkpt>
<trkpt lat="38.08775738" lon="-1.26902303">
<ele>127</ele>
<time>2014-11-03T18:09:59Z</time>
</trkpt>
<trkpt lat="38.08772335" lon="-1.2690248">
<ele>127</ele>
<time>2014-11-03T18:10:01Z</time>
</trkpt>
<trkpt lat="38.08769382" lon="-1.26901752">
<ele>128</ele>
<time>2014-11-03T18:10:03Z</time>
</trkpt>
<trkpt lat="38.08767429" lon="-1.26900857">
<ele>129</ele>
<time>2014-11-03T18:10:05Z</time>
</trkpt>
<trkpt lat="38.08765893" lon="-1.26898999">
<ele>132</ele>
<time>2014-11-03T18:10:08Z</time>
</trkpt>
<trkpt lat="38.08764067" lon="-1.26898405">
<ele>134</ele>
<time>2014-11-03T18:10:10Z</time>
</trkpt>
<trkpt lat="38.08763558" lon="-1.26895236">
<ele>133</ele>
<time>2014-11-03T18:10:12Z</time>
</trkpt>
<trkpt lat="38.08761869" lon="-1.26892278">
<ele>135</ele>
<time>2014-11-03T18:10:14Z</time>
</trkpt>
<trkpt lat="38.08760018" lon="-1.26890409">
<ele>134</ele>
<time>2014-11-03T18:10:16Z</time>
</trkpt>
<trkpt lat="38.08759447" lon="-1.26888395">
<ele>135</ele>
<time>2014-11-03T18:10:18Z</time>
</trkpt>
<trkpt lat="38.08758304" lon="-1.26887292">
<ele>135</ele>
<time>2014-11-03T18:10:20Z</time>
</trkpt>
<trkpt lat="38.08757484" lon="-1.26886911">
<ele>137</ele>
<time>2014-11-03T18:10:22Z</time>
</trkpt>
<trkpt lat="38.08756635" lon="-1.26886543">
<ele>137</ele>
<time>2014-11-03T18:10:24Z</time>
</trkpt>
<trkpt lat="38.08755839" lon="-1.26887005">
<ele>137</ele>
<time>2014-11-03T18:10:26Z</time>
</trkpt>
<trkpt lat="38.08756664" lon="-1.26890546">
<ele>135</ele>
<time>2014-11-03T18:10:28Z</time>
</trkpt>
<trkpt lat="38.08756574" lon="-1.26890614">
<ele>135</ele>
<time>2014-11-03T18:10:30Z</time>
</trkpt>
<trkpt lat="38.08756095" lon="-1.26890034">
<ele>134</ele>
<time>2014-11-03T18:10:32Z</time>
</trkpt>
<trkpt lat="38.08754681" lon="-1.26890375">
<ele>134</ele>
<time>2014-11-03T18:10:36Z</time>
</trkpt>
<trkpt lat="38.08754217" lon="-1.26890486">
<ele>134</ele>
<time>2014-11-03T18:10:38Z</time>
</trkpt>
<trkpt lat="38.08753807" lon="-1.26890585">
<ele>134</ele>
<time>2014-11-03T18:10:40Z</time>
</trkpt>
<trkpt lat="38.08753779" lon="-1.26890341">
<ele>134</ele>
<time>2014-11-03T18:10:42Z</time>
</trkpt>
<trkpt lat="38.08753352" lon="-1.26890518">
<ele>134</ele>
<time>2014-11-03T18:10:44Z</time>
</trkpt>
<trkpt lat="38.08752692" lon="-1.26890425">
<ele>134</ele>
<time>2014-11-03T18:10:46Z</time>
</trkpt>
<trkpt lat="38.08751512" lon="-1.26890079">
<ele>132</ele>
<time>2014-11-03T18:10:48Z</time>
</trkpt>
<trkpt lat="38.08748708" lon="-1.26888879">
<ele>137</ele>
<time>2014-11-03T18:10:50Z</time>
</trkpt>
<trkpt lat="38.08745696" lon="-1.26887925">
<ele>135</ele>
<time>2014-11-03T18:10:52Z</time>
</trkpt>
<trkpt lat="38.08744173" lon="-1.26887802">
<ele>134</ele>
<time>2014-11-03T18:10:54Z</time>
</trkpt>
<trkpt lat="38.08739606" lon="-1.26887649">
<ele>134</ele>
<time>2014-11-03T18:10:56Z</time>
</trkpt>
<trkpt lat="38.08737842" lon="-1.26888186">
<ele>134</ele>
<time>2014-11-03T18:10:58Z</time>
</trkpt>
<trkpt lat="38.08733997" lon="-1.26888575">
<ele>135</ele>
<time>2014-11-03T18:11:00Z</time>
</trkpt>
<trkpt lat="38.08729049" lon="-1.26888817">
<ele>136</ele>
<time>2014-11-03T18:11:02Z</time>
</trkpt>
<trkpt lat="38.08726013" lon="-1.26889468">
<ele>136</ele>
<time>2014-11-03T18:11:04Z</time>
</trkpt>
<trkpt lat="38.08723302" lon="-1.26890239">
<ele>136</ele>
<time>2014-11-03T18:11:06Z</time>
</trkpt>
<trkpt lat="38.08720946" lon="-1.26891084">
<ele>136</ele>
<time>2014-11-03T18:11:08Z</time>
</trkpt>
<trkpt lat="38.08718516" lon="-1.26891739">
<ele>136</ele>
<time>2014-11-03T18:11:10Z</time>
</trkpt>
<trkpt lat="38.08716376" lon="-1.26892374">
<ele>136</ele>
<time>2014-11-03T18:11:12Z</time>
</trkpt>
<trkpt lat="38.08714286" lon="-1.26892932">
<ele>136</ele>
<time>2014-11-03T18:11:14Z</time>
</trkpt>
<trkpt lat="38.0871216" lon="-1.26893292">
<ele>134</ele>
<time>2014-11-03T18:11:16Z</time>
</trkpt>
<trkpt lat="38.08708689" lon="-1.26894271">
<ele>136</ele>
<time>2014-11-03T18:11:19Z</time>
</trkpt>
<trkpt lat="38.08706647" lon="-1.26895334">
<ele>136</ele>
<time>2014-11-03T18:11:21Z</time>
</trkpt>
<trkpt lat="38.08704514" lon="-1.26895954">
<ele>137</ele>
<time>2014-11-03T18:11:23Z</time>
</trkpt>
<trkpt lat="38.08702578" lon="-1.26897337">
<ele>136</ele>
<time>2014-11-03T18:11:25Z</time>
</trkpt>
<trkpt lat="38.08700513" lon="-1.26898085">
<ele>135</ele>
<time>2014-11-03T18:11:27Z</time>
</trkpt>
<trkpt lat="38.08697852" lon="-1.26898865">
<ele>135</ele>
<time>2014-11-03T18:11:29Z</time>
</trkpt>
<trkpt lat="38.08695763" lon="-1.26899173">
<ele>133</ele>
<time>2014-11-03T18:11:31Z</time>
</trkpt>
<trkpt lat="38.08693882" lon="-1.2689966">
<ele>132</ele>
<time>2014-11-03T18:11:33Z</time>
</trkpt>
<trkpt lat="38.08691749" lon="-1.26900136">
<ele>131</ele>
<time>2014-11-03T18:11:35Z</time>
</trkpt>
<trkpt lat="38.08691233" lon="-1.26901764">
<ele>135</ele>
<time>2014-11-03T18:11:37Z</time>
</trkpt>
<trkpt lat="38.08689699" lon="-1.26903008">
<ele>137</ele>
<time>2014-11-03T18:11:39Z</time>
</trkpt>
<trkpt lat="38.08688718" lon="-1.2690561">
<ele>137</ele>
<time>2014-11-03T18:11:42Z</time>
</trkpt>
<trkpt lat="38.08688762" lon="-1.26906634">
<ele>137</ele>
<time>2014-11-03T18:11:43Z</time>
</trkpt>
<trkpt lat="38.08682423" lon="-1.26919293">
<ele>139</ele>
<time>2014-11-03T18:11:46Z</time>
</trkpt>
<trkpt lat="38.08679538" lon="-1.26922655">
<ele>139</ele>
<time>2014-11-03T18:11:48Z</time>
</trkpt>
<trkpt lat="38.08676921" lon="-1.26923908">
<ele>138</ele>
<time>2014-11-03T18:11:50Z</time>
</trkpt>
<trkpt lat="38.08675306" lon="-1.26924361">
<ele>138</ele>
<time>2014-11-03T18:11:52Z</time>
</trkpt>
<trkpt lat="38.08673418" lon="-1.26926305">
<ele>137</ele>
<time>2014-11-03T18:11:54Z</time>
</trkpt>
<trkpt lat="38.0867483" lon="-1.26924817">
<ele>139</ele>
<time>2014-11-03T18:11:56Z</time>
</trkpt>
<trkpt lat="38.08675539" lon="-1.26924872">
<ele>144</ele>
<time>2014-11-03T18:11:58Z</time>
</trkpt>
<trkpt lat="38.08675531" lon="-1.26924815">
<ele>144</ele>
<time>2014-11-03T18:12:00Z</time>
</trkpt>
<trkpt lat="38.08674922" lon="-1.26926005">
<ele>146</ele>
<time>2014-11-03T18:12:02Z</time>
</trkpt>
<trkpt lat="38.08671507" lon="-1.26923106">
<ele>146</ele>
<time>2014-11-03T18:12:05Z</time>
</trkpt>
<trkpt lat="38.08670991" lon="-1.269239">
<ele>144</ele>
<time>2014-11-03T18:12:06Z</time>
</trkpt>
<trkpt lat="38.08669839" lon="-1.26925058">
<ele>140</ele>
<time>2014-11-03T18:12:08Z</time>
</trkpt>
<trkpt lat="38.08670597" lon="-1.26925564">
<ele>141</ele>
<time>2014-11-03T18:12:10Z</time>
</trkpt>
<trkpt lat="38.08670844" lon="-1.26925182">
<ele>141</ele>
<time>2014-11-03T18:12:12Z</time>
</trkpt>
<trkpt lat="38.08670813" lon="-1.2692474">
<ele>140</ele>
<time>2014-11-03T18:12:14Z</time>
</trkpt>
<trkpt lat="38.08670813" lon="-1.2692474">
<ele>140</ele>
<time>2014-11-03T18:12:16Z</time>
</trkpt>
<trkpt lat="38.08670743" lon="-1.26924509">
<ele>140</ele>
<time>2014-11-03T18:12:18Z</time>
</trkpt>
<trkpt lat="38.08670551" lon="-1.26924175">
<ele>140</ele>
<time>2014-11-03T18:12:20Z</time>
</trkpt>
<trkpt lat="38.08670367" lon="-1.26924171">
<ele>140</ele>
<time>2014-11-03T18:12:22Z</time>
</trkpt>
<trkpt lat="38.08670461" lon="-1.26923959">
<ele>140</ele>
<time>2014-11-03T18:12:24Z</time>
</trkpt>
<trkpt lat="38.0867062" lon="-1.2692369">
<ele>140</ele>
<time>2014-11-03T18:12:26Z</time>
</trkpt>
<trkpt lat="38.08670599" lon="-1.26923683">
<ele>140</ele>
<time>2014-11-03T18:12:28Z</time>
</trkpt>
<trkpt lat="38.08670583" lon="-1.26923677">
<ele>140</ele>
<time>2014-11-03T18:12:29Z</time>
</trkpt>
<trkpt lat="38.08670601" lon="-1.26923699">
<ele>140</ele>
<time>2014-11-03T18:12:32Z</time>
</trkpt>
<trkpt lat="38.08670391" lon="-1.26923705">
<ele>140</ele>
<time>2014-11-03T18:12:34Z</time>
</trkpt>
<trkpt lat="38.08670438" lon="-1.26923454">
<ele>141</ele>
<time>2014-11-03T18:12:36Z</time>
</trkpt>
<trkpt lat="38.0867046" lon="-1.26923264">
<ele>140</ele>
<time>2014-11-03T18:12:38Z</time>
</trkpt>
<trkpt lat="38.0867046" lon="-1.26923264">
<ele>140</ele>
<time>2014-11-03T18:12:40Z</time>
</trkpt>
<trkpt lat="38.0867048" lon="-1.26923097">
<ele>140</ele>
<time>2014-11-03T18:12:42Z</time>
</trkpt>
<trkpt lat="38.08670473" lon="-1.26923088">
<ele>140</ele>
<time>2014-11-03T18:12:44Z</time>
</trkpt>
<trkpt lat="38.08670254" lon="-1.26923208">
<ele>140</ele>
<time>2014-11-03T18:12:46Z</time>
</trkpt>
<trkpt lat="38.08669264" lon="-1.26923731">
<ele>140</ele>
<time>2014-11-03T18:12:48Z</time>
</trkpt>
<trkpt lat="38.08667744" lon="-1.26926197">
<ele>142</ele>
<time>2014-11-03T18:12:50Z</time>
</trkpt>
<trkpt lat="38.08667415" lon="-1.26928179">
<ele>144</ele>
<time>2014-11-03T18:12:52Z</time>
</trkpt>
<trkpt lat="38.08665213" lon="-1.26932462">
<ele>144</ele>
<time>2014-11-03T18:12:55Z</time>
</trkpt>
<trkpt lat="38.08663943" lon="-1.26932951">
<ele>144</ele>
<time>2014-11-03T18:12:56Z</time>
</trkpt>
<trkpt lat="38.0866301" lon="-1.26932621">
<ele>139</ele>
<time>2014-11-03T18:12:58Z</time>
</trkpt>
<trkpt lat="38.0866235" lon="-1.26934079">
<ele>139</ele>
<time>2014-11-03T18:13:00Z</time>
</trkpt>
<trkpt lat="38.08662795" lon="-1.26933546">
<ele>129</ele>
<time>2014-11-03T18:13:02Z</time>
</trkpt>
<trkpt lat="38.08665734" lon="-1.26934228">
<ele>129</ele>
<time>2014-11-03T18:13:04Z</time>
</trkpt>
<trkpt lat="38.08669051" lon="-1.26935264">
<ele>129</ele>
<time>2014-11-03T18:13:06Z</time>
</trkpt>
<trkpt lat="38.08671879" lon="-1.26935363">
<ele>130</ele>
<time>2014-11-03T18:13:08Z</time>
</trkpt>
<trkpt lat="38.08670642" lon="-1.26936338">
<ele>128</ele>
<time>2014-11-03T18:13:10Z</time>
</trkpt>
<trkpt lat="38.08670075" lon="-1.26938233">
<ele>129</ele>
<time>2014-11-03T18:13:12Z</time>
</trkpt>
<trkpt lat="38.08669123" lon="-1.2694068">
<ele>130</ele>
<time>2014-11-03T18:13:14Z</time>
</trkpt>
<trkpt lat="38.08668177" lon="-1.2694356">
<ele>131</ele>
<time>2014-11-03T18:13:16Z</time>
</trkpt>
<trkpt lat="38.08667383" lon="-1.26947686">
<ele>128</ele>
<time>2014-11-03T18:13:18Z</time>
</trkpt>
<trkpt lat="38.08667345" lon="-1.2695107">
<ele>127</ele>
<time>2014-11-03T18:13:20Z</time>
</trkpt>
<trkpt lat="38.08668666" lon="-1.2695776">
<ele>128</ele>
<time>2014-11-03T18:13:23Z</time>
</trkpt>
<trkpt lat="38.08669155" lon="-1.26960555">
<ele>129</ele>
<time>2014-11-03T18:13:24Z</time>
</trkpt>
<trkpt lat="38.08672166" lon="-1.26964814">
<ele>131</ele>
<time>2014-11-03T18:13:26Z</time>
</trkpt>
<trkpt lat="38.08672971" lon="-1.26967779">
<ele>135</ele>
<time>2014-11-03T18:13:28Z</time>
</trkpt>
<trkpt lat="38.0867229" lon="-1.26970293">
<ele>134</ele>
<time>2014-11-03T18:13:30Z</time>
</trkpt>
<trkpt lat="38.08672406" lon="-1.26972368">
<ele>136</ele>
<time>2014-11-03T18:13:32Z</time>
</trkpt>
<trkpt lat="38.08673139" lon="-1.26974678">
<ele>136</ele>
<time>2014-11-03T18:13:34Z</time>
</trkpt>
<trkpt lat="38.08674457" lon="-1.2697242">
<ele>136</ele>
<time>2014-11-03T18:13:36Z</time>
</trkpt>
<trkpt lat="38.08674457" lon="-1.2697242">
<ele>136</ele>
<time>2014-11-03T18:13:38Z</time>
</trkpt>
<trkpt lat="38.08675059" lon="-1.26970204">
<ele>134</ele>
<time>2014-11-03T18:13:40Z</time>
</trkpt>
<trkpt lat="38.08674504" lon="-1.26969474">
<ele>134</ele>
<time>2014-11-03T18:13:43Z</time>
</trkpt>
<trkpt lat="38.08674114" lon="-1.26969433">
<ele>134</ele>
<time>2014-11-03T18:13:45Z</time>
</trkpt>
<trkpt lat="38.08673821" lon="-1.26969403">
<ele>134</ele>
<time>2014-11-03T18:13:47Z</time>
</trkpt>
<trkpt lat="38.08673732" lon="-1.26969354">
<ele>134</ele>
<time>2014-11-03T18:13:48Z</time>
</trkpt>
<trkpt lat="38.08672498" lon="-1.26969251">
<ele>133</ele>
<time>2014-11-03T18:13:50Z</time>
</trkpt>
<trkpt lat="38.08670992" lon="-1.26969857">
<ele>131</ele>
<time>2014-11-03T18:13:52Z</time>
</trkpt>
<trkpt lat="38.08668954" lon="-1.2697148">
<ele>133</ele>
<time>2014-11-03T18:13:54Z</time>
</trkpt>
<trkpt lat="38.08667516" lon="-1.2697042">
<ele>133</ele>
<time>2014-11-03T18:13:56Z</time>
</trkpt>
<trkpt lat="38.08664825" lon="-1.26970059">
<ele>136</ele>
<time>2014-11-03T18:13:58Z</time>
</trkpt>
<trkpt lat="38.08663653" lon="-1.26968754">
<ele>137</ele>
<time>2014-11-03T18:14:00Z</time>
</trkpt>
<trkpt lat="38.08663101" lon="-1.26967493">
<ele>138</ele>
<time>2014-11-03T18:14:02Z</time>
</trkpt>
<trkpt lat="38.08662551" lon="-1.26966933">
<ele>140</ele>
<time>2014-11-03T18:14:04Z</time>
</trkpt>
<trkpt lat="38.08662221" lon="-1.26966525">
<ele>142</ele>
<time>2014-11-03T18:14:06Z</time>
</trkpt>
<trkpt lat="38.08661815" lon="-1.2696631">
<ele>143</ele>
<time>2014-11-03T18:14:08Z</time>
</trkpt>
<trkpt lat="38.08661335" lon="-1.2696586">
<ele>144</ele>
<time>2014-11-03T18:14:10Z</time>
</trkpt>
<trkpt lat="38.08661059" lon="-1.26965475">
<ele>144</ele>
<time>2014-11-03T18:14:12Z</time>
</trkpt>
<trkpt lat="38.08661006" lon="-1.26965388">
<ele>144</ele>
<time>2014-11-03T18:14:14Z</time>
</trkpt>
<trkpt lat="38.08660925" lon="-1.26965228">
<ele>144</ele>
<time>2014-11-03T18:14:16Z</time>
</trkpt>
<trkpt lat="38.08660898" lon="-1.26965177">
<ele>144</ele>
<time>2014-11-03T18:14:18Z</time>
</trkpt>
<trkpt lat="38.0866087" lon="-1.26965133">
<ele>144</ele>
<time>2014-11-03T18:14:20Z</time>
</trkpt>
<trkpt lat="38.08660848" lon="-1.26965104">
<ele>144</ele>
<time>2014-11-03T18:14:22Z</time>
</trkpt>
<trkpt lat="38.08660847" lon="-1.26965034">
<ele>144</ele>
<time>2014-11-03T18:14:24Z</time>
</trkpt>
<trkpt lat="38.08660846" lon="-1.26965">
<ele>144</ele>
<time>2014-11-03T18:14:26Z</time>
</trkpt>
<trkpt lat="38.08660841" lon="-1.26964978">
<ele>144</ele>
<time>2014-11-03T18:14:28Z</time>
</trkpt>
<trkpt lat="38.08660839" lon="-1.26964973">
<ele>144</ele>
<time>2014-11-03T18:14:30Z</time>
</trkpt>
<trkpt lat="38.0866084" lon="-1.26964975">
<ele>144</ele>
<time>2014-11-03T18:14:32Z</time>
</trkpt>
<trkpt lat="38.0866084" lon="-1.26964975">
<ele>144</ele>
<time>2014-11-03T18:14:34Z</time>
</trkpt>
<trkpt lat="38.08661278" lon="-1.2696627">
<ele>144</ele>
<time>2014-11-03T18:14:36Z</time>
</trkpt>
<trkpt lat="38.08662943" lon="-1.26969856">
<ele>143</ele>
<time>2014-11-03T18:14:38Z</time>
</trkpt>
<trkpt lat="38.08664923" lon="-1.26973562">
<ele>137</ele>
<time>2014-11-03T18:14:40Z</time>
</trkpt>
<trkpt lat="38.08666925" lon="-1.2697713">
<ele>136</ele>
<time>2014-11-03T18:14:42Z</time>
</trkpt>
<trkpt lat="38.08668853" lon="-1.26980691">
<ele>136</ele>
<time>2014-11-03T18:14:44Z</time>
</trkpt>
<trkpt lat="38.08671772" lon="-1.26983803">
<ele>135</ele>
<time>2014-11-03T18:14:46Z</time>
</trkpt>
<trkpt lat="38.08673324" lon="-1.26986414">
<ele>135</ele>
<time>2014-11-03T18:14:48Z</time>
</trkpt>
<trkpt lat="38.08674905" lon="-1.26989344">
<ele>135</ele>
<time>2014-11-03T18:14:50Z</time>
</trkpt>
<trkpt lat="38.08676296" lon="-1.26992689">
<ele>134</ele>
<time>2014-11-03T18:14:52Z</time>
</trkpt>
<trkpt lat="38.08677679" lon="-1.26996036">
<ele>132</ele>
<time>2014-11-03T18:14:54Z</time>
</trkpt>
<trkpt lat="38.08679051" lon="-1.26998591">
<ele>131</ele>
<time>2014-11-03T18:14:56Z</time>
</trkpt>
<trkpt lat="38.08680589" lon="-1.27000743">
<ele>131</ele>
<time>2014-11-03T18:14:58Z</time>
</trkpt>
<trkpt lat="38.08682664" lon="-1.27004242">
<ele>130</ele>
<time>2014-11-03T18:15:01Z</time>
</trkpt>
<trkpt lat="38.08683635" lon="-1.27005816">
<ele>128</ele>
<time>2014-11-03T18:15:03Z</time>
</trkpt>
<trkpt lat="38.086839" lon="-1.27006123">
<ele>129</ele>
<time>2014-11-03T18:15:04Z</time>
</trkpt>
<trkpt lat="38.08685035" lon="-1.2700697">
<ele>128</ele>
<time>2014-11-03T18:15:06Z</time>
</trkpt>
<trkpt lat="38.08686421" lon="-1.27007666">
<ele>128</ele>
<time>2014-11-03T18:15:08Z</time>
</trkpt>
<trkpt lat="38.0868524" lon="-1.27007771">
<ele>129</ele>
<time>2014-11-03T18:15:10Z</time>
</trkpt>
<trkpt lat="38.08685115" lon="-1.27007866">
<ele>130</ele>
<time>2014-11-03T18:15:12Z</time>
</trkpt>
<trkpt lat="38.08685049" lon="-1.27007944">
<ele>129</ele>
<time>2014-11-03T18:15:14Z</time>
</trkpt>
<trkpt lat="38.0868494" lon="-1.27007979">
<ele>129</ele>
<time>2014-11-03T18:15:16Z</time>
</trkpt>
<trkpt lat="38.08684595" lon="-1.27007989">
<ele>129</ele>
<time>2014-11-03T18:15:18Z</time>
</trkpt>
<trkpt lat="38.0868446" lon="-1.27007961">
<ele>129</ele>
<time>2014-11-03T18:15:20Z</time>
</trkpt>
<trkpt lat="38.08684232" lon="-1.27008009">
<ele>130</ele>
<time>2014-11-03T18:15:22Z</time>
</trkpt>
<trkpt lat="38.08684134" lon="-1.27008041">
<ele>130</ele>
<time>2014-11-03T18:15:24Z</time>
</trkpt>
<trkpt lat="38.08684023" lon="-1.27008071">
<ele>130</ele>
<time>2014-11-03T18:15:26Z</time>
</trkpt>
<trkpt lat="38.08683977" lon="-1.27008075">
<ele>130</ele>
<time>2014-11-03T18:15:28Z</time>
</trkpt>
<trkpt lat="38.08683951" lon="-1.2700807">
<ele>130</ele>
<time>2014-11-03T18:15:30Z</time>
</trkpt>
<trkpt lat="38.08683941" lon="-1.27008063">
<ele>130</ele>
<time>2014-11-03T18:15:32Z</time>
</trkpt>
<trkpt lat="38.08683933" lon="-1.27008055">
<ele>130</ele>
<time>2014-11-03T18:15:34Z</time>
</trkpt>
<trkpt lat="38.08683921" lon="-1.27008049">
<ele>130</ele>
<time>2014-11-03T18:15:36Z</time>
</trkpt>
<trkpt lat="38.08683907" lon="-1.27008033">
<ele>130</ele>
<time>2014-11-03T18:15:38Z</time>
</trkpt>
<trkpt lat="38.08683866" lon="-1.27008036">
<ele>130</ele>
<time>2014-11-03T18:15:40Z</time>
</trkpt>
<trkpt lat="38.08683837" lon="-1.2700801">
<ele>131</ele>
<time>2014-11-03T18:15:42Z</time>
</trkpt>
<trkpt lat="38.08683827" lon="-1.27008003">
<ele>131</ele>
<time>2014-11-03T18:15:44Z</time>
</trkpt>
<trkpt lat="38.08683824" lon="-1.27008003">
<ele>131</ele>
<time>2014-11-03T18:15:46Z</time>
</trkpt>
<trkpt lat="38.08683824" lon="-1.27007998">
<ele>131</ele>
<time>2014-11-03T18:15:48Z</time>
</trkpt>
<trkpt lat="38.08683827" lon="-1.27007933">
<ele>131</ele>
<time>2014-11-03T18:15:50Z</time>
</trkpt>
<trkpt lat="38.08683827" lon="-1.27007933">
<ele>131</ele>
<time>2014-11-03T18:15:52Z</time>
</trkpt>
<trkpt lat="38.08683831" lon="-1.2700793">
<ele>131</ele>
<time>2014-11-03T18:15:54Z</time>
</trkpt>
<trkpt lat="38.08683829" lon="-1.27007933">
<ele>131</ele>
<time>2014-11-03T18:15:56Z</time>
</trkpt>
<trkpt lat="38.08683833" lon="-1.27007937">
<ele>131</ele>
<time>2014-11-03T18:15:58Z</time>
</trkpt>
<trkpt lat="38.08683835" lon="-1.27007939">
<ele>131</ele>
<time>2014-11-03T18:16:00Z</time>
</trkpt>
<trkpt lat="38.08683844" lon="-1.27007927">
<ele>131</ele>
<time>2014-11-03T18:16:02Z</time>
</trkpt>
<trkpt lat="38.08684736" lon="-1.27010324">
<ele>129</ele>
<time>2014-11-03T18:16:04Z</time>
</trkpt>
<trkpt lat="38.08685271" lon="-1.27011494">
<ele>128</ele>
<time>2014-11-03T18:16:06Z</time>
</trkpt>
<trkpt lat="38.08685801" lon="-1.27014649">
<ele>129</ele>
<time>2014-11-03T18:16:08Z</time>
</trkpt>
<trkpt lat="38.08685435" lon="-1.27015561">
<ele>131</ele>
<time>2014-11-03T18:16:10Z</time>
</trkpt>
<trkpt lat="38.08685441" lon="-1.27015525">
<ele>131</ele>
<time>2014-11-03T18:16:12Z</time>
</trkpt>
<trkpt lat="38.08685441" lon="-1.27015525">
<ele>131</ele>
<time>2014-11-03T18:16:14Z</time>
</trkpt>
<trkpt lat="38.08685414" lon="-1.27014835">
<ele>131</ele>
<time>2014-11-03T18:16:16Z</time>
</trkpt>
<trkpt lat="38.08685414" lon="-1.27014835">
<ele>131</ele>
<time>2014-11-03T18:16:18Z</time>
</trkpt>
<trkpt lat="38.08685892" lon="-1.2701404">
<ele>131</ele>
<time>2014-11-03T18:16:20Z</time>
</trkpt>
<trkpt lat="38.0868604" lon="-1.27013787">
<ele>131</ele>
<time>2014-11-03T18:16:22Z</time>
</trkpt>
<trkpt lat="38.08686159" lon="-1.2701388">
<ele>131</ele>
<time>2014-11-03T18:16:24Z</time>
</trkpt>
<trkpt lat="38.08686079" lon="-1.27014064">
<ele>131</ele>
<time>2014-11-03T18:16:26Z</time>
</trkpt>
<trkpt lat="38.08686048" lon="-1.27014033">
<ele>131</ele>
<time>2014-11-03T18:16:28Z</time>
</trkpt>
<trkpt lat="38.08686048" lon="-1.27014033">
<ele>131</ele>
<time>2014-11-03T18:16:30Z</time>
</trkpt>
<trkpt lat="38.08686066" lon="-1.27014076">
<ele>131</ele>
<time>2014-11-03T18:16:32Z</time>
</trkpt>
<trkpt lat="38.08686083" lon="-1.27014111">
<ele>131</ele>
<time>2014-11-03T18:16:34Z</time>
</trkpt>
<trkpt lat="38.08685866" lon="-1.27014399">
<ele>131</ele>
<time>2014-11-03T18:16:36Z</time>
</trkpt>
<trkpt lat="38.08688996" lon="-1.27016935">
<ele>133</ele>
<time>2014-11-03T18:16:38Z</time>
</trkpt>
<trkpt lat="38.08691434" lon="-1.2702053">
<ele>133</ele>
<time>2014-11-03T18:16:41Z</time>
</trkpt>
<trkpt lat="38.08692173" lon="-1.27021279">
<ele>133</ele>
<time>2014-11-03T18:16:42Z</time>
</trkpt>
<trkpt lat="38.08692694" lon="-1.27026907">
<ele>131</ele>
<time>2014-11-03T18:16:44Z</time>
</trkpt>
<trkpt lat="38.0869364" lon="-1.2702965">
<ele>130</ele>
<time>2014-11-03T18:16:46Z</time>
</trkpt>
<trkpt lat="38.08692644" lon="-1.27034085">
<ele>130</ele>
<time>2014-11-03T18:16:48Z</time>
</trkpt>
<trkpt lat="38.08693953" lon="-1.27033317">
<ele>125</ele>
<time>2014-11-03T18:16:50Z</time>
</trkpt>
<trkpt lat="38.0869422" lon="-1.27034029">
<ele>126</ele>
<time>2014-11-03T18:16:52Z</time>
</trkpt>
<trkpt lat="38.08694054" lon="-1.27034727">
<ele>127</ele>
<time>2014-11-03T18:16:55Z</time>
</trkpt>
<trkpt lat="38.08694781" lon="-1.27035471">
<ele>127</ele>
<time>2014-11-03T18:16:57Z</time>
</trkpt>
<trkpt lat="38.08694781" lon="-1.27035471">
<ele>127</ele>
<time>2014-11-03T18:16:59Z</time>
</trkpt>
<trkpt lat="38.08694917" lon="-1.2703617">
<ele>128</ele>
<time>2014-11-03T18:17:01Z</time>
</trkpt>
<trkpt lat="38.08694675" lon="-1.2703721">
<ele>130</ele>
<time>2014-11-03T18:17:03Z</time>
</trkpt>
<trkpt lat="38.08694675" lon="-1.2703721">
<ele>130</ele>
<time>2014-11-03T18:17:05Z</time>
</trkpt>
<trkpt lat="38.08694766" lon="-1.27037503">
<ele>130</ele>
<time>2014-11-03T18:17:07Z</time>
</trkpt>
<trkpt lat="38.0869487" lon="-1.2703777">
<ele>130</ele>
<time>2014-11-03T18:17:09Z</time>
</trkpt>
<trkpt lat="38.08694721" lon="-1.27038218">
<ele>130</ele>
<time>2014-11-03T18:17:11Z</time>
</trkpt>
<trkpt lat="38.08695141" lon="-1.2703898">
<ele>130</ele>
<time>2014-11-03T18:17:13Z</time>
</trkpt>
<trkpt lat="38.08697461" lon="-1.27039536">
<ele>131</ele>
<time>2014-11-03T18:17:15Z</time>
</trkpt>
<trkpt lat="38.08696379" lon="-1.27044976">
<ele>125</ele>
<time>2014-11-03T18:17:17Z</time>
</trkpt>
<trkpt lat="38.08695421" lon="-1.27048337">
<ele>126</ele>
<time>2014-11-03T18:17:19Z</time>
</trkpt>
<trkpt lat="38.08692887" lon="-1.27053297">
<ele>123</ele>
<time>2014-11-03T18:17:21Z</time>
</trkpt>
<trkpt lat="38.08692887" lon="-1.27053297">
<ele>123</ele>
<time>2014-11-03T18:17:23Z</time>
</trkpt>
<trkpt lat="38.0869201" lon="-1.27055774">
<ele>123</ele>
<time>2014-11-03T18:17:25Z</time>
</trkpt>
<trkpt lat="38.08691995" lon="-1.27056211">
<ele>123</ele>
<time>2014-11-03T18:17:27Z</time>
</trkpt>
<trkpt lat="38.08693206" lon="-1.27056282">
<ele>125</ele>
<time>2014-11-03T18:17:29Z</time>
</trkpt>
<trkpt lat="38.08693494" lon="-1.2705646">
<ele>126</ele>
<time>2014-11-03T18:17:31Z</time>
</trkpt>
<trkpt lat="38.08693618" lon="-1.27056668">
<ele>126</ele>
<time>2014-11-03T18:17:34Z</time>
</trkpt>
<trkpt lat="38.08693618" lon="-1.27056668">
<ele>126</ele>
<time>2014-11-03T18:17:36Z</time>
</trkpt>
<trkpt lat="38.08693654" lon="-1.2705662">
<ele>126</ele>
<time>2014-11-03T18:17:38Z</time>
</trkpt>
<trkpt lat="38.08693743" lon="-1.27056415">
<ele>127</ele>
<time>2014-11-03T18:17:41Z</time>
</trkpt>
<trkpt lat="38.08693738" lon="-1.27056316">
<ele>127</ele>
<time>2014-11-03T18:17:43Z</time>
</trkpt>
<trkpt lat="38.08693718" lon="-1.27056241">
<ele>127</ele>
<time>2014-11-03T18:17:45Z</time>
</trkpt>
<trkpt lat="38.08693718" lon="-1.27056241">
<ele>127</ele>
<time>2014-11-03T18:17:47Z</time>
</trkpt>
<trkpt lat="38.086937" lon="-1.27056176">
<ele>127</ele>
<time>2014-11-03T18:17:49Z</time>
</trkpt>
<trkpt lat="38.08693704" lon="-1.27056193">
<ele>127</ele>
<time>2014-11-03T18:17:51Z</time>
</trkpt>
<trkpt lat="38.08693704" lon="-1.27056228">
<ele>127</ele>
<time>2014-11-03T18:17:53Z</time>
</trkpt>
<trkpt lat="38.086937" lon="-1.27056229">
<ele>127</ele>
<time>2014-11-03T18:17:55Z</time>
</trkpt>
<trkpt lat="38.08693692" lon="-1.27056183">
<ele>127</ele>
<time>2014-11-03T18:17:57Z</time>
</trkpt>
<trkpt lat="38.08693646" lon="-1.27056154">
<ele>127</ele>
<time>2014-11-03T18:18:01Z</time>
</trkpt>
<trkpt lat="38.08693646" lon="-1.27056154">
<ele>127</ele>
<time>2014-11-03T18:18:03Z</time>
</trkpt>
<trkpt lat="38.08693614" lon="-1.27056156">
<ele>127</ele>
<time>2014-11-03T18:18:05Z</time>
</trkpt>
<trkpt lat="38.08693595" lon="-1.27056205">
<ele>127</ele>
<time>2014-11-03T18:18:07Z</time>
</trkpt>
<trkpt lat="38.0869359" lon="-1.27056204">
<ele>127</ele>
<time>2014-11-03T18:18:10Z</time>
</trkpt>
<trkpt lat="38.08693564" lon="-1.27056231">
<ele>127</ele>
<time>2014-11-03T18:18:12Z</time>
</trkpt>
<trkpt lat="38.08693551" lon="-1.27056245">
<ele>127</ele>
<time>2014-11-03T18:18:14Z</time>
</trkpt>
<trkpt lat="38.08693533" lon="-1.27056255">
<ele>127</ele>
<time>2014-11-03T18:18:16Z</time>
</trkpt>
<trkpt lat="38.08693529" lon="-1.27056255">
<ele>127</ele>
<time>2014-11-03T18:18:18Z</time>
</trkpt>
<trkpt lat="38.08693528" lon="-1.27056236">
<ele>127</ele>
<time>2014-11-03T18:18:20Z</time>
</trkpt>
<trkpt lat="38.08691761" lon="-1.27056437">
<ele>127</ele>
<time>2014-11-03T18:18:22Z</time>
</trkpt>
<trkpt lat="38.08688987" lon="-1.27057154">
<ele>127</ele>
<time>2014-11-03T18:18:24Z</time>
</trkpt>
<trkpt lat="38.08686791" lon="-1.27057982">
<ele>129</ele>
<time>2014-11-03T18:18:26Z</time>
</trkpt>
<trkpt lat="38.08682747" lon="-1.27060042">
<ele>130</ele>
<time>2014-11-03T18:18:28Z</time>
</trkpt>
<trkpt lat="38.08680097" lon="-1.27061783">
<ele>130</ele>
<time>2014-11-03T18:18:30Z</time>
</trkpt>
<trkpt lat="38.08677168" lon="-1.2706288">
<ele>133</ele>
<time>2014-11-03T18:18:32Z</time>
</trkpt>
<trkpt lat="38.08674226" lon="-1.2706389">
<ele>132</ele>
<time>2014-11-03T18:18:34Z</time>
</trkpt>
<trkpt lat="38.08671363" lon="-1.27064696">
<ele>136</ele>
<time>2014-11-03T18:18:36Z</time>
</trkpt>
<trkpt lat="38.08668801" lon="-1.27064841">
<ele>136</ele>
<time>2014-11-03T18:18:38Z</time>
</trkpt>
<trkpt lat="38.0866647" lon="-1.27064854">
<ele>135</ele>
<time>2014-11-03T18:18:40Z</time>
</trkpt>
<trkpt lat="38.08663471" lon="-1.27065444">
<ele>133</ele>
<time>2014-11-03T18:18:42Z</time>
</trkpt>
<trkpt lat="38.08661649" lon="-1.27065378">
<ele>133</ele>
<time>2014-11-03T18:18:44Z</time>
</trkpt>
<trkpt lat="38.08658723" lon="-1.27066994">
<ele>132</ele>
<time>2014-11-03T18:18:46Z</time>
</trkpt>
<trkpt lat="38.08656885" lon="-1.27067551">
<ele>131</ele>
<time>2014-11-03T18:18:48Z</time>
</trkpt>
<trkpt lat="38.0865417" lon="-1.27070381">
<ele>132</ele>
<time>2014-11-03T18:18:50Z</time>
</trkpt>
<trkpt lat="38.08651889" lon="-1.27072025">
<ele>132</ele>
<time>2014-11-03T18:18:52Z</time>
</trkpt>
<trkpt lat="38.08650083" lon="-1.2707327">
<ele>132</ele>
<time>2014-11-03T18:18:54Z</time>
</trkpt>
<trkpt lat="38.08647562" lon="-1.27075034">
<ele>133</ele>
<time>2014-11-03T18:18:56Z</time>
</trkpt>
<trkpt lat="38.08645138" lon="-1.27076547">
<ele>134</ele>
<time>2014-11-03T18:18:58Z</time>
</trkpt>
<trkpt lat="38.08642483" lon="-1.27077629">
<ele>135</ele>
<time>2014-11-03T18:19:00Z</time>
</trkpt>
<trkpt lat="38.08639123" lon="-1.27078464">
<ele>132</ele>
<time>2014-11-03T18:19:02Z</time>
</trkpt>
<trkpt lat="38.08637095" lon="-1.27079141">
<ele>130</ele>
<time>2014-11-03T18:19:04Z</time>
</trkpt>
<trkpt lat="38.08634912" lon="-1.27080015">
<ele>130</ele>
<time>2014-11-03T18:19:06Z</time>
</trkpt>
<trkpt lat="38.08632336" lon="-1.27081075">
<ele>131</ele>
<time>2014-11-03T18:19:08Z</time>
</trkpt>
<trkpt lat="38.08630047" lon="-1.27081463">
<ele>131</ele>
<time>2014-11-03T18:19:10Z</time>
</trkpt>
<trkpt lat="38.08627166" lon="-1.27080761">
<ele>132</ele>
<time>2014-11-03T18:19:12Z</time>
</trkpt>
<trkpt lat="38.08625079" lon="-1.2708083">
<ele>132</ele>
<time>2014-11-03T18:19:14Z</time>
</trkpt>
<trkpt lat="38.0862353" lon="-1.27082111">
<ele>134</ele>
<time>2014-11-03T18:19:16Z</time>
</trkpt>
<trkpt lat="38.08622724" lon="-1.27084881">
<ele>136</ele>
<time>2014-11-03T18:19:18Z</time>
</trkpt>
<trkpt lat="38.08621089" lon="-1.27087143">
<ele>136</ele>
<time>2014-11-03T18:19:20Z</time>
</trkpt>
<trkpt lat="38.0861979" lon="-1.27087905">
<ele>136</ele>
<time>2014-11-03T18:19:22Z</time>
</trkpt>
<trkpt lat="38.08617051" lon="-1.27088301">
<ele>137</ele>
<time>2014-11-03T18:19:24Z</time>
</trkpt>
<trkpt lat="38.08615139" lon="-1.2708845">
<ele>137</ele>
<time>2014-11-03T18:19:26Z</time>
</trkpt>
<trkpt lat="38.08613443" lon="-1.27089109">
<ele>137</ele>
<time>2014-11-03T18:19:28Z</time>
</trkpt>
<trkpt lat="38.08611329" lon="-1.27093077">
<ele>139</ele>
<time>2014-11-03T18:19:30Z</time>
</trkpt>
<trkpt lat="38.08609614" lon="-1.27096144">
<ele>142</ele>
<time>2014-11-03T18:19:32Z</time>
</trkpt>
<trkpt lat="38.08608065" lon="-1.27098477">
<ele>143</ele>
<time>2014-11-03T18:19:34Z</time>
</trkpt>
<trkpt lat="38.08606273" lon="-1.27100884">
<ele>143</ele>
<time>2014-11-03T18:19:36Z</time>
</trkpt>
<trkpt lat="38.08603951" lon="-1.27101966">
<ele>141</ele>
<time>2014-11-03T18:19:38Z</time>
</trkpt>
<trkpt lat="38.08601861" lon="-1.27102942">
<ele>142</ele>
<time>2014-11-03T18:19:40Z</time>
</trkpt>
<trkpt lat="38.08600079" lon="-1.27103996">
<ele>142</ele>
<time>2014-11-03T18:19:42Z</time>
</trkpt>
<trkpt lat="38.08598129" lon="-1.27104276">
<ele>139</ele>
<time>2014-11-03T18:19:44Z</time>
</trkpt>
<trkpt lat="38.08596012" lon="-1.2710421">
<ele>141</ele>
<time>2014-11-03T18:19:46Z</time>
</trkpt>
<trkpt lat="38.08594165" lon="-1.27103805">
<ele>142</ele>
<time>2014-11-03T18:19:48Z</time>
</trkpt>
<trkpt lat="38.08590171" lon="-1.27103581">
<ele>138</ele>
<time>2014-11-03T18:19:50Z</time>
</trkpt>
<trkpt lat="38.08586374" lon="-1.27105265">
<ele>136</ele>
<time>2014-11-03T18:19:53Z</time>
</trkpt>
<trkpt lat="38.08584447" lon="-1.27106037">
<ele>136</ele>
<time>2014-11-03T18:19:55Z</time>
</trkpt>
<trkpt lat="38.08582523" lon="-1.27105244">
<ele>137</ele>
<time>2014-11-03T18:19:57Z</time>
</trkpt>
<trkpt lat="38.08580457" lon="-1.27104897">
<ele>137</ele>
<time>2014-11-03T18:19:59Z</time>
</trkpt>
<trkpt lat="38.08578492" lon="-1.27104962">
<ele>139</ele>
<time>2014-11-03T18:20:01Z</time>
</trkpt>
<trkpt lat="38.08576521" lon="-1.27105014">
<ele>139</ele>
<time>2014-11-03T18:20:03Z</time>
</trkpt>
<trkpt lat="38.08574724" lon="-1.2710533">
<ele>138</ele>
<time>2014-11-03T18:20:05Z</time>
</trkpt>
<trkpt lat="38.08573671" lon="-1.27105071">
<ele>139</ele>
<time>2014-11-03T18:20:07Z</time>
</trkpt>
<trkpt lat="38.08571988" lon="-1.2710373">
<ele>139</ele>
<time>2014-11-03T18:20:09Z</time>
</trkpt>
<trkpt lat="38.08571066" lon="-1.27103904">
<ele>140</ele>
<time>2014-11-03T18:20:11Z</time>
</trkpt>
<trkpt lat="38.08569848" lon="-1.27103906">
<ele>142</ele>
<time>2014-11-03T18:20:13Z</time>
</trkpt>
<trkpt lat="38.08567875" lon="-1.27104001">
<ele>142</ele>
<time>2014-11-03T18:20:15Z</time>
</trkpt>
<trkpt lat="38.08567794" lon="-1.27103581">
<ele>144</ele>
<time>2014-11-03T18:20:17Z</time>
</trkpt>
<trkpt lat="38.08566918" lon="-1.27104108">
<ele>143</ele>
<time>2014-11-03T18:20:19Z</time>
</trkpt>
<trkpt lat="38.0856589" lon="-1.27104377">
<ele>143</ele>
<time>2014-11-03T18:20:21Z</time>
</trkpt>
<trkpt lat="38.08562509" lon="-1.27106258">
<ele>143</ele>
<time>2014-11-03T18:20:23Z</time>
</trkpt>
<trkpt lat="38.08557954" lon="-1.27107423">
<ele>145</ele>
<time>2014-11-03T18:20:25Z</time>
</trkpt>
<trkpt lat="38.08554854" lon="-1.27107239">
<ele>143</ele>
<time>2014-11-03T18:20:27Z</time>
</trkpt>
<trkpt lat="38.08552173" lon="-1.27107345">
<ele>143</ele>
<time>2014-11-03T18:20:29Z</time>
</trkpt>
<trkpt lat="38.08548103" lon="-1.27107053">
<ele>141</ele>
<time>2014-11-03T18:20:31Z</time>
</trkpt>
<trkpt lat="38.08545417" lon="-1.27107595">
<ele>142</ele>
<time>2014-11-03T18:20:33Z</time>
</trkpt>
<trkpt lat="38.08543176" lon="-1.27107246">
<ele>140</ele>
<time>2014-11-03T18:20:35Z</time>
</trkpt>
<trkpt lat="38.08541163" lon="-1.27106843">
<ele>140</ele>
<time>2014-11-03T18:20:37Z</time>
</trkpt>
<trkpt lat="38.0853903" lon="-1.27106089">
<ele>139</ele>
<time>2014-11-03T18:20:39Z</time>
</trkpt>
<trkpt lat="38.08537317" lon="-1.27106007">
<ele>139</ele>
<time>2014-11-03T18:20:41Z</time>
</trkpt>
<trkpt lat="38.08535958" lon="-1.27104974">
<ele>139</ele>
<time>2014-11-03T18:20:43Z</time>
</trkpt>
<trkpt lat="38.08534399" lon="-1.27104072">
<ele>139</ele>
<time>2014-11-03T18:20:45Z</time>
</trkpt>
<trkpt lat="38.08532054" lon="-1.2710475">
<ele>141</ele>
<time>2014-11-03T18:20:48Z</time>
</trkpt>
<trkpt lat="38.08530328" lon="-1.27105216">
<ele>141</ele>
<time>2014-11-03T18:20:50Z</time>
</trkpt>
<trkpt lat="38.08528335" lon="-1.27105096">
<ele>142</ele>
<time>2014-11-03T18:20:52Z</time>
</trkpt>
<trkpt lat="38.08526391" lon="-1.27105093">
<ele>142</ele>
<time>2014-11-03T18:20:54Z</time>
</trkpt>
<trkpt lat="38.08524258" lon="-1.27105457">
<ele>142</ele>
<time>2014-11-03T18:20:56Z</time>
</trkpt>
<trkpt lat="38.08522244" lon="-1.27105677">
<ele>142</ele>
<time>2014-11-03T18:20:58Z</time>
</trkpt>
<trkpt lat="38.08519811" lon="-1.27105706">
<ele>142</ele>
<time>2014-11-03T18:21:00Z</time>
</trkpt>
<trkpt lat="38.08517374" lon="-1.27106081">
<ele>141</ele>
<time>2014-11-03T18:21:02Z</time>
</trkpt>
<trkpt lat="38.08515742" lon="-1.27106718">
<ele>141</ele>
<time>2014-11-03T18:21:04Z</time>
</trkpt>
<trkpt lat="38.08514645" lon="-1.27107826">
<ele>140</ele>
<time>2014-11-03T18:21:06Z</time>
</trkpt>
<trkpt lat="38.08512941" lon="-1.27108965">
<ele>142</ele>
<time>2014-11-03T18:21:08Z</time>
</trkpt>
<trkpt lat="38.0851075" lon="-1.27109527">
<ele>143</ele>
<time>2014-11-03T18:21:10Z</time>
</trkpt>
<trkpt lat="38.08508842" lon="-1.27110036">
<ele>142</ele>
<time>2014-11-03T18:21:12Z</time>
</trkpt>
<trkpt lat="38.08506878" lon="-1.27109659">
<ele>142</ele>
<time>2014-11-03T18:21:14Z</time>
</trkpt>
<trkpt lat="38.08504904" lon="-1.27108121">
<ele>142</ele>
<time>2014-11-03T18:21:16Z</time>
</trkpt>
<trkpt lat="38.0850316" lon="-1.2710782">
<ele>141</ele>
<time>2014-11-03T18:21:18Z</time>
</trkpt>
<trkpt lat="38.08500805" lon="-1.27107936">
<ele>140</ele>
<time>2014-11-03T18:21:20Z</time>
</trkpt>
<trkpt lat="38.08498599" lon="-1.27108168">
<ele>139</ele>
<time>2014-11-03T18:21:22Z</time>
</trkpt>
<trkpt lat="38.0849651" lon="-1.27107835">
<ele>139</ele>
<time>2014-11-03T18:21:24Z</time>
</trkpt>
<trkpt lat="38.0849479" lon="-1.27108167">
<ele>139</ele>
<time>2014-11-03T18:21:26Z</time>
</trkpt>
<trkpt lat="38.08492564" lon="-1.27106036">
<ele>140</ele>
<time>2014-11-03T18:21:28Z</time>
</trkpt>
<trkpt lat="38.08490011" lon="-1.27104575">
<ele>140</ele>
<time>2014-11-03T18:21:30Z</time>
</trkpt>
<trkpt lat="38.0848779" lon="-1.27103271">
<ele>142</ele>
<time>2014-11-03T18:21:32Z</time>
</trkpt>
<trkpt lat="38.08485965" lon="-1.27103231">
<ele>144</ele>
<time>2014-11-03T18:21:34Z</time>
</trkpt>
<trkpt lat="38.08485163" lon="-1.27101921">
<ele>143</ele>
<time>2014-11-03T18:21:36Z</time>
</trkpt>
<trkpt lat="38.08484287" lon="-1.27100677">
<ele>143</ele>
<time>2014-11-03T18:21:38Z</time>
</trkpt>
<trkpt lat="38.0848313" lon="-1.27099713">
<ele>143</ele>
<time>2014-11-03T18:21:40Z</time>
</trkpt>
<trkpt lat="38.08481519" lon="-1.27099737">
<ele>143</ele>
<time>2014-11-03T18:21:42Z</time>
</trkpt>
<trkpt lat="38.08479291" lon="-1.27100976">
<ele>142</ele>
<time>2014-11-03T18:21:45Z</time>
</trkpt>
<trkpt lat="38.08476983" lon="-1.27101828">
<ele>142</ele>
<time>2014-11-03T18:21:47Z</time>
</trkpt>
<trkpt lat="38.08473832" lon="-1.27102372">
<ele>142</ele>
<time>2014-11-03T18:21:49Z</time>
</trkpt>
<trkpt lat="38.08471005" lon="-1.27103018">
<ele>143</ele>
<time>2014-11-03T18:21:51Z</time>
</trkpt>
<trkpt lat="38.0846776" lon="-1.27103063">
<ele>142</ele>
<time>2014-11-03T18:21:53Z</time>
</trkpt>
<trkpt lat="38.08465966" lon="-1.27102724">
<ele>142</ele>
<time>2014-11-03T18:21:55Z</time>
</trkpt>
<trkpt lat="38.08464278" lon="-1.2710269">
<ele>142</ele>
<time>2014-11-03T18:21:57Z</time>
</trkpt>
<trkpt lat="38.08462654" lon="-1.27101947">
<ele>142</ele>
<time>2014-11-03T18:21:59Z</time>
</trkpt>
<trkpt lat="38.08460806" lon="-1.27101709">
<ele>142</ele>
<time>2014-11-03T18:22:01Z</time>
</trkpt>
<trkpt lat="38.08458923" lon="-1.27101344">
<ele>142</ele>
<time>2014-11-03T18:22:03Z</time>
</trkpt>
<trkpt lat="38.08457723" lon="-1.27101946">
<ele>142</ele>
<time>2014-11-03T18:22:05Z</time>
</trkpt>
<trkpt lat="38.08456586" lon="-1.27103365">
<ele>145</ele>
<time>2014-11-03T18:22:07Z</time>
</trkpt>
<trkpt lat="38.08455514" lon="-1.27102368">
<ele>145</ele>
<time>2014-11-03T18:22:09Z</time>
</trkpt>
<trkpt lat="38.08454024" lon="-1.27102043">
<ele>146</ele>
<time>2014-11-03T18:22:11Z</time>
</trkpt>
<trkpt lat="38.08452788" lon="-1.27101449">
<ele>145</ele>
<time>2014-11-03T18:22:13Z</time>
</trkpt>
<trkpt lat="38.08450453" lon="-1.27101155">
<ele>144</ele>
<time>2014-11-03T18:22:15Z</time>
</trkpt>
<trkpt lat="38.08447177" lon="-1.27100372">
<ele>143</ele>
<time>2014-11-03T18:22:17Z</time>
</trkpt>
<trkpt lat="38.0844395" lon="-1.27099992">
<ele>144</ele>
<time>2014-11-03T18:22:19Z</time>
</trkpt>
<trkpt lat="38.08441637" lon="-1.27099685">
<ele>144</ele>
<time>2014-11-03T18:22:21Z</time>
</trkpt>
<trkpt lat="38.0843921" lon="-1.27099228">
<ele>144</ele>
<time>2014-11-03T18:22:23Z</time>
</trkpt>
<trkpt lat="38.08435671" lon="-1.27099056">
<ele>143</ele>
<time>2014-11-03T18:22:25Z</time>
</trkpt>
<trkpt lat="38.08432085" lon="-1.27099314">
<ele>143</ele>
<time>2014-11-03T18:22:27Z</time>
</trkpt>
<trkpt lat="38.08429297" lon="-1.27099212">
<ele>142</ele>
<time>2014-11-03T18:22:29Z</time>
</trkpt>
<trkpt lat="38.08427164" lon="-1.27098185">
<ele>141</ele>
<time>2014-11-03T18:22:31Z</time>
</trkpt>
<trkpt lat="38.08425661" lon="-1.27098493">
<ele>141</ele>
<time>2014-11-03T18:22:33Z</time>
</trkpt>
<trkpt lat="38.08423329" lon="-1.27095599">
<ele>144</ele>
<time>2014-11-03T18:22:35Z</time>
</trkpt>
<trkpt lat="38.08420877" lon="-1.27093686">
<ele>142</ele>
<time>2014-11-03T18:22:38Z</time>
</trkpt>
<trkpt lat="38.08419447" lon="-1.27093794">
<ele>142</ele>
<time>2014-11-03T18:22:40Z</time>
</trkpt>
<trkpt lat="38.08418253" lon="-1.27094398">
<ele>139</ele>
<time>2014-11-03T18:22:42Z</time>
</trkpt>
<trkpt lat="38.0841682" lon="-1.27093262">
<ele>141</ele>
<time>2014-11-03T18:22:44Z</time>
</trkpt>
<trkpt lat="38.08414991" lon="-1.27090028">
<ele>140</ele>
<time>2014-11-03T18:22:46Z</time>
</trkpt>
<trkpt lat="38.08412454" lon="-1.27088873">
<ele>141</ele>
<time>2014-11-03T18:22:48Z</time>
</trkpt>
<trkpt lat="38.08410664" lon="-1.27088547">
<ele>142</ele>
<time>2014-11-03T18:22:50Z</time>
</trkpt>
<trkpt lat="38.08408947" lon="-1.27089265">
<ele>141</ele>
<time>2014-11-03T18:22:52Z</time>
</trkpt>
<trkpt lat="38.08406702" lon="-1.27090092">
<ele>141</ele>
<time>2014-11-03T18:22:54Z</time>
</trkpt>
<trkpt lat="38.08404487" lon="-1.27091056">
<ele>141</ele>
<time>2014-11-03T18:22:56Z</time>
</trkpt>
<trkpt lat="38.08402441" lon="-1.27090726">
<ele>141</ele>
<time>2014-11-03T18:22:58Z</time>
</trkpt>
<trkpt lat="38.08400553" lon="-1.27090055">
<ele>141</ele>
<time>2014-11-03T18:23:00Z</time>
</trkpt>
<trkpt lat="38.0839867" lon="-1.27089961">
<ele>141</ele>
<time>2014-11-03T18:23:02Z</time>
</trkpt>
<trkpt lat="38.08397168" lon="-1.27091865">
<ele>139</ele>
<time>2014-11-03T18:23:04Z</time>
</trkpt>
<trkpt lat="38.08394779" lon="-1.27093324">
<ele>139</ele>
<time>2014-11-03T18:23:06Z</time>
</trkpt>
<trkpt lat="38.08392301" lon="-1.27094038">
<ele>138</ele>
<time>2014-11-03T18:23:08Z</time>
</trkpt>
<trkpt lat="38.08389995" lon="-1.27095077">
<ele>137</ele>
<time>2014-11-03T18:23:10Z</time>
</trkpt>
<trkpt lat="38.08387714" lon="-1.27095572">
<ele>138</ele>
<time>2014-11-03T18:23:12Z</time>
</trkpt>
<trkpt lat="38.08385708" lon="-1.27095983">
<ele>139</ele>
<time>2014-11-03T18:23:14Z</time>
</trkpt>
<trkpt lat="38.08383942" lon="-1.2709413">
<ele>138</ele>
<time>2014-11-03T18:23:16Z</time>
</trkpt>
<trkpt lat="38.08382721" lon="-1.27092575">
<ele>138</ele>
<time>2014-11-03T18:23:18Z</time>
</trkpt>
<trkpt lat="38.08381422" lon="-1.27091573">
<ele>140</ele>
<time>2014-11-03T18:23:20Z</time>
</trkpt>
<trkpt lat="38.08379366" lon="-1.27091726">
<ele>142</ele>
<time>2014-11-03T18:23:22Z</time>
</trkpt>
<trkpt lat="38.08376265" lon="-1.27091454">
<ele>140</ele>
<time>2014-11-03T18:23:24Z</time>
</trkpt>
<trkpt lat="38.08373699" lon="-1.270905">
<ele>138</ele>
<time>2014-11-03T18:23:26Z</time>
</trkpt>
<trkpt lat="38.08371843" lon="-1.27089362">
<ele>138</ele>
<time>2014-11-03T18:23:28Z</time>
</trkpt>
<trkpt lat="38.08370333" lon="-1.27088433">
<ele>137</ele>
<time>2014-11-03T18:23:30Z</time>
</trkpt>
<trkpt lat="38.08368975" lon="-1.27086544">
<ele>137</ele>
<time>2014-11-03T18:23:32Z</time>
</trkpt>
<trkpt lat="38.08367216" lon="-1.27084025">
<ele>136</ele>
<time>2014-11-03T18:23:34Z</time>
</trkpt>
<trkpt lat="38.08365205" lon="-1.27082616">
<ele>136</ele>
<time>2014-11-03T18:23:36Z</time>
</trkpt>
<trkpt lat="38.08363173" lon="-1.27081185">
<ele>137</ele>
<time>2014-11-03T18:23:38Z</time>
</trkpt>
<trkpt lat="38.08360943" lon="-1.27080043">
<ele>137</ele>
<time>2014-11-03T18:23:40Z</time>
</trkpt>
<trkpt lat="38.08358204" lon="-1.27079889">
<ele>137</ele>
<time>2014-11-03T18:23:42Z</time>
</trkpt>
<trkpt lat="38.08355959" lon="-1.27080646">
<ele>137</ele>
<time>2014-11-03T18:23:44Z</time>
</trkpt>
<trkpt lat="38.08353862" lon="-1.27081106">
<ele>137</ele>
<time>2014-11-03T18:23:46Z</time>
</trkpt>
<trkpt lat="38.08350417" lon="-1.27080923">
<ele>136</ele>
<time>2014-11-03T18:23:49Z</time>
</trkpt>
<trkpt lat="38.08348181" lon="-1.27081208">
<ele>137</ele>
<time>2014-11-03T18:23:51Z</time>
</trkpt>
<trkpt lat="38.08346189" lon="-1.2708149">
<ele>137</ele>
<time>2014-11-03T18:23:53Z</time>
</trkpt>
<trkpt lat="38.08344016" lon="-1.27082061">
<ele>137</ele>
<time>2014-11-03T18:23:55Z</time>
</trkpt>
<trkpt lat="38.08341302" lon="-1.27080786">
<ele>137</ele>
<time>2014-11-03T18:23:57Z</time>
</trkpt>
<trkpt lat="38.08338927" lon="-1.27079148">
<ele>138</ele>
<time>2014-11-03T18:23:59Z</time>
</trkpt>
<trkpt lat="38.08337015" lon="-1.2707859">
<ele>137</ele>
<time>2014-11-03T18:24:01Z</time>
</trkpt>
<trkpt lat="38.08336354" lon="-1.2707857">
<ele>139</ele>
<time>2014-11-03T18:24:02Z</time>
</trkpt>
<trkpt lat="38.08333613" lon="-1.27080094">
<ele>141</ele>
<time>2014-11-03T18:24:05Z</time>
</trkpt>
<trkpt lat="38.08331294" lon="-1.27081826">
<ele>143</ele>
<time>2014-11-03T18:24:07Z</time>
</trkpt>
<trkpt lat="38.08328676" lon="-1.27084135">
<ele>141</ele>
<time>2014-11-03T18:24:09Z</time>
</trkpt>
<trkpt lat="38.08326698" lon="-1.27085346">
<ele>141</ele>
<time>2014-11-03T18:24:11Z</time>
</trkpt>
<trkpt lat="38.08324125" lon="-1.27085028">
<ele>142</ele>
<time>2014-11-03T18:24:13Z</time>
</trkpt>
<trkpt lat="38.08322311" lon="-1.27083904">
<ele>142</ele>
<time>2014-11-03T18:24:15Z</time>
</trkpt>
<trkpt lat="38.08320302" lon="-1.27080767">
<ele>142</ele>
<time>2014-11-03T18:24:17Z</time>
</trkpt>
<trkpt lat="38.08318068" lon="-1.27078508">
<ele>142</ele>
<time>2014-11-03T18:24:19Z</time>
</trkpt>
<trkpt lat="38.08316393" lon="-1.27075632">
<ele>140</ele>
<time>2014-11-03T18:24:21Z</time>
</trkpt>
<trkpt lat="38.08314652" lon="-1.2707446">
<ele>140</ele>
<time>2014-11-03T18:24:23Z</time>
</trkpt>
<trkpt lat="38.0831329" lon="-1.27074154">
<ele>140</ele>
<time>2014-11-03T18:24:25Z</time>
</trkpt>
<trkpt lat="38.08311687" lon="-1.27073814">
<ele>138</ele>
<time>2014-11-03T18:24:27Z</time>
</trkpt>
<trkpt lat="38.0831009" lon="-1.2707293">
<ele>138</ele>
<time>2014-11-03T18:24:29Z</time>
</trkpt>
<trkpt lat="38.08308518" lon="-1.27072609">
<ele>137</ele>
<time>2014-11-03T18:24:31Z</time>
</trkpt>
<trkpt lat="38.08306734" lon="-1.27070869">
<ele>139</ele>
<time>2014-11-03T18:24:33Z</time>
</trkpt>
<trkpt lat="38.083051" lon="-1.27069889">
<ele>138</ele>
<time>2014-11-03T18:24:35Z</time>
</trkpt>
<trkpt lat="38.08303937" lon="-1.27068068">
<ele>136</ele>
<time>2014-11-03T18:24:37Z</time>
</trkpt>
<trkpt lat="38.0830194" lon="-1.27067">
<ele>136</ele>
<time>2014-11-03T18:24:39Z</time>
</trkpt>
<trkpt lat="38.08299771" lon="-1.27066143">
<ele>138</ele>
<time>2014-11-03T18:24:41Z</time>
</trkpt>
<trkpt lat="38.08297397" lon="-1.27065734">
<ele>138</ele>
<time>2014-11-03T18:24:43Z</time>
</trkpt>
<trkpt lat="38.08294992" lon="-1.27065383">
<ele>139</ele>
<time>2014-11-03T18:24:45Z</time>
</trkpt>
<trkpt lat="38.08292866" lon="-1.27065033">
<ele>139</ele>
<time>2014-11-03T18:24:47Z</time>
</trkpt>
<trkpt lat="38.08290228" lon="-1.27064642">
<ele>139</ele>
<time>2014-11-03T18:24:49Z</time>
</trkpt>
<trkpt lat="38.08288232" lon="-1.27064437">
<ele>140</ele>
<time>2014-11-03T18:24:51Z</time>
</trkpt>
<trkpt lat="38.08286389" lon="-1.27064131">
<ele>139</ele>
<time>2014-11-03T18:24:53Z</time>
</trkpt>
<trkpt lat="38.08284641" lon="-1.27063583">
<ele>139</ele>
<time>2014-11-03T18:24:55Z</time>
</trkpt>
<trkpt lat="38.08282302" lon="-1.27062343">
<ele>137</ele>
<time>2014-11-03T18:24:57Z</time>
</trkpt>
<trkpt lat="38.08280498" lon="-1.27061688">
<ele>137</ele>
<time>2014-11-03T18:24:59Z</time>
</trkpt>
<trkpt lat="38.08278232" lon="-1.27060941">
<ele>137</ele>
<time>2014-11-03T18:25:01Z</time>
</trkpt>
<trkpt lat="38.08276149" lon="-1.27060381">
<ele>140</ele>
<time>2014-11-03T18:25:03Z</time>
</trkpt>
<trkpt lat="38.082744" lon="-1.27059788">
<ele>141</ele>
<time>2014-11-03T18:25:05Z</time>
</trkpt>
<trkpt lat="38.08272387" lon="-1.27059115">
<ele>141</ele>
<time>2014-11-03T18:25:07Z</time>
</trkpt>
<trkpt lat="38.08269805" lon="-1.27058601">
<ele>140</ele>
<time>2014-11-03T18:25:09Z</time>
</trkpt>
<trkpt lat="38.08267329" lon="-1.27058326">
<ele>141</ele>
<time>2014-11-03T18:25:11Z</time>
</trkpt>
<trkpt lat="38.08265343" lon="-1.27058265">
<ele>142</ele>
<time>2014-11-03T18:25:13Z</time>
</trkpt>
<trkpt lat="38.08262557" lon="-1.27059245">
<ele>143</ele>
<time>2014-11-03T18:25:15Z</time>
</trkpt>
<trkpt lat="38.08259537" lon="-1.27059291">
<ele>144</ele>
<time>2014-11-03T18:25:17Z</time>
</trkpt>
<trkpt lat="38.0825594" lon="-1.27059245">
<ele>145</ele>
<time>2014-11-03T18:25:20Z</time>
</trkpt>
<trkpt lat="38.08252491" lon="-1.27059957">
<ele>143</ele>
<time>2014-11-03T18:25:22Z</time>
</trkpt>
<trkpt lat="38.08250482" lon="-1.27058956">
<ele>144</ele>
<time>2014-11-03T18:25:24Z</time>
</trkpt>
<trkpt lat="38.08249316" lon="-1.27057689">
<ele>145</ele>
<time>2014-11-03T18:25:26Z</time>
</trkpt>
<trkpt lat="38.08247761" lon="-1.27056642">
<ele>143</ele>
<time>2014-11-03T18:25:28Z</time>
</trkpt>
<trkpt lat="38.08246231" lon="-1.27055561">
<ele>144</ele>
<time>2014-11-03T18:25:30Z</time>
</trkpt>
<trkpt lat="38.08244735" lon="-1.27055016">
<ele>144</ele>
<time>2014-11-03T18:25:32Z</time>
</trkpt>
<trkpt lat="38.08242353" lon="-1.27053874">
<ele>142</ele>
<time>2014-11-03T18:25:34Z</time>
</trkpt>
<trkpt lat="38.08240509" lon="-1.27052855">
<ele>144</ele>
<time>2014-11-03T18:25:36Z</time>
</trkpt>
<trkpt lat="38.0823883" lon="-1.27052149">
<ele>145</ele>
<time>2014-11-03T18:25:38Z</time>
</trkpt>
<trkpt lat="38.08237193" lon="-1.27051816">
<ele>145</ele>
<time>2014-11-03T18:25:40Z</time>
</trkpt>
<trkpt lat="38.08235869" lon="-1.27049001">
<ele>146</ele>
<time>2014-11-03T18:25:42Z</time>
</trkpt>
<trkpt lat="38.08234405" lon="-1.27047956">
<ele>146</ele>
<time>2014-11-03T18:25:44Z</time>
</trkpt>
<trkpt lat="38.08232847" lon="-1.27046645">
<ele>146</ele>
<time>2014-11-03T18:25:46Z</time>
</trkpt>
<trkpt lat="38.08230534" lon="-1.27047672">
<ele>146</ele>
<time>2014-11-03T18:25:48Z</time>
</trkpt>
<trkpt lat="38.08228379" lon="-1.27048021">
<ele>147</ele>
<time>2014-11-03T18:25:50Z</time>
</trkpt>
<trkpt lat="38.082259" lon="-1.27047625">
<ele>149</ele>
<time>2014-11-03T18:25:52Z</time>
</trkpt>
<trkpt lat="38.08222342" lon="-1.27047981">
<ele>146</ele>
<time>2014-11-03T18:25:54Z</time>
</trkpt>
<trkpt lat="38.08219261" lon="-1.27048405">
<ele>148</ele>
<time>2014-11-03T18:25:56Z</time>
</trkpt>
<trkpt lat="38.08216759" lon="-1.2704831">
<ele>148</ele>
<time>2014-11-03T18:25:58Z</time>
</trkpt>
<trkpt lat="38.08214907" lon="-1.2704795">
<ele>148</ele>
<time>2014-11-03T18:26:00Z</time>
</trkpt>
<trkpt lat="38.0821348" lon="-1.27047588">
<ele>148</ele>
<time>2014-11-03T18:26:02Z</time>
</trkpt>
<trkpt lat="38.08212642" lon="-1.27047376">
<ele>149</ele>
<time>2014-11-03T18:26:04Z</time>
</trkpt>
<trkpt lat="38.08211432" lon="-1.27046981">
<ele>149</ele>
<time>2014-11-03T18:26:06Z</time>
</trkpt>
<trkpt lat="38.08209429" lon="-1.27046666">
<ele>149</ele>
<time>2014-11-03T18:26:08Z</time>
</trkpt>
<trkpt lat="38.0820738" lon="-1.27046603">
<ele>149</ele>
<time>2014-11-03T18:26:10Z</time>
</trkpt>
<trkpt lat="38.08205626" lon="-1.27046796">
<ele>148</ele>
<time>2014-11-03T18:26:12Z</time>
</trkpt>
<trkpt lat="38.08202507" lon="-1.27045597">
<ele>148</ele>
<time>2014-11-03T18:26:14Z</time>
</trkpt>
<trkpt lat="38.08199533" lon="-1.270457">
<ele>150</ele>
<time>2014-11-03T18:26:16Z</time>
</trkpt>
<trkpt lat="38.0819704" lon="-1.27046228">
<ele>150</ele>
<time>2014-11-03T18:26:18Z</time>
</trkpt>
<trkpt lat="38.08194914" lon="-1.27046282">
<ele>150</ele>
<time>2014-11-03T18:26:20Z</time>
</trkpt>
<trkpt lat="38.08191398" lon="-1.27046318">
<ele>149</ele>
<time>2014-11-03T18:26:22Z</time>
</trkpt>
<trkpt lat="38.08189139" lon="-1.27045737">
<ele>148</ele>
<time>2014-11-03T18:26:24Z</time>
</trkpt>
<trkpt lat="38.08186747" lon="-1.27045858">
<ele>148</ele>
<time>2014-11-03T18:26:26Z</time>
</trkpt>
<trkpt lat="38.08183237" lon="-1.27045203">
<ele>147</ele>
<time>2014-11-03T18:26:29Z</time>
</trkpt>
<trkpt lat="38.08180584" lon="-1.27044147">
<ele>145</ele>
<time>2014-11-03T18:26:31Z</time>
</trkpt>
<trkpt lat="38.08178694" lon="-1.27043223">
<ele>145</ele>
<time>2014-11-03T18:26:33Z</time>
</trkpt>
<trkpt lat="38.08176698" lon="-1.27042872">
<ele>145</ele>
<time>2014-11-03T18:26:35Z</time>
</trkpt>
<trkpt lat="38.08175679" lon="-1.27041772">
<ele>145</ele>
<time>2014-11-03T18:26:37Z</time>
</trkpt>
<trkpt lat="38.08175114" lon="-1.27041477">
<ele>146</ele>
<time>2014-11-03T18:26:38Z</time>
</trkpt>
<trkpt lat="38.08173847" lon="-1.27040154">
<ele>146</ele>
<time>2014-11-03T18:26:40Z</time>
</trkpt>
<trkpt lat="38.08171967" lon="-1.27039485">
<ele>146</ele>
<time>2014-11-03T18:26:42Z</time>
</trkpt>
<trkpt lat="38.08170347" lon="-1.27039468">
<ele>147</ele>
<time>2014-11-03T18:26:44Z</time>
</trkpt>
<trkpt lat="38.0816788" lon="-1.27035848">
<ele>146</ele>
<time>2014-11-03T18:26:46Z</time>
</trkpt>
<trkpt lat="38.08165863" lon="-1.27033666">
<ele>145</ele>
<time>2014-11-03T18:26:48Z</time>
</trkpt>
<trkpt lat="38.08164718" lon="-1.27030232">
<ele>145</ele>
<time>2014-11-03T18:26:50Z</time>
</trkpt>
<trkpt lat="38.08164049" lon="-1.27028574">
<ele>147</ele>
<time>2014-11-03T18:26:52Z</time>
</trkpt>
<trkpt lat="38.08162749" lon="-1.27027819">
<ele>146</ele>
<time>2014-11-03T18:26:54Z</time>
</trkpt>
<trkpt lat="38.08160928" lon="-1.27027205">
<ele>145</ele>
<time>2014-11-03T18:26:56Z</time>
</trkpt>
<trkpt lat="38.08158757" lon="-1.27026816">
<ele>145</ele>
<time>2014-11-03T18:26:58Z</time>
</trkpt>
<trkpt lat="38.08156956" lon="-1.27026036">
<ele>143</ele>
<time>2014-11-03T18:27:00Z</time>
</trkpt>
<trkpt lat="38.08153893" lon="-1.27025401">
<ele>142</ele>
<time>2014-11-03T18:27:03Z</time>
</trkpt>
<trkpt lat="38.08151526" lon="-1.27025534">
<ele>141</ele>
<time>2014-11-03T18:27:05Z</time>
</trkpt>
<trkpt lat="38.08148946" lon="-1.27025497">
<ele>141</ele>
<time>2014-11-03T18:27:07Z</time>
</trkpt>
<trkpt lat="38.08146901" lon="-1.27025318">
<ele>141</ele>
<time>2014-11-03T18:27:09Z</time>
</trkpt>
<trkpt lat="38.08145081" lon="-1.27024506">
<ele>143</ele>
<time>2014-11-03T18:27:11Z</time>
</trkpt>
<trkpt lat="38.08143994" lon="-1.27023214">
<ele>142</ele>
<time>2014-11-03T18:27:13Z</time>
</trkpt>
<trkpt lat="38.08142294" lon="-1.27022822">
<ele>142</ele>
<time>2014-11-03T18:27:15Z</time>
</trkpt>
<trkpt lat="38.08139746" lon="-1.27023702">
<ele>142</ele>
<time>2014-11-03T18:27:17Z</time>
</trkpt>
<trkpt lat="38.08136962" lon="-1.27023795">
<ele>142</ele>
<time>2014-11-03T18:27:19Z</time>
</trkpt>
<trkpt lat="38.08134717" lon="-1.27022934">
<ele>143</ele>
<time>2014-11-03T18:27:21Z</time>
</trkpt>
<trkpt lat="38.08132225" lon="-1.27022743">
<ele>144</ele>
<time>2014-11-03T18:27:23Z</time>
</trkpt>
<trkpt lat="38.08131542" lon="-1.27021492">
<ele>146</ele>
<time>2014-11-03T18:27:26Z</time>
</trkpt>
<trkpt lat="38.08131542" lon="-1.27021492">
<ele>146</ele>
<time>2014-11-03T18:27:28Z</time>
</trkpt>
<trkpt lat="38.08132762" lon="-1.27019524">
<ele>145</ele>
<time>2014-11-03T18:27:30Z</time>
</trkpt>
<trkpt lat="38.08132644" lon="-1.27018565">
<ele>143</ele>
<time>2014-11-03T18:27:32Z</time>
</trkpt>
<trkpt lat="38.08131973" lon="-1.27017852">
<ele>142</ele>
<time>2014-11-03T18:27:34Z</time>
</trkpt>
<trkpt lat="38.08131668" lon="-1.27017488">
<ele>143</ele>
<time>2014-11-03T18:27:36Z</time>
</trkpt>
<trkpt lat="38.08131332" lon="-1.27017312">
<ele>143</ele>
<time>2014-11-03T18:27:38Z</time>
</trkpt>
<trkpt lat="38.08131332" lon="-1.27017312">
<ele>143</ele>
<time>2014-11-03T18:27:40Z</time>
</trkpt>
<trkpt lat="38.08130577" lon="-1.27017554">
<ele>144</ele>
<time>2014-11-03T18:27:42Z</time>
</trkpt>
<trkpt lat="38.08130014" lon="-1.27017528">
<ele>144</ele>
<time>2014-11-03T18:27:44Z</time>
</trkpt>
<trkpt lat="38.08129567" lon="-1.27017389">
<ele>144</ele>
<time>2014-11-03T18:27:46Z</time>
</trkpt>
<trkpt lat="38.08129245" lon="-1.27017377">
<ele>145</ele>
<time>2014-11-03T18:27:48Z</time>
</trkpt>
<trkpt lat="" lon="">
<ele></ele>
<time>2014-11-03TZ</time>
</trkpt>
</trkseg>
</trk>
<wpt lat="" lon="">
	<name></name>
	<desc></desc>
	<cmt></cmt>
	<photoid></photoid>
	<type></type>
</wpt>
</gpx>
